<?xml version="1.0" encoding="UTF-8" standalone="no" ?>
<gpx xmlns="http://www.topografix.com/GPX/1/1" xmlns:xsi="http://www.w3.org/2001/XMLSchema-instance" xsi:schemaLocation="http://www.topografix.com/GPX/1/1 http://www.topografix.com/GPX/1/1/gpx.xsd" version="1.1" creator="VisuGPX - https://www.visugpx.com">
  <metadata>
    <name>Raid 21 PAPh</name>
    <desc><![CDATA[brouillon pour Raid ]]></desc>
  </metadata>
  <trk>
    <name><![CDATA[Vézac - Saint-André - La Roque-Gageac - Cénac - Castelnaud]]></name>
    <trkseg>
      <trkpt lat="44.83561" lon="1.15839">
        <ele>77.98</ele>
        <time>2021-03-30T12:34:37Z</time>
      </trkpt>
      <trkpt lat="44.83567" lon="1.15838">
        <ele>77.723</ele>
        <time>2021-03-30T12:34:39Z</time>
      </trkpt>
      <trkpt lat="44.83562" lon="1.1584">
        <ele>77.936</ele>
        <time>2021-03-30T12:35:48Z</time>
      </trkpt>
      <trkpt lat="44.83564" lon="1.15839">
        <ele>77.85</ele>
        <time>2021-03-30T12:35:55Z</time>
      </trkpt>
      <trkpt lat="44.83551" lon="1.15857">
        <ele>78.217</ele>
        <time>2021-03-30T12:37:20Z</time>
      </trkpt>
      <trkpt lat="44.83555" lon="1.15862">
        <ele>78.125</ele>
        <time>2021-03-30T12:37:21Z</time>
      </trkpt>
      <trkpt lat="44.8361" lon="1.16067">
        <ele>77.91</ele>
        <time>2021-03-30T12:37:49Z</time>
      </trkpt>
      <trkpt lat="44.83623" lon="1.16074">
        <ele>77.315</ele>
        <time>2021-03-30T12:37:51Z</time>
      </trkpt>
      <trkpt lat="44.83669" lon="1.16065">
        <ele>75.413</ele>
        <time>2021-03-30T12:37:57Z</time>
      </trkpt>
      <trkpt lat="44.838" lon="1.16071">
        <ele>74.268</ele>
        <time>2021-03-30T12:38:17Z</time>
      </trkpt>
      <trkpt lat="44.83911" lon="1.1606">
        <ele>79.712</ele>
        <time>2021-03-30T12:38:37Z</time>
      </trkpt>
      <trkpt lat="44.83936" lon="1.16063">
        <ele>82.519</ele>
        <time>2021-03-30T12:38:42Z</time>
      </trkpt>
      <trkpt lat="44.83946" lon="1.1606">
        <ele>83.395</ele>
        <time>2021-03-30T12:38:44Z</time>
      </trkpt>
      <trkpt lat="44.83957" lon="1.16041">
        <ele>82.44</ele>
        <time>2021-03-30T12:38:47Z</time>
      </trkpt>
      <trkpt lat="44.83963" lon="1.16022">
        <ele>80.147</ele>
        <time>2021-03-30T12:38:50Z</time>
      </trkpt>
      <trkpt lat="44.83968" lon="1.1602">
        <ele>80.175</ele>
        <time>2021-03-30T12:38:52Z</time>
      </trkpt>
      <trkpt lat="44.83968" lon="1.1603">
        <ele>81.725</ele>
        <time>2021-03-30T12:38:55Z</time>
      </trkpt>
      <trkpt lat="44.83957" lon="1.16066">
        <ele>85.849</ele>
        <time>2021-03-30T12:39:03Z</time>
      </trkpt>
      <trkpt lat="44.83965" lon="1.16075">
        <ele>88.261</ele>
        <time>2021-03-30T12:39:06Z</time>
      </trkpt>
      <trkpt lat="44.84031" lon="1.16066">
        <ele>98.742</ele>
        <time>2021-03-30T12:39:25Z</time>
      </trkpt>
      <trkpt lat="44.84061" lon="1.16056">
        <ele>98.893</ele>
        <time>2021-03-30T12:39:32Z</time>
      </trkpt>
      <trkpt lat="44.84081" lon="1.16056">
        <ele>100.26</ele>
        <time>2021-03-30T12:39:36Z</time>
      </trkpt>
      <trkpt lat="44.84084" lon="1.16059">
        <ele>101.482</ele>
        <time>2021-03-30T12:39:37Z</time>
      </trkpt>
      <trkpt lat="44.84116" lon="1.16055">
        <ele>102.241</ele>
        <time>2021-03-30T12:39:42Z</time>
      </trkpt>
      <trkpt lat="44.84158" lon="1.16057">
        <ele>104.458</ele>
        <time>2021-03-30T12:39:50Z</time>
      </trkpt>
      <trkpt lat="44.84231" lon="1.16028">
        <ele>103.546</ele>
        <time>2021-03-30T12:40:02Z</time>
      </trkpt>
      <trkpt lat="44.84279" lon="1.16014">
        <ele>101.087</ele>
        <time>2021-03-30T12:40:09Z</time>
      </trkpt>
      <trkpt lat="44.84318" lon="1.15991">
        <ele>98.709</ele>
        <time>2021-03-30T12:40:14Z</time>
      </trkpt>
      <trkpt lat="44.84358" lon="1.15953">
        <ele>96.943</ele>
        <time>2021-03-30T12:40:20Z</time>
      </trkpt>
      <trkpt lat="44.84381" lon="1.15937">
        <ele>96.823</ele>
        <time>2021-03-30T12:40:24Z</time>
      </trkpt>
      <trkpt lat="44.84423" lon="1.15919">
        <ele>98.439</ele>
        <time>2021-03-30T12:40:31Z</time>
      </trkpt>
      <trkpt lat="44.84455" lon="1.15912">
        <ele>100.221</ele>
        <time>2021-03-30T12:40:36Z</time>
      </trkpt>
      <trkpt lat="44.84479" lon="1.15911">
        <ele>102.674</ele>
        <time>2021-03-30T12:40:40Z</time>
      </trkpt>
      <trkpt lat="44.84605" lon="1.15868">
        <ele>100.768</ele>
        <time>2021-03-30T12:41:00Z</time>
      </trkpt>
      <trkpt lat="44.84609" lon="1.15873">
        <ele>101.432</ele>
        <time>2021-03-30T12:41:09Z</time>
      </trkpt>
      <trkpt lat="44.84656" lon="1.15846">
        <ele>102.984</ele>
        <time>2021-03-30T12:41:33Z</time>
      </trkpt>
      <trkpt lat="44.8466" lon="1.15851">
        <ele>104.356</ele>
        <time>2021-03-30T12:41:37Z</time>
      </trkpt>
      <trkpt lat="44.84726" lon="1.15821">
        <ele>105.467</ele>
        <time>2021-03-30T12:41:51Z</time>
      </trkpt>
      <trkpt lat="44.84804" lon="1.15797">
        <ele>109.808</ele>
        <time>2021-03-30T12:42:04Z</time>
      </trkpt>
      <trkpt lat="44.84884" lon="1.15799">
        <ele>111.209</ele>
        <time>2021-03-30T12:42:18Z</time>
      </trkpt>
      <trkpt lat="44.84894" lon="1.15795">
        <ele>110.177</ele>
        <time>2021-03-30T12:42:19Z</time>
      </trkpt>
      <trkpt lat="44.84919" lon="1.15807">
        <ele>110.081</ele>
        <time>2021-03-30T12:42:23Z</time>
      </trkpt>
      <trkpt lat="44.84968" lon="1.15812">
        <ele>109.564</ele>
        <time>2021-03-30T12:42:31Z</time>
      </trkpt>
      <trkpt lat="44.8498" lon="1.15808">
        <ele>110.228</ele>
        <time>2021-03-30T12:42:33Z</time>
      </trkpt>
      <trkpt lat="44.85004" lon="1.15788">
        <ele>110.947</ele>
        <time>2021-03-30T12:42:37Z</time>
      </trkpt>
      <trkpt lat="44.85056" lon="1.15771">
        <ele>113.525</ele>
        <time>2021-03-30T12:42:46Z</time>
      </trkpt>
      <trkpt lat="44.85132" lon="1.15772">
        <ele>116.916</ele>
        <time>2021-03-30T12:43:00Z</time>
      </trkpt>
      <trkpt lat="44.85166" lon="1.15767">
        <ele>116.968</ele>
        <time>2021-03-30T12:43:06Z</time>
      </trkpt>
      <trkpt lat="44.85189" lon="1.15769">
        <ele>118.031</ele>
        <time>2021-03-30T12:43:10Z</time>
      </trkpt>
      <trkpt lat="44.85231" lon="1.15761">
        <ele>117.499</ele>
        <time>2021-03-30T12:43:17Z</time>
      </trkpt>
      <trkpt lat="44.85306" lon="1.15733">
        <ele>114.881</ele>
        <time>2021-03-30T12:43:30Z</time>
      </trkpt>
      <trkpt lat="44.8532" lon="1.15722">
        <ele>116.019</ele>
        <time>2021-03-30T12:43:32Z</time>
      </trkpt>
      <trkpt lat="44.85323" lon="1.15724">
        <ele>116.391</ele>
        <time>2021-03-30T12:43:33Z</time>
      </trkpt>
      <trkpt lat="44.85343" lon="1.15714">
        <ele>119.053</ele>
        <time>2021-03-30T12:43:37Z</time>
      </trkpt>
      <trkpt lat="44.85374" lon="1.1569">
        <ele>121.962</ele>
        <time>2021-03-30T12:43:43Z</time>
      </trkpt>
      <trkpt lat="44.85423" lon="1.15674">
        <ele>125.954</ele>
        <time>2021-03-30T12:43:51Z</time>
      </trkpt>
      <trkpt lat="44.85453" lon="1.15657">
        <ele>125.886</ele>
        <time>2021-03-30T12:43:56Z</time>
      </trkpt>
      <trkpt lat="44.8552" lon="1.1563">
        <ele>126.203</ele>
        <time>2021-03-30T12:44:07Z</time>
      </trkpt>
      <trkpt lat="44.85556" lon="1.15593">
        <ele>128.843</ele>
        <time>2021-03-30T12:44:14Z</time>
      </trkpt>
      <trkpt lat="44.85571" lon="1.15572">
        <ele>129.787</ele>
        <time>2021-03-30T12:44:17Z</time>
      </trkpt>
      <trkpt lat="44.85577" lon="1.15551">
        <ele>129.134</ele>
        <time>2021-03-30T12:44:20Z</time>
      </trkpt>
      <trkpt lat="44.85628" lon="1.15469">
        <ele>131.645</ele>
        <time>2021-03-30T12:44:35Z</time>
      </trkpt>
      <trkpt lat="44.85646" lon="1.15456">
        <ele>133.996</ele>
        <time>2021-03-30T12:44:38Z</time>
      </trkpt>
      <trkpt lat="44.85653" lon="1.15445">
        <ele>134.166</ele>
        <time>2021-03-30T12:44:40Z</time>
      </trkpt>
      <trkpt lat="44.857" lon="1.15409">
        <ele>135.584</ele>
        <time>2021-03-30T12:44:47Z</time>
      </trkpt>
      <trkpt lat="44.85739" lon="1.1539">
        <ele>136.415</ele>
        <time>2021-03-30T12:44:54Z</time>
      </trkpt>
      <trkpt lat="44.8576" lon="1.15388">
        <ele>137.51</ele>
        <time>2021-03-30T12:44:58Z</time>
      </trkpt>
      <trkpt lat="44.85773" lon="1.15381">
        <ele>136.146</ele>
        <time>2021-03-30T12:45:00Z</time>
      </trkpt>
      <trkpt lat="44.85798" lon="1.15376">
        <ele>135.335</ele>
        <time>2021-03-30T12:45:03Z</time>
      </trkpt>
      <trkpt lat="44.85802" lon="1.15381">
        <ele>136.534</ele>
        <time>2021-03-30T12:45:04Z</time>
      </trkpt>
      <trkpt lat="44.85827" lon="1.15382">
        <ele>138.176</ele>
        <time>2021-03-30T12:45:08Z</time>
      </trkpt>
      <trkpt lat="44.85856" lon="1.15395">
        <ele>142.797</ele>
        <time>2021-03-30T12:45:14Z</time>
      </trkpt>
      <trkpt lat="44.8595" lon="1.15356">
        <ele>136.151</ele>
        <time>2021-03-30T12:45:36Z</time>
      </trkpt>
      <trkpt lat="44.85956" lon="1.15348">
        <ele>134.162</ele>
        <time>2021-03-30T12:45:37Z</time>
      </trkpt>
      <trkpt lat="44.85972" lon="1.1534">
        <ele>134.272</ele>
        <time>2021-03-30T12:45:40Z</time>
      </trkpt>
      <trkpt lat="44.8602" lon="1.15338">
        <ele>135.275</ele>
        <time>2021-03-30T12:45:50Z</time>
      </trkpt>
      <trkpt lat="44.86029" lon="1.15334">
        <ele>135.768</ele>
        <time>2021-03-30T12:45:51Z</time>
      </trkpt>
      <trkpt lat="44.86086" lon="1.15345">
        <ele>136.872</ele>
        <time>2021-03-30T12:46:01Z</time>
      </trkpt>
      <trkpt lat="44.861" lon="1.15355">
        <ele>139.376</ele>
        <time>2021-03-30T12:46:04Z</time>
      </trkpt>
      <trkpt lat="44.86112" lon="1.15358">
        <ele>139.865</ele>
        <time>2021-03-30T12:46:08Z</time>
      </trkpt>
      <trkpt lat="44.86126" lon="1.1537">
        <ele>142.433</ele>
        <time>2021-03-30T12:46:11Z</time>
      </trkpt>
      <trkpt lat="44.86135" lon="1.15372">
        <ele>143.564</ele>
        <time>2021-03-30T12:46:12Z</time>
      </trkpt>
      <trkpt lat="44.86137" lon="1.15379">
        <ele>144.368</ele>
        <time>2021-03-30T12:46:13Z</time>
      </trkpt>
      <trkpt lat="44.86175" lon="1.15404">
        <ele>144.332</ele>
        <time>2021-03-30T12:46:20Z</time>
      </trkpt>
      <trkpt lat="44.86182" lon="1.15404">
        <ele>143.878</ele>
        <time>2021-03-30T12:46:21Z</time>
      </trkpt>
      <trkpt lat="44.86202" lon="1.1542">
        <ele>145.918</ele>
        <time>2021-03-30T12:46:25Z</time>
      </trkpt>
      <trkpt lat="44.86258" lon="1.15438">
        <ele>149.589</ele>
        <time>2021-03-30T12:46:35Z</time>
      </trkpt>
      <trkpt lat="44.86293" lon="1.15427">
        <ele>147.838</ele>
        <time>2021-03-30T12:46:41Z</time>
      </trkpt>
      <trkpt lat="44.86321" lon="1.15432">
        <ele>147.459</ele>
        <time>2021-03-30T12:46:45Z</time>
      </trkpt>
      <trkpt lat="44.86338" lon="1.15427">
        <ele>146.657</ele>
        <time>2021-03-30T12:46:48Z</time>
      </trkpt>
      <trkpt lat="44.86369" lon="1.15428">
        <ele>147.453</ele>
        <time>2021-03-30T12:46:53Z</time>
      </trkpt>
      <trkpt lat="44.86376" lon="1.15434">
        <ele>147.713</ele>
        <time>2021-03-30T12:46:54Z</time>
      </trkpt>
      <trkpt lat="44.86388" lon="1.15433">
        <ele>147.919</ele>
        <time>2021-03-30T12:46:56Z</time>
      </trkpt>
      <trkpt lat="44.86416" lon="1.15459">
        <ele>149.079</ele>
        <time>2021-03-30T12:47:02Z</time>
      </trkpt>
      <trkpt lat="44.86438" lon="1.1549">
        <ele>150.726</ele>
        <time>2021-03-30T12:47:07Z</time>
      </trkpt>
      <trkpt lat="44.86465" lon="1.15518">
        <ele>151.541</ele>
        <time>2021-03-30T12:47:13Z</time>
      </trkpt>
      <trkpt lat="44.86472" lon="1.15534">
        <ele>151.848</ele>
        <time>2021-03-30T12:47:16Z</time>
      </trkpt>
      <trkpt lat="44.86467" lon="1.15536">
        <ele>152.121</ele>
        <time>2021-03-30T12:47:17Z</time>
      </trkpt>
      <trkpt lat="44.86475" lon="1.15556">
        <ele>153.48</ele>
        <time>2021-03-30T12:47:20Z</time>
      </trkpt>
      <trkpt lat="44.86488" lon="1.15569">
        <ele>154.084</ele>
        <time>2021-03-30T12:47:25Z</time>
      </trkpt>
      <trkpt lat="44.86494" lon="1.15564">
        <ele>154.088</ele>
        <time>2021-03-30T12:47:26Z</time>
      </trkpt>
      <trkpt lat="44.86507" lon="1.15578">
        <ele>154.835</ele>
        <time>2021-03-30T12:47:30Z</time>
      </trkpt>
      <trkpt lat="44.86523" lon="1.15575">
        <ele>155.118</ele>
        <time>2021-03-30T12:47:34Z</time>
      </trkpt>
      <trkpt lat="44.86552" lon="1.15554">
        <ele>156.366</ele>
        <time>2021-03-30T12:47:38Z</time>
      </trkpt>
      <trkpt lat="44.86585" lon="1.15559">
        <ele>156.967</ele>
        <time>2021-03-30T12:47:43Z</time>
      </trkpt>
      <trkpt lat="44.86587" lon="1.15564">
        <ele>156.678</ele>
        <time>2021-03-30T12:47:44Z</time>
      </trkpt>
      <trkpt lat="44.86624" lon="1.15593">
        <ele>158.098</ele>
        <time>2021-03-30T12:47:51Z</time>
      </trkpt>
      <trkpt lat="44.86639" lon="1.15593">
        <ele>158.265</ele>
        <time>2021-03-30T12:47:55Z</time>
      </trkpt>
      <trkpt lat="44.86657" lon="1.15598">
        <ele>159.649</ele>
        <time>2021-03-30T12:47:58Z</time>
      </trkpt>
      <trkpt lat="44.86661" lon="1.15604">
        <ele>160.971</ele>
        <time>2021-03-30T12:47:59Z</time>
      </trkpt>
      <trkpt lat="44.8668" lon="1.1561">
        <ele>161.89</ele>
        <time>2021-03-30T12:48:03Z</time>
      </trkpt>
      <trkpt lat="44.86694" lon="1.15601">
        <ele>160.163</ele>
        <time>2021-03-30T12:48:05Z</time>
      </trkpt>
      <trkpt lat="44.86705" lon="1.15601">
        <ele>160.237</ele>
        <time>2021-03-30T12:48:07Z</time>
      </trkpt>
      <trkpt lat="44.86713" lon="1.1559">
        <ele>158.479</ele>
        <time>2021-03-30T12:48:08Z</time>
      </trkpt>
      <trkpt lat="44.8674" lon="1.15584">
        <ele>158.064</ele>
        <time>2021-03-30T12:48:15Z</time>
      </trkpt>
      <trkpt lat="44.86748" lon="1.15589">
        <ele>158.981</ele>
        <time>2021-03-30T12:48:17Z</time>
      </trkpt>
      <trkpt lat="44.86753" lon="1.15586">
        <ele>158.739</ele>
        <time>2021-03-30T12:48:18Z</time>
      </trkpt>
      <trkpt lat="44.86765" lon="1.15591">
        <ele>159.932</ele>
        <time>2021-03-30T12:48:20Z</time>
      </trkpt>
      <trkpt lat="44.86792" lon="1.15587">
        <ele>160.769</ele>
        <time>2021-03-30T12:48:24Z</time>
      </trkpt>
      <trkpt lat="44.86794" lon="1.15592">
        <ele>161.569</ele>
        <time>2021-03-30T12:48:25Z</time>
      </trkpt>
      <trkpt lat="44.86808" lon="1.15593">
        <ele>162.701</ele>
        <time>2021-03-30T12:48:27Z</time>
      </trkpt>
      <trkpt lat="44.86851" lon="1.15551">
        <ele>164.648</ele>
        <time>2021-03-30T12:48:34Z</time>
      </trkpt>
      <trkpt lat="44.86882" lon="1.15512">
        <ele>168.814</ele>
        <time>2021-03-30T12:48:41Z</time>
      </trkpt>
      <trkpt lat="44.86907" lon="1.15474">
        <ele>174.85</ele>
        <time>2021-03-30T12:48:47Z</time>
      </trkpt>
      <trkpt lat="44.86917" lon="1.15469">
        <ele>176.715</ele>
        <time>2021-03-30T12:48:49Z</time>
      </trkpt>
      <trkpt lat="44.86932" lon="1.15469">
        <ele>178.905</ele>
        <time>2021-03-30T12:48:52Z</time>
      </trkpt>
      <trkpt lat="44.86956" lon="1.15488">
        <ele>180.863</ele>
        <time>2021-03-30T12:48:58Z</time>
      </trkpt>
      <trkpt lat="44.86981" lon="1.1549">
        <ele>184.111</ele>
        <time>2021-03-30T12:49:04Z</time>
      </trkpt>
      <trkpt lat="44.86982" lon="1.15495">
        <ele>183.434</ele>
        <time>2021-03-30T12:49:05Z</time>
      </trkpt>
      <trkpt lat="44.86997" lon="1.15504">
        <ele>183.952</ele>
        <time>2021-03-30T12:49:09Z</time>
      </trkpt>
      <trkpt lat="44.87001" lon="1.15502">
        <ele>184.638</ele>
        <time>2021-03-30T12:49:10Z</time>
      </trkpt>
      <trkpt lat="44.8702" lon="1.15512">
        <ele>185.09</ele>
        <time>2021-03-30T12:49:14Z</time>
      </trkpt>
      <trkpt lat="44.87022" lon="1.15521">
        <ele>185.165</ele>
        <time>2021-03-30T12:49:16Z</time>
      </trkpt>
      <trkpt lat="44.87032" lon="1.15518">
        <ele>185.968</ele>
        <time>2021-03-30T12:49:18Z</time>
      </trkpt>
      <trkpt lat="44.87041" lon="1.15527">
        <ele>186.712</ele>
        <time>2021-03-30T12:49:20Z</time>
      </trkpt>
      <trkpt lat="44.87065" lon="1.15536">
        <ele>188.548</ele>
        <time>2021-03-30T12:49:26Z</time>
      </trkpt>
      <trkpt lat="44.87093" lon="1.15531">
        <ele>190.548</ele>
        <time>2021-03-30T12:49:31Z</time>
      </trkpt>
      <trkpt lat="44.87117" lon="1.15517">
        <ele>191.945</ele>
        <time>2021-03-30T12:49:36Z</time>
      </trkpt>
      <trkpt lat="44.87147" lon="1.15511">
        <ele>192.019</ele>
        <time>2021-03-30T12:49:44Z</time>
      </trkpt>
      <trkpt lat="44.87181" lon="1.15494">
        <ele>196.29</ele>
        <time>2021-03-30T12:49:52Z</time>
      </trkpt>
      <trkpt lat="44.87205" lon="1.15464">
        <ele>199.251</ele>
        <time>2021-03-30T12:49:58Z</time>
      </trkpt>
      <trkpt lat="44.87209" lon="1.15463">
        <ele>199.619</ele>
        <time>2021-03-30T12:50:00Z</time>
      </trkpt>
      <trkpt lat="44.87207" lon="1.15466">
        <ele>199.398</ele>
        <time>2021-03-30T12:50:05Z</time>
      </trkpt>
      <trkpt lat="44.87225" lon="1.15444">
        <ele>200.71</ele>
        <time>2021-03-30T12:51:35Z</time>
      </trkpt>
      <trkpt lat="44.87225" lon="1.15439">
        <ele>201.488</ele>
        <time>2021-03-30T12:51:36Z</time>
      </trkpt>
      <trkpt lat="44.87235" lon="1.15423">
        <ele>203.634</ele>
        <time>2021-03-30T12:51:39Z</time>
      </trkpt>
      <trkpt lat="44.8725" lon="1.15412">
        <ele>205.969</ele>
        <time>2021-03-30T12:51:42Z</time>
      </trkpt>
      <trkpt lat="44.87249" lon="1.154">
        <ele>206.937</ele>
        <time>2021-03-30T12:51:44Z</time>
      </trkpt>
      <trkpt lat="44.87268" lon="1.15361">
        <ele>213.837</ele>
        <time>2021-03-30T12:51:50Z</time>
      </trkpt>
      <trkpt lat="44.87273" lon="1.15343">
        <ele>216.09</ele>
        <time>2021-03-30T12:51:53Z</time>
      </trkpt>
      <trkpt lat="44.87272" lon="1.15337">
        <ele>216.537</ele>
        <time>2021-03-30T12:51:54Z</time>
      </trkpt>
      <trkpt lat="44.8728" lon="1.15315">
        <ele>218.349</ele>
        <time>2021-03-30T12:51:58Z</time>
      </trkpt>
      <trkpt lat="44.87286" lon="1.15306">
        <ele>218.585</ele>
        <time>2021-03-30T12:52:00Z</time>
      </trkpt>
      <trkpt lat="44.8729" lon="1.15287">
        <ele>219.748</ele>
        <time>2021-03-30T12:52:04Z</time>
      </trkpt>
      <trkpt lat="44.873" lon="1.15278">
        <ele>221.719</ele>
        <time>2021-03-30T12:52:07Z</time>
      </trkpt>
      <trkpt lat="44.87307" lon="1.15278">
        <ele>222.836</ele>
        <time>2021-03-30T12:52:09Z</time>
      </trkpt>
      <trkpt lat="44.87318" lon="1.15313">
        <ele>222.901</ele>
        <time>2021-03-30T12:52:14Z</time>
      </trkpt>
      <trkpt lat="44.87325" lon="1.15312">
        <ele>223.988</ele>
        <time>2021-03-30T12:52:16Z</time>
      </trkpt>
      <trkpt lat="44.87329" lon="1.15306">
        <ele>224.96</ele>
        <time>2021-03-30T12:52:18Z</time>
      </trkpt>
      <trkpt lat="44.87326" lon="1.15279">
        <ele>225.716</ele>
        <time>2021-03-30T12:52:22Z</time>
      </trkpt>
      <trkpt lat="44.8733" lon="1.15257">
        <ele>227.449</ele>
        <time>2021-03-30T12:52:26Z</time>
      </trkpt>
      <trkpt lat="44.87331" lon="1.15234">
        <ele>229.602</ele>
        <time>2021-03-30T12:52:30Z</time>
      </trkpt>
      <trkpt lat="44.87335" lon="1.15219">
        <ele>231.172</ele>
        <time>2021-03-30T12:52:33Z</time>
      </trkpt>
      <trkpt lat="44.87317" lon="1.15154">
        <ele>237.247</ele>
        <time>2021-03-30T12:52:45Z</time>
      </trkpt>
      <trkpt lat="44.87304" lon="1.1513">
        <ele>239.732</ele>
        <time>2021-03-30T12:52:50Z</time>
      </trkpt>
      <trkpt lat="44.87303" lon="1.15122">
        <ele>240.199</ele>
        <time>2021-03-30T12:52:52Z</time>
      </trkpt>
      <trkpt lat="44.87331" lon="1.15111">
        <ele>240.007</ele>
        <time>2021-03-30T12:54:56Z</time>
      </trkpt>
      <trkpt lat="44.87335" lon="1.15094">
        <ele>239.345</ele>
        <time>2021-03-30T12:54:59Z</time>
      </trkpt>
      <trkpt lat="44.87323" lon="1.1506">
        <ele>240.764</ele>
        <time>2021-03-30T12:55:04Z</time>
      </trkpt>
      <trkpt lat="44.87315" lon="1.15025">
        <ele>242.523</ele>
        <time>2021-03-30T12:55:09Z</time>
      </trkpt>
      <trkpt lat="44.87313" lon="1.14981">
        <ele>244.578</ele>
        <time>2021-03-30T12:55:15Z</time>
      </trkpt>
      <trkpt lat="44.87318" lon="1.1496">
        <ele>245.554</ele>
        <time>2021-03-30T12:55:18Z</time>
      </trkpt>
      <trkpt lat="44.87345" lon="1.14921">
        <ele>246.489</ele>
        <time>2021-03-30T12:55:25Z</time>
      </trkpt>
      <trkpt lat="44.87364" lon="1.14904">
        <ele>246.9</ele>
        <time>2021-03-30T12:55:29Z</time>
      </trkpt>
      <trkpt lat="44.87378" lon="1.14899">
        <ele>247.161</ele>
        <time>2021-03-30T12:55:32Z</time>
      </trkpt>
      <trkpt lat="44.87417" lon="1.1491">
        <ele>246.192</ele>
        <time>2021-03-30T12:55:39Z</time>
      </trkpt>
      <trkpt lat="44.87429" lon="1.14903">
        <ele>246.57</ele>
        <time>2021-03-30T12:55:41Z</time>
      </trkpt>
      <trkpt lat="44.87509" lon="1.14809">
        <ele>251.174</ele>
        <time>2021-03-30T12:55:58Z</time>
      </trkpt>
      <trkpt lat="44.87527" lon="1.14782">
        <ele>251.928</ele>
        <time>2021-03-30T12:56:02Z</time>
      </trkpt>
      <trkpt lat="44.87544" lon="1.14766">
        <ele>251.408</ele>
        <time>2021-03-30T12:56:05Z</time>
      </trkpt>
      <trkpt lat="44.87555" lon="1.14749">
        <ele>252.362</ele>
        <time>2021-03-30T12:56:08Z</time>
      </trkpt>
      <trkpt lat="44.87564" lon="1.14718">
        <ele>253.743</ele>
        <time>2021-03-30T12:56:12Z</time>
      </trkpt>
      <trkpt lat="44.87558" lon="1.1469">
        <ele>256.876</ele>
        <time>2021-03-30T12:56:16Z</time>
      </trkpt>
      <trkpt lat="44.87555" lon="1.14687">
        <ele>257.756</ele>
        <time>2021-03-30T12:56:17Z</time>
      </trkpt>
      <trkpt lat="44.87548" lon="1.14691">
        <ele>258.465</ele>
        <time>2021-03-30T12:56:18Z</time>
      </trkpt>
      <trkpt lat="44.87531" lon="1.14689">
        <ele>260.919</ele>
        <time>2021-03-30T12:56:22Z</time>
      </trkpt>
      <trkpt lat="44.87495" lon="1.14706">
        <ele>263.19</ele>
        <time>2021-03-30T12:56:29Z</time>
      </trkpt>
      <trkpt lat="44.87474" lon="1.14691">
        <ele>264.429</ele>
        <time>2021-03-30T12:56:34Z</time>
      </trkpt>
      <trkpt lat="44.87452" lon="1.14517">
        <ele>275.749</ele>
        <time>2021-03-30T12:56:59Z</time>
      </trkpt>
      <trkpt lat="44.87443" lon="1.14491">
        <ele>278.011</ele>
        <time>2021-03-30T12:57:03Z</time>
      </trkpt>
      <trkpt lat="44.87434" lon="1.14476">
        <ele>278.405</ele>
        <time>2021-03-30T12:57:06Z</time>
      </trkpt>
      <trkpt lat="44.87414" lon="1.14454">
        <ele>279.813</ele>
        <time>2021-03-30T12:57:11Z</time>
      </trkpt>
      <trkpt lat="44.87372" lon="1.14311">
        <ele>280.638</ele>
        <time>2021-03-30T12:57:36Z</time>
      </trkpt>
      <trkpt lat="44.87354" lon="1.14194">
        <ele>277.257</ele>
        <time>2021-03-30T12:57:53Z</time>
      </trkpt>
      <trkpt lat="44.87358" lon="1.14161">
        <ele>275.967</ele>
        <time>2021-03-30T12:57:57Z</time>
      </trkpt>
      <trkpt lat="44.87354" lon="1.14141">
        <ele>275.044</ele>
        <time>2021-03-30T12:58:07Z</time>
      </trkpt>
      <trkpt lat="44.8738" lon="1.14131">
        <ele>274.53</ele>
        <time>2021-03-30T12:59:28Z</time>
      </trkpt>
      <trkpt lat="44.87392" lon="1.1411">
        <ele>273.84</ele>
        <time>2021-03-30T12:59:31Z</time>
      </trkpt>
      <trkpt lat="44.87403" lon="1.13961">
        <ele>276.299</ele>
        <time>2021-03-30T12:59:48Z</time>
      </trkpt>
      <trkpt lat="44.874" lon="1.13922">
        <ele>276.789</ele>
        <time>2021-03-30T12:59:59Z</time>
      </trkpt>
      <trkpt lat="44.87435" lon="1.1391">
        <ele>278.617</ele>
        <time>2021-03-30T13:01:14Z</time>
      </trkpt>
      <trkpt lat="44.87441" lon="1.13902">
        <ele>278.988</ele>
        <time>2021-03-30T13:01:16Z</time>
      </trkpt>
      <trkpt lat="44.87451" lon="1.13897">
        <ele>279.206</ele>
        <time>2021-03-30T13:01:18Z</time>
      </trkpt>
      <trkpt lat="44.87503" lon="1.13841">
        <ele>279.415</ele>
        <time>2021-03-30T13:02:05Z</time>
      </trkpt>
      <trkpt lat="44.87542" lon="1.13847">
        <ele>274.293</ele>
        <time>2021-03-30T13:02:13Z</time>
      </trkpt>
      <trkpt lat="44.87594" lon="1.13836">
        <ele>271.612</ele>
        <time>2021-03-30T13:02:24Z</time>
      </trkpt>
      <trkpt lat="44.87627" lon="1.13819">
        <ele>271.056</ele>
        <time>2021-03-30T13:02:31Z</time>
      </trkpt>
      <trkpt lat="44.87633" lon="1.13804">
        <ele>272.213</ele>
        <time>2021-03-30T13:02:33Z</time>
      </trkpt>
      <trkpt lat="44.87656" lon="1.13783">
        <ele>271.781</ele>
        <time>2021-03-30T13:02:38Z</time>
      </trkpt>
      <trkpt lat="44.87682" lon="1.13777">
        <ele>269.027</ele>
        <time>2021-03-30T13:02:42Z</time>
      </trkpt>
      <trkpt lat="44.87699" lon="1.13765">
        <ele>267.268</ele>
        <time>2021-03-30T13:02:45Z</time>
      </trkpt>
      <trkpt lat="44.87734" lon="1.13753">
        <ele>262.8</ele>
        <time>2021-03-30T13:02:50Z</time>
      </trkpt>
      <trkpt lat="44.87725" lon="1.1373">
        <ele>265.194</ele>
        <time>2021-03-30T13:02:56Z</time>
      </trkpt>
      <trkpt lat="44.8774" lon="1.13657">
        <ele>263.645</ele>
        <time>2021-03-30T13:03:06Z</time>
      </trkpt>
      <trkpt lat="44.8773" lon="1.13614">
        <ele>262.367</ele>
        <time>2021-03-30T13:03:11Z</time>
      </trkpt>
      <trkpt lat="44.87722" lon="1.13603">
        <ele>262.895</ele>
        <time>2021-03-30T13:03:14Z</time>
      </trkpt>
      <trkpt lat="44.87688" lon="1.13582">
        <ele>265.037</ele>
        <time>2021-03-30T13:04:34Z</time>
      </trkpt>
      <trkpt lat="44.87671" lon="1.13548">
        <ele>263.531</ele>
        <time>2021-03-30T13:04:38Z</time>
      </trkpt>
      <trkpt lat="44.87663" lon="1.13545">
        <ele>264.533</ele>
        <time>2021-03-30T13:04:39Z</time>
      </trkpt>
      <trkpt lat="44.87636" lon="1.13515">
        <ele>265.448</ele>
        <time>2021-03-30T13:04:44Z</time>
      </trkpt>
      <trkpt lat="44.87634" lon="1.13501">
        <ele>264.349</ele>
        <time>2021-03-30T13:04:45Z</time>
      </trkpt>
      <trkpt lat="44.87623" lon="1.13477">
        <ele>264.016</ele>
        <time>2021-03-30T13:04:47Z</time>
      </trkpt>
      <trkpt lat="44.87613" lon="1.13435">
        <ele>261.815</ele>
        <time>2021-03-30T13:04:51Z</time>
      </trkpt>
      <trkpt lat="44.87597" lon="1.13425">
        <ele>263.538</ele>
        <time>2021-03-30T13:04:55Z</time>
      </trkpt>
      <trkpt lat="44.87588" lon="1.13392">
        <ele>262.731</ele>
        <time>2021-03-30T13:04:59Z</time>
      </trkpt>
      <trkpt lat="44.8758" lon="1.13385">
        <ele>263.571</ele>
        <time>2021-03-30T13:05:00Z</time>
      </trkpt>
      <trkpt lat="44.8755" lon="1.13331">
        <ele>265.531</ele>
        <time>2021-03-30T13:05:08Z</time>
      </trkpt>
      <trkpt lat="44.87545" lon="1.1331">
        <ele>266.009</ele>
        <time>2021-03-30T13:05:11Z</time>
      </trkpt>
      <trkpt lat="44.87531" lon="1.13287">
        <ele>267.7</ele>
        <time>2021-03-30T13:05:16Z</time>
      </trkpt>
      <trkpt lat="44.8753" lon="1.13275">
        <ele>268.704</ele>
        <time>2021-03-30T13:05:17Z</time>
      </trkpt>
      <trkpt lat="44.875" lon="1.1325">
        <ele>273.393</ele>
        <time>2021-03-30T13:05:26Z</time>
      </trkpt>
      <trkpt lat="44.87481" lon="1.13241">
        <ele>274.054</ele>
        <time>2021-03-30T13:05:32Z</time>
      </trkpt>
      <trkpt lat="44.87478" lon="1.13232">
        <ele>274.061</ele>
        <time>2021-03-30T13:05:34Z</time>
      </trkpt>
      <trkpt lat="44.87482" lon="1.13192">
        <ele>275.437</ele>
        <time>2021-03-30T13:05:42Z</time>
      </trkpt>
      <trkpt lat="44.87489" lon="1.13181">
        <ele>277.014</ele>
        <time>2021-03-30T13:05:44Z</time>
      </trkpt>
      <trkpt lat="44.8749" lon="1.13155">
        <ele>277.892</ele>
        <time>2021-03-30T13:05:48Z</time>
      </trkpt>
      <trkpt lat="44.87502" lon="1.13114">
        <ele>278.392</ele>
        <time>2021-03-30T13:05:54Z</time>
      </trkpt>
      <trkpt lat="44.87501" lon="1.13104">
        <ele>278.32</ele>
        <time>2021-03-30T13:05:56Z</time>
      </trkpt>
      <trkpt lat="44.87508" lon="1.13048">
        <ele>279.52</ele>
        <time>2021-03-30T13:06:05Z</time>
      </trkpt>
      <trkpt lat="44.87508" lon="1.13026">
        <ele>279.901</ele>
        <time>2021-03-30T13:06:09Z</time>
      </trkpt>
      <trkpt lat="44.87529" lon="1.1299">
        <ele>282.633</ele>
        <time>2021-03-30T13:06:15Z</time>
      </trkpt>
      <trkpt lat="44.87562" lon="1.12943">
        <ele>280.354</ele>
        <time>2021-03-30T13:07:03Z</time>
      </trkpt>
      <trkpt lat="44.87566" lon="1.1293">
        <ele>279.445</ele>
        <time>2021-03-30T13:07:05Z</time>
      </trkpt>
      <trkpt lat="44.87565" lon="1.12904">
        <ele>278.27</ele>
        <time>2021-03-30T13:07:08Z</time>
      </trkpt>
      <trkpt lat="44.87574" lon="1.12874">
        <ele>276.824</ele>
        <time>2021-03-30T13:07:12Z</time>
      </trkpt>
      <trkpt lat="44.87576" lon="1.12853">
        <ele>276.189</ele>
        <time>2021-03-30T13:07:15Z</time>
      </trkpt>
      <trkpt lat="44.8759" lon="1.12807">
        <ele>271.934</ele>
        <time>2021-03-30T13:07:20Z</time>
      </trkpt>
      <trkpt lat="44.87611" lon="1.12771">
        <ele>267.307</ele>
        <time>2021-03-30T13:07:24Z</time>
      </trkpt>
      <trkpt lat="44.87633" lon="1.12721">
        <ele>265.078</ele>
        <time>2021-03-30T13:07:29Z</time>
      </trkpt>
      <trkpt lat="44.87646" lon="1.12705">
        <ele>264.039</ele>
        <time>2021-03-30T13:07:31Z</time>
      </trkpt>
      <trkpt lat="44.8767" lon="1.1269">
        <ele>262.508</ele>
        <time>2021-03-30T13:07:35Z</time>
      </trkpt>
      <trkpt lat="44.87686" lon="1.12673">
        <ele>261.235</ele>
        <time>2021-03-30T13:07:38Z</time>
      </trkpt>
      <trkpt lat="44.8772" lon="1.12612">
        <ele>258.428</ele>
        <time>2021-03-30T13:07:49Z</time>
      </trkpt>
      <trkpt lat="44.87757" lon="1.12567">
        <ele>254.816</ele>
        <time>2021-03-30T13:08:29Z</time>
      </trkpt>
      <trkpt lat="44.87769" lon="1.12557">
        <ele>253.855</ele>
        <time>2021-03-30T13:08:31Z</time>
      </trkpt>
      <trkpt lat="44.87814" lon="1.12536">
        <ele>253.076</ele>
        <time>2021-03-30T13:08:38Z</time>
      </trkpt>
      <trkpt lat="44.87873" lon="1.12524">
        <ele>255.187</ele>
        <time>2021-03-30T13:08:47Z</time>
      </trkpt>
      <trkpt lat="44.87963" lon="1.1254">
        <ele>258.372</ele>
        <time>2021-03-30T13:09:01Z</time>
      </trkpt>
      <trkpt lat="44.88024" lon="1.12537">
        <ele>261.309</ele>
        <time>2021-03-30T13:09:11Z</time>
      </trkpt>
      <trkpt lat="44.88069" lon="1.12544">
        <ele>260.978</ele>
        <time>2021-03-30T13:09:18Z</time>
      </trkpt>
      <trkpt lat="44.88097" lon="1.12515">
        <ele>263.415</ele>
        <time>2021-03-30T13:09:24Z</time>
      </trkpt>
      <trkpt lat="44.88099" lon="1.12508">
        <ele>263.657</ele>
        <time>2021-03-30T13:09:25Z</time>
      </trkpt>
      <trkpt lat="44.88124" lon="1.12483">
        <ele>264.462</ele>
        <time>2021-03-30T13:09:30Z</time>
      </trkpt>
      <trkpt lat="44.88182" lon="1.12445">
        <ele>264.823</ele>
        <time>2021-03-30T13:09:42Z</time>
      </trkpt>
      <trkpt lat="44.88227" lon="1.12449">
        <ele>262.854</ele>
        <time>2021-03-30T13:10:28Z</time>
      </trkpt>
      <trkpt lat="44.88267" lon="1.12438">
        <ele>261.366</ele>
        <time>2021-03-30T13:10:34Z</time>
      </trkpt>
      <trkpt lat="44.88314" lon="1.12411">
        <ele>260.564</ele>
        <time>2021-03-30T13:10:41Z</time>
      </trkpt>
      <trkpt lat="44.88412" lon="1.12388">
        <ele>256.767</ele>
        <time>2021-03-30T13:10:52Z</time>
      </trkpt>
      <trkpt lat="44.88472" lon="1.1238">
        <ele>251.009</ele>
        <time>2021-03-30T13:10:59Z</time>
      </trkpt>
      <trkpt lat="44.88549" lon="1.12325">
        <ele>246.705</ele>
        <time>2021-03-30T13:11:09Z</time>
      </trkpt>
      <trkpt lat="44.88674" lon="1.12263">
        <ele>232.545</ele>
        <time>2021-03-30T13:11:20Z</time>
      </trkpt>
      <trkpt lat="44.88759" lon="1.12247">
        <ele>225.706</ele>
        <time>2021-03-30T13:11:26Z</time>
      </trkpt>
      <trkpt lat="44.88803" lon="1.12254">
        <ele>221.299</ele>
        <time>2021-03-30T13:11:30Z</time>
      </trkpt>
      <trkpt lat="44.88854" lon="1.1223">
        <ele>215.019</ele>
        <time>2021-03-30T13:11:35Z</time>
      </trkpt>
      <trkpt lat="44.88876" lon="1.12231">
        <ele>211.534</ele>
        <time>2021-03-30T13:11:37Z</time>
      </trkpt>
      <trkpt lat="44.88898" lon="1.12222">
        <ele>208.317</ele>
        <time>2021-03-30T13:11:39Z</time>
      </trkpt>
      <trkpt lat="44.88924" lon="1.12198">
        <ele>204.757</ele>
        <time>2021-03-30T13:11:42Z</time>
      </trkpt>
      <trkpt lat="44.88935" lon="1.12172">
        <ele>203.205</ele>
        <time>2021-03-30T13:11:47Z</time>
      </trkpt>
      <trkpt lat="44.8894" lon="1.1217">
        <ele>202.69</ele>
        <time>2021-03-30T13:11:49Z</time>
      </trkpt>
      <trkpt lat="44.88949" lon="1.12191">
        <ele>202.534</ele>
        <time>2021-03-30T13:11:52Z</time>
      </trkpt>
      <trkpt lat="44.88963" lon="1.12207">
        <ele>201.857</ele>
        <time>2021-03-30T13:11:55Z</time>
      </trkpt>
      <trkpt lat="44.88977" lon="1.12208">
        <ele>201.501</ele>
        <time>2021-03-30T13:11:57Z</time>
      </trkpt>
      <trkpt lat="44.88986" lon="1.12204">
        <ele>201.084</ele>
        <time>2021-03-30T13:11:59Z</time>
      </trkpt>
      <trkpt lat="44.89039" lon="1.122">
        <ele>200.687</ele>
        <time>2021-03-30T13:12:07Z</time>
      </trkpt>
      <trkpt lat="44.89045" lon="1.12196">
        <ele>200.42</ele>
        <time>2021-03-30T13:12:08Z</time>
      </trkpt>
      <trkpt lat="44.89068" lon="1.12204">
        <ele>201</ele>
        <time>2021-03-30T13:12:12Z</time>
      </trkpt>
      <trkpt lat="44.89074" lon="1.12211">
        <ele>201.631</ele>
        <time>2021-03-30T13:12:13Z</time>
      </trkpt>
      <trkpt lat="44.89113" lon="1.1223">
        <ele>202.955</ele>
        <time>2021-03-30T13:12:19Z</time>
      </trkpt>
      <trkpt lat="44.89186" lon="1.12257">
        <ele>202.835</ele>
        <time>2021-03-30T13:12:30Z</time>
      </trkpt>
      <trkpt lat="44.8921" lon="1.1226">
        <ele>202.834</ele>
        <time>2021-03-30T13:12:33Z</time>
      </trkpt>
      <trkpt lat="44.89215" lon="1.12254">
        <ele>202.426</ele>
        <time>2021-03-30T13:12:35Z</time>
      </trkpt>
      <trkpt lat="44.89261" lon="1.12261">
        <ele>202.995</ele>
        <time>2021-03-30T13:12:45Z</time>
      </trkpt>
      <trkpt lat="44.89278" lon="1.12272">
        <ele>204.213</ele>
        <time>2021-03-30T13:12:48Z</time>
      </trkpt>
      <trkpt lat="44.89328" lon="1.12272">
        <ele>203.802</ele>
        <time>2021-03-30T13:12:55Z</time>
      </trkpt>
      <trkpt lat="44.89335" lon="1.12276">
        <ele>204.202</ele>
        <time>2021-03-30T13:12:56Z</time>
      </trkpt>
      <trkpt lat="44.89368" lon="1.12279">
        <ele>204.152</ele>
        <time>2021-03-30T13:13:01Z</time>
      </trkpt>
      <trkpt lat="44.89463" lon="1.12308">
        <ele>202.029</ele>
        <time>2021-03-30T13:13:15Z</time>
      </trkpt>
      <trkpt lat="44.89486" lon="1.12323">
        <ele>201.591</ele>
        <time>2021-03-30T13:13:19Z</time>
      </trkpt>
      <trkpt lat="44.89522" lon="1.12358">
        <ele>199.101</ele>
        <time>2021-03-30T13:13:25Z</time>
      </trkpt>
      <trkpt lat="44.89568" lon="1.12386">
        <ele>192.433</ele>
        <time>2021-03-30T13:13:30Z</time>
      </trkpt>
      <trkpt lat="44.89607" lon="1.12393">
        <ele>189.335</ele>
        <time>2021-03-30T13:13:35Z</time>
      </trkpt>
      <trkpt lat="44.89614" lon="1.12388">
        <ele>190.311</ele>
        <time>2021-03-30T13:13:36Z</time>
      </trkpt>
      <trkpt lat="44.89621" lon="1.12403">
        <ele>187.269</ele>
        <time>2021-03-30T13:13:39Z</time>
      </trkpt>
      <trkpt lat="44.89622" lon="1.12427">
        <ele>182.711</ele>
        <time>2021-03-30T13:13:42Z</time>
      </trkpt>
      <trkpt lat="44.89566" lon="1.12438">
        <ele>182.579</ele>
        <time>2021-03-30T13:13:50Z</time>
      </trkpt>
      <trkpt lat="44.8954" lon="1.12449">
        <ele>183.03</ele>
        <time>2021-03-30T13:13:52Z</time>
      </trkpt>
      <trkpt lat="44.89534" lon="1.12446">
        <ele>184.272</ele>
        <time>2021-03-30T13:13:53Z</time>
      </trkpt>
      <trkpt lat="44.89528" lon="1.12451">
        <ele>184.161</ele>
        <time>2021-03-30T13:13:54Z</time>
      </trkpt>
      <trkpt lat="44.89521" lon="1.1245">
        <ele>185.206</ele>
        <time>2021-03-30T13:13:55Z</time>
      </trkpt>
      <trkpt lat="44.89488" lon="1.12489">
        <ele>182.216</ele>
        <time>2021-03-30T13:13:59Z</time>
      </trkpt>
      <trkpt lat="44.89493" lon="1.12488">
        <ele>182.208</ele>
        <time>2021-03-30T13:14:00Z</time>
      </trkpt>
      <trkpt lat="44.89491" lon="1.12498">
        <ele>180.236</ele>
        <time>2021-03-30T13:14:01Z</time>
      </trkpt>
      <trkpt lat="44.89505" lon="1.12499">
        <ele>179.525</ele>
        <time>2021-03-30T13:14:03Z</time>
      </trkpt>
      <trkpt lat="44.89508" lon="1.12511">
        <ele>177.152</ele>
        <time>2021-03-30T13:14:04Z</time>
      </trkpt>
      <trkpt lat="44.89518" lon="1.12525">
        <ele>173.99</ele>
        <time>2021-03-30T13:14:06Z</time>
      </trkpt>
      <trkpt lat="44.89529" lon="1.12527">
        <ele>173.041</ele>
        <time>2021-03-30T13:14:09Z</time>
      </trkpt>
      <trkpt lat="44.89543" lon="1.12549">
        <ele>169.962</ele>
        <time>2021-03-30T13:14:13Z</time>
      </trkpt>
      <trkpt lat="44.89547" lon="1.12548">
        <ele>169.992</ele>
        <time>2021-03-30T13:14:16Z</time>
      </trkpt>
      <trkpt lat="44.89569" lon="1.12578">
        <ele>165.646</ele>
        <time>2021-03-30T13:15:06Z</time>
      </trkpt>
      <trkpt lat="44.89585" lon="1.12612">
        <ele>161.793</ele>
        <time>2021-03-30T13:15:15Z</time>
      </trkpt>
      <trkpt lat="44.89606" lon="1.12645">
        <ele>157.935</ele>
        <time>2021-03-30T13:15:27Z</time>
      </trkpt>
      <trkpt lat="44.89606" lon="1.12665">
        <ele>156.712</ele>
        <time>2021-03-30T13:15:29Z</time>
      </trkpt>
      <trkpt lat="44.89586" lon="1.12702">
        <ele>155.784</ele>
        <time>2021-03-30T13:15:36Z</time>
      </trkpt>
      <trkpt lat="44.89589" lon="1.12709">
        <ele>155.278</ele>
        <time>2021-03-30T13:15:38Z</time>
      </trkpt>
      <trkpt lat="44.89587" lon="1.12716">
        <ele>154.962</ele>
        <time>2021-03-30T13:15:43Z</time>
      </trkpt>
      <trkpt lat="44.89607" lon="1.1278">
        <ele>152.607</ele>
        <time>2021-03-30T13:17:09Z</time>
      </trkpt>
      <trkpt lat="44.89622" lon="1.12799">
        <ele>152.003</ele>
        <time>2021-03-30T13:17:15Z</time>
      </trkpt>
      <trkpt lat="44.8963" lon="1.12792">
        <ele>151.587</ele>
        <time>2021-03-30T13:17:17Z</time>
      </trkpt>
      <trkpt lat="44.89682" lon="1.12787">
        <ele>151.183</ele>
        <time>2021-03-30T13:17:27Z</time>
      </trkpt>
      <trkpt lat="44.89708" lon="1.12769">
        <ele>151.251</ele>
        <time>2021-03-30T13:17:31Z</time>
      </trkpt>
      <trkpt lat="44.89721" lon="1.12755">
        <ele>150.709</ele>
        <time>2021-03-30T13:17:33Z</time>
      </trkpt>
      <trkpt lat="44.89748" lon="1.12712">
        <ele>148.682</ele>
        <time>2021-03-30T13:17:38Z</time>
      </trkpt>
      <trkpt lat="44.89794" lon="1.12666">
        <ele>145.392</ele>
        <time>2021-03-30T13:17:45Z</time>
      </trkpt>
      <trkpt lat="44.89847" lon="1.12642">
        <ele>145.072</ele>
        <time>2021-03-30T13:17:52Z</time>
      </trkpt>
      <trkpt lat="44.89861" lon="1.1263">
        <ele>143.793</ele>
        <time>2021-03-30T13:17:54Z</time>
      </trkpt>
      <trkpt lat="44.89884" lon="1.12622">
        <ele>142.811</ele>
        <time>2021-03-30T13:17:57Z</time>
      </trkpt>
      <trkpt lat="44.89935" lon="1.12628">
        <ele>144.35</ele>
        <time>2021-03-30T13:18:04Z</time>
      </trkpt>
      <trkpt lat="44.89981" lon="1.12624">
        <ele>144.109</ele>
        <time>2021-03-30T13:18:11Z</time>
      </trkpt>
      <trkpt lat="44.90012" lon="1.12608">
        <ele>141.503</ele>
        <time>2021-03-30T13:18:16Z</time>
      </trkpt>
      <trkpt lat="44.9003" lon="1.12583">
        <ele>140.22</ele>
        <time>2021-03-30T13:18:20Z</time>
      </trkpt>
      <trkpt lat="44.90092" lon="1.12533">
        <ele>138.742</ele>
        <time>2021-03-30T13:18:31Z</time>
      </trkpt>
      <trkpt lat="44.90123" lon="1.12516">
        <ele>141.145</ele>
        <time>2021-03-30T13:18:36Z</time>
      </trkpt>
      <trkpt lat="44.90139" lon="1.12496">
        <ele>140.023</ele>
        <time>2021-03-30T13:18:39Z</time>
      </trkpt>
      <trkpt lat="44.90193" lon="1.12463">
        <ele>140.192</ele>
        <time>2021-03-30T13:18:49Z</time>
      </trkpt>
      <trkpt lat="44.90206" lon="1.1245">
        <ele>139.871</ele>
        <time>2021-03-30T13:18:52Z</time>
      </trkpt>
      <trkpt lat="44.90221" lon="1.12446">
        <ele>140.574</ele>
        <time>2021-03-30T13:18:54Z</time>
      </trkpt>
      <trkpt lat="44.90236" lon="1.12437">
        <ele>140.785</ele>
        <time>2021-03-30T13:18:57Z</time>
      </trkpt>
      <trkpt lat="44.90243" lon="1.12437">
        <ele>141.538</ele>
        <time>2021-03-30T13:18:58Z</time>
      </trkpt>
      <trkpt lat="44.90291" lon="1.12415">
        <ele>142.592</ele>
        <time>2021-03-30T13:19:06Z</time>
      </trkpt>
      <trkpt lat="44.9031" lon="1.12394">
        <ele>141.32</ele>
        <time>2021-03-30T13:19:10Z</time>
      </trkpt>
      <trkpt lat="44.90335" lon="1.12377">
        <ele>142.217</ele>
        <time>2021-03-30T13:19:14Z</time>
      </trkpt>
      <trkpt lat="44.90345" lon="1.12364">
        <ele>141.527</ele>
        <time>2021-03-30T13:19:16Z</time>
      </trkpt>
      <trkpt lat="44.90385" lon="1.12333">
        <ele>140.657</ele>
        <time>2021-03-30T13:19:23Z</time>
      </trkpt>
      <trkpt lat="44.90441" lon="1.12305">
        <ele>141.517</ele>
        <time>2021-03-30T13:19:33Z</time>
      </trkpt>
      <trkpt lat="44.90451" lon="1.12312">
        <ele>142.246</ele>
        <time>2021-03-30T13:19:36Z</time>
      </trkpt>
      <trkpt lat="44.9046" lon="1.12339">
        <ele>143.289</ele>
        <time>2021-03-30T13:19:43Z</time>
      </trkpt>
      <trkpt lat="44.90473" lon="1.12426">
        <ele>146.762</ele>
        <time>2021-03-30T13:19:54Z</time>
      </trkpt>
      <trkpt lat="44.90473" lon="1.12473">
        <ele>148.106</ele>
        <time>2021-03-30T13:20:00Z</time>
      </trkpt>
      <trkpt lat="44.9048" lon="1.12498">
        <ele>147.089</ele>
        <time>2021-03-30T13:20:04Z</time>
      </trkpt>
      <trkpt lat="44.90477" lon="1.12522">
        <ele>147.742</ele>
        <time>2021-03-30T13:20:07Z</time>
      </trkpt>
      <trkpt lat="44.9049" lon="1.12536">
        <ele>145.851</ele>
        <time>2021-03-30T13:20:09Z</time>
      </trkpt>
      <trkpt lat="44.90495" lon="1.12548">
        <ele>145.664</ele>
        <time>2021-03-30T13:20:11Z</time>
      </trkpt>
      <trkpt lat="44.90492" lon="1.1256">
        <ele>146.932</ele>
        <time>2021-03-30T13:20:13Z</time>
      </trkpt>
      <trkpt lat="44.90495" lon="1.12583">
        <ele>147.872</ele>
        <time>2021-03-30T13:20:16Z</time>
      </trkpt>
      <trkpt lat="44.9049" lon="1.12585">
        <ele>148.822</ele>
        <time>2021-03-30T13:20:17Z</time>
      </trkpt>
      <trkpt lat="44.90485" lon="1.12599">
        <ele>150.283</ele>
        <time>2021-03-30T13:20:22Z</time>
      </trkpt>
      <trkpt lat="44.90488" lon="1.12599">
        <ele>149.866</ele>
        <time>2021-03-30T13:20:23Z</time>
      </trkpt>
      <trkpt lat="44.90535" lon="1.12711">
        <ele>149.958</ele>
        <time>2021-03-30T13:20:58Z</time>
      </trkpt>
      <trkpt lat="44.90542" lon="1.12745">
        <ele>150.111</ele>
        <time>2021-03-30T13:21:02Z</time>
      </trkpt>
      <trkpt lat="44.9056" lon="1.12774">
        <ele>149.199</ele>
        <time>2021-03-30T13:21:05Z</time>
      </trkpt>
      <trkpt lat="44.90563" lon="1.12795">
        <ele>149.157</ele>
        <time>2021-03-30T13:21:07Z</time>
      </trkpt>
      <trkpt lat="44.9056" lon="1.12829">
        <ele>150.093</ele>
        <time>2021-03-30T13:21:11Z</time>
      </trkpt>
      <trkpt lat="44.90562" lon="1.12835">
        <ele>149.985</ele>
        <time>2021-03-30T13:21:12Z</time>
      </trkpt>
      <trkpt lat="44.90558" lon="1.12863">
        <ele>151.061</ele>
        <time>2021-03-30T13:21:16Z</time>
      </trkpt>
      <trkpt lat="44.90546" lon="1.12887">
        <ele>152.632</ele>
        <time>2021-03-30T13:21:20Z</time>
      </trkpt>
      <trkpt lat="44.90523" lon="1.1291">
        <ele>154.54</ele>
        <time>2021-03-30T13:21:28Z</time>
      </trkpt>
      <trkpt lat="44.90505" lon="1.12922">
        <ele>155.73</ele>
        <time>2021-03-30T13:21:36Z</time>
      </trkpt>
      <trkpt lat="44.9051" lon="1.12949">
        <ele>155.525</ele>
        <time>2021-03-30T13:22:07Z</time>
      </trkpt>
      <trkpt lat="44.90516" lon="1.12962">
        <ele>155.292</ele>
        <time>2021-03-30T13:22:10Z</time>
      </trkpt>
      <trkpt lat="44.90518" lon="1.12982">
        <ele>155.443</ele>
        <time>2021-03-30T13:22:14Z</time>
      </trkpt>
      <trkpt lat="44.90514" lon="1.12996">
        <ele>155.837</ele>
        <time>2021-03-30T13:22:17Z</time>
      </trkpt>
      <trkpt lat="44.90521" lon="1.13035">
        <ele>156.175</ele>
        <time>2021-03-30T13:22:24Z</time>
      </trkpt>
      <trkpt lat="44.90512" lon="1.13072">
        <ele>157.169</ele>
        <time>2021-03-30T13:22:35Z</time>
      </trkpt>
      <trkpt lat="44.90538" lon="1.131">
        <ele>156.458</ele>
        <time>2021-03-30T13:22:50Z</time>
      </trkpt>
      <trkpt lat="44.90553" lon="1.13106">
        <ele>156</ele>
        <time>2021-03-30T13:22:54Z</time>
      </trkpt>
      <trkpt lat="44.90562" lon="1.13118">
        <ele>156</ele>
        <time>2021-03-30T13:22:57Z</time>
      </trkpt>
      <trkpt lat="44.90568" lon="1.13134">
        <ele>156</ele>
        <time>2021-03-30T13:22:58Z</time>
      </trkpt>
      <trkpt lat="44.90603" lon="1.1317">
        <ele>156.319</ele>
        <time>2021-03-30T13:23:08Z</time>
      </trkpt>
      <trkpt lat="44.90609" lon="1.13192">
        <ele>156.508</ele>
        <time>2021-03-30T13:23:11Z</time>
      </trkpt>
      <trkpt lat="44.90608" lon="1.13227">
        <ele>156.682</ele>
        <time>2021-03-30T13:23:17Z</time>
      </trkpt>
      <trkpt lat="44.90594" lon="1.13231">
        <ele>157.001</ele>
        <time>2021-03-30T13:23:22Z</time>
      </trkpt>
      <trkpt lat="44.90575" lon="1.13225">
        <ele>157.021</ele>
        <time>2021-03-30T13:23:28Z</time>
      </trkpt>
      <trkpt lat="44.90561" lon="1.1323">
        <ele>157.089</ele>
        <time>2021-03-30T13:23:30Z</time>
      </trkpt>
      <trkpt lat="44.90518" lon="1.13231">
        <ele>157.801</ele>
        <time>2021-03-30T13:23:39Z</time>
      </trkpt>
      <trkpt lat="44.90487" lon="1.13238">
        <ele>159.404</ele>
        <time>2021-03-30T13:23:45Z</time>
      </trkpt>
      <trkpt lat="44.90486" lon="1.13245">
        <ele>159.379</ele>
        <time>2021-03-30T13:23:48Z</time>
      </trkpt>
      <trkpt lat="44.90473" lon="1.13259">
        <ele>159.818</ele>
        <time>2021-03-30T13:23:53Z</time>
      </trkpt>
      <trkpt lat="44.90459" lon="1.13295">
        <ele>159.793</ele>
        <time>2021-03-30T13:24:01Z</time>
      </trkpt>
      <trkpt lat="44.90441" lon="1.13323">
        <ele>162.973</ele>
        <time>2021-03-30T13:24:08Z</time>
      </trkpt>
      <trkpt lat="44.90428" lon="1.13329">
        <ele>163.47</ele>
        <time>2021-03-30T13:24:09Z</time>
      </trkpt>
      <trkpt lat="44.90415" lon="1.13348">
        <ele>163.164</ele>
        <time>2021-03-30T13:24:13Z</time>
      </trkpt>
      <trkpt lat="44.90371" lon="1.13372">
        <ele>167.782</ele>
        <time>2021-03-30T13:24:23Z</time>
      </trkpt>
      <trkpt lat="44.90344" lon="1.13375">
        <ele>170.541</ele>
        <time>2021-03-30T13:24:30Z</time>
      </trkpt>
      <trkpt lat="44.90324" lon="1.13388">
        <ele>171.5</ele>
        <time>2021-03-30T13:24:32Z</time>
      </trkpt>
      <trkpt lat="44.90296" lon="1.13392">
        <ele>173.874</ele>
        <time>2021-03-30T13:24:37Z</time>
      </trkpt>
      <trkpt lat="44.90266" lon="1.13415">
        <ele>173.856</ele>
        <time>2021-03-30T13:25:56Z</time>
      </trkpt>
      <trkpt lat="44.9026" lon="1.13426">
        <ele>173.91</ele>
        <time>2021-03-30T13:25:58Z</time>
      </trkpt>
      <trkpt lat="44.90263" lon="1.13449">
        <ele>173.912</ele>
        <time>2021-03-30T13:26:01Z</time>
      </trkpt>
      <trkpt lat="44.90274" lon="1.13492">
        <ele>176.059</ele>
        <time>2021-03-30T13:26:08Z</time>
      </trkpt>
      <trkpt lat="44.90263" lon="1.13558">
        <ele>182.789</ele>
        <time>2021-03-30T13:26:24Z</time>
      </trkpt>
      <trkpt lat="44.90277" lon="1.13703">
        <ele>200.211</ele>
        <time>2021-03-30T13:27:00Z</time>
      </trkpt>
      <trkpt lat="44.90277" lon="1.1374">
        <ele>201.879</ele>
        <time>2021-03-30T13:27:08Z</time>
      </trkpt>
      <trkpt lat="44.90287" lon="1.13789">
        <ele>201.832</ele>
        <time>2021-03-30T13:27:14Z</time>
      </trkpt>
      <trkpt lat="44.90285" lon="1.13796">
        <ele>201.97</ele>
        <time>2021-03-30T13:27:15Z</time>
      </trkpt>
      <trkpt lat="44.90308" lon="1.13896">
        <ele>203.923</ele>
        <time>2021-03-30T13:27:26Z</time>
      </trkpt>
      <trkpt lat="44.90375" lon="1.13921">
        <ele>201.832</ele>
        <time>2021-03-30T13:27:39Z</time>
      </trkpt>
      <trkpt lat="44.90394" lon="1.13934">
        <ele>202.092</ele>
        <time>2021-03-30T13:27:43Z</time>
      </trkpt>
      <trkpt lat="44.90404" lon="1.13932">
        <ele>201.236</ele>
        <time>2021-03-30T13:27:44Z</time>
      </trkpt>
      <trkpt lat="44.90422" lon="1.13953">
        <ele>202.386</ele>
        <time>2021-03-30T13:27:50Z</time>
      </trkpt>
      <trkpt lat="44.90429" lon="1.13965">
        <ele>203.304</ele>
        <time>2021-03-30T13:27:52Z</time>
      </trkpt>
      <trkpt lat="44.90433" lon="1.14005">
        <ele>205.439</ele>
        <time>2021-03-30T13:27:58Z</time>
      </trkpt>
      <trkpt lat="44.90443" lon="1.14034">
        <ele>204.411</ele>
        <time>2021-03-30T13:28:02Z</time>
      </trkpt>
      <trkpt lat="44.90445" lon="1.14054">
        <ele>203.709</ele>
        <time>2021-03-30T13:28:04Z</time>
      </trkpt>
      <trkpt lat="44.90441" lon="1.14066">
        <ele>203.719</ele>
        <time>2021-03-30T13:28:05Z</time>
      </trkpt>
      <trkpt lat="44.90444" lon="1.14087">
        <ele>201.909</ele>
        <time>2021-03-30T13:28:07Z</time>
      </trkpt>
      <trkpt lat="44.9044" lon="1.14202">
        <ele>195.149</ele>
        <time>2021-03-30T13:28:16Z</time>
      </trkpt>
      <trkpt lat="44.90432" lon="1.14228">
        <ele>194.597</ele>
        <time>2021-03-30T13:28:18Z</time>
      </trkpt>
      <trkpt lat="44.90393" lon="1.14281">
        <ele>193.421</ele>
        <time>2021-03-30T13:28:23Z</time>
      </trkpt>
      <trkpt lat="44.90383" lon="1.14306">
        <ele>192.119</ele>
        <time>2021-03-30T13:28:25Z</time>
      </trkpt>
      <trkpt lat="44.90393" lon="1.14355">
        <ele>196.557</ele>
        <time>2021-03-30T13:28:29Z</time>
      </trkpt>
      <trkpt lat="44.90407" lon="1.14368">
        <ele>197.757</ele>
        <time>2021-03-30T13:28:30Z</time>
      </trkpt>
      <trkpt lat="44.90413" lon="1.14362">
        <ele>196.923</ele>
        <time>2021-03-30T13:28:31Z</time>
      </trkpt>
      <trkpt lat="44.90428" lon="1.14365">
        <ele>197.038</ele>
        <time>2021-03-30T13:28:34Z</time>
      </trkpt>
      <trkpt lat="44.90449" lon="1.14378">
        <ele>198.347</ele>
        <time>2021-03-30T13:28:39Z</time>
      </trkpt>
      <trkpt lat="44.9058" lon="1.14499">
        <ele>202.403</ele>
        <time>2021-03-30T13:29:52Z</time>
      </trkpt>
      <trkpt lat="44.90582" lon="1.14513">
        <ele>201.235</ele>
        <time>2021-03-30T13:29:55Z</time>
      </trkpt>
      <trkpt lat="44.90529" lon="1.14644">
        <ele>197.046</ele>
        <time>2021-03-30T13:30:51Z</time>
      </trkpt>
      <trkpt lat="44.90542" lon="1.14684">
        <ele>190.905</ele>
        <time>2021-03-30T13:30:56Z</time>
      </trkpt>
      <trkpt lat="44.90551" lon="1.14693">
        <ele>189.038</ele>
        <time>2021-03-30T13:30:57Z</time>
      </trkpt>
      <trkpt lat="44.90583" lon="1.14759">
        <ele>178.675</ele>
        <time>2021-03-30T13:31:03Z</time>
      </trkpt>
      <trkpt lat="44.90602" lon="1.14776">
        <ele>173.309</ele>
        <time>2021-03-30T13:31:09Z</time>
      </trkpt>
      <trkpt lat="44.90611" lon="1.14801">
        <ele>168.371</ele>
        <time>2021-03-30T13:31:17Z</time>
      </trkpt>
      <trkpt lat="44.90616" lon="1.14862">
        <ele>162.471</ele>
        <time>2021-03-30T13:31:23Z</time>
      </trkpt>
      <trkpt lat="44.90622" lon="1.14896">
        <ele>162.862</ele>
        <time>2021-03-30T13:31:29Z</time>
      </trkpt>
      <trkpt lat="44.90621" lon="1.14907">
        <ele>163.077</ele>
        <time>2021-03-30T13:31:31Z</time>
      </trkpt>
      <trkpt lat="44.90616" lon="1.14916">
        <ele>162.997</ele>
        <time>2021-03-30T13:31:33Z</time>
      </trkpt>
      <trkpt lat="44.90614" lon="1.14957">
        <ele>165.176</ele>
        <time>2021-03-30T13:31:40Z</time>
      </trkpt>
      <trkpt lat="44.90617" lon="1.14963">
        <ele>165.838</ele>
        <time>2021-03-30T13:31:42Z</time>
      </trkpt>
      <trkpt lat="44.90634" lon="1.14957">
        <ele>166.614</ele>
        <time>2021-03-30T13:31:48Z</time>
      </trkpt>
      <trkpt lat="44.9065" lon="1.14965">
        <ele>168.283</ele>
        <time>2021-03-30T13:31:52Z</time>
      </trkpt>
      <trkpt lat="44.90659" lon="1.15003">
        <ele>172.061</ele>
        <time>2021-03-30T13:32:00Z</time>
      </trkpt>
      <trkpt lat="44.90659" lon="1.15021">
        <ele>173.707</ele>
        <time>2021-03-30T13:32:04Z</time>
      </trkpt>
      <trkpt lat="44.90639" lon="1.15017">
        <ele>172.241</ele>
        <time>2021-03-30T13:32:07Z</time>
      </trkpt>
      <trkpt lat="44.90622" lon="1.15018">
        <ele>171.547</ele>
        <time>2021-03-30T13:32:10Z</time>
      </trkpt>
      <trkpt lat="44.90602" lon="1.15027">
        <ele>171.7</ele>
        <time>2021-03-30T13:32:13Z</time>
      </trkpt>
      <trkpt lat="44.90548" lon="1.15063">
        <ele>173.293</ele>
        <time>2021-03-30T13:32:20Z</time>
      </trkpt>
      <trkpt lat="44.90515" lon="1.15057">
        <ele>170.451</ele>
        <time>2021-03-30T13:32:24Z</time>
      </trkpt>
      <trkpt lat="44.90476" lon="1.15073">
        <ele>170.93</ele>
        <time>2021-03-30T13:32:30Z</time>
      </trkpt>
      <trkpt lat="44.90461" lon="1.15085">
        <ele>171.139</ele>
        <time>2021-03-30T13:32:33Z</time>
      </trkpt>
      <trkpt lat="44.90427" lon="1.15094">
        <ele>169.394</ele>
        <time>2021-03-30T13:32:39Z</time>
      </trkpt>
      <trkpt lat="44.90385" lon="1.15141">
        <ele>169.959</ele>
        <time>2021-03-30T13:32:47Z</time>
      </trkpt>
      <trkpt lat="44.90382" lon="1.1515">
        <ele>170.349</ele>
        <time>2021-03-30T13:32:48Z</time>
      </trkpt>
      <trkpt lat="44.90373" lon="1.15159">
        <ele>171.088</ele>
        <time>2021-03-30T13:32:50Z</time>
      </trkpt>
      <trkpt lat="44.90369" lon="1.15197">
        <ele>170.136</ele>
        <time>2021-03-30T13:32:55Z</time>
      </trkpt>
      <trkpt lat="44.90359" lon="1.1521">
        <ele>170.331</ele>
        <time>2021-03-30T13:32:57Z</time>
      </trkpt>
      <trkpt lat="44.90349" lon="1.15233">
        <ele>170.697</ele>
        <time>2021-03-30T13:33:01Z</time>
      </trkpt>
      <trkpt lat="44.90336" lon="1.15245">
        <ele>171.385</ele>
        <time>2021-03-30T13:33:03Z</time>
      </trkpt>
      <trkpt lat="44.90308" lon="1.15243">
        <ele>172.897</ele>
        <time>2021-03-30T13:33:05Z</time>
      </trkpt>
      <trkpt lat="44.90283" lon="1.15249">
        <ele>173.895</ele>
        <time>2021-03-30T13:33:09Z</time>
      </trkpt>
      <trkpt lat="44.90271" lon="1.15258">
        <ele>174.956</ele>
        <time>2021-03-30T13:33:12Z</time>
      </trkpt>
      <trkpt lat="44.90205" lon="1.15266">
        <ele>179.057</ele>
        <time>2021-03-30T13:33:23Z</time>
      </trkpt>
      <trkpt lat="44.90157" lon="1.15266">
        <ele>181.946</ele>
        <time>2021-03-30T13:33:31Z</time>
      </trkpt>
      <trkpt lat="44.90144" lon="1.15272">
        <ele>183.255</ele>
        <time>2021-03-30T13:33:35Z</time>
      </trkpt>
      <trkpt lat="44.90109" lon="1.15298">
        <ele>188.647</ele>
        <time>2021-03-30T13:33:42Z</time>
      </trkpt>
      <trkpt lat="44.90101" lon="1.153">
        <ele>189.479</ele>
        <time>2021-03-30T13:33:43Z</time>
      </trkpt>
      <trkpt lat="44.90099" lon="1.15309">
        <ele>191</ele>
        <time>2021-03-30T13:33:45Z</time>
      </trkpt>
      <trkpt lat="44.90091" lon="1.15319">
        <ele>193.05</ele>
        <time>2021-03-30T13:33:47Z</time>
      </trkpt>
      <trkpt lat="44.90083" lon="1.15321">
        <ele>193.725</ele>
        <time>2021-03-30T13:33:48Z</time>
      </trkpt>
      <trkpt lat="44.90073" lon="1.15345">
        <ele>197.971</ele>
        <time>2021-03-30T13:33:54Z</time>
      </trkpt>
      <trkpt lat="44.90063" lon="1.15359">
        <ele>200.379</ele>
        <time>2021-03-30T13:33:58Z</time>
      </trkpt>
      <trkpt lat="44.90053" lon="1.15365">
        <ele>201.764</ele>
        <time>2021-03-30T13:34:01Z</time>
      </trkpt>
      <trkpt lat="44.90044" lon="1.15382">
        <ele>204.341</ele>
        <time>2021-03-30T13:34:06Z</time>
      </trkpt>
      <trkpt lat="44.90016" lon="1.15402">
        <ele>206.246</ele>
        <time>2021-03-30T13:34:16Z</time>
      </trkpt>
      <trkpt lat="44.89971" lon="1.15455">
        <ele>208.915</ele>
        <time>2021-03-30T13:34:28Z</time>
      </trkpt>
      <trkpt lat="44.89955" lon="1.15503">
        <ele>214.145</ele>
        <time>2021-03-30T13:34:35Z</time>
      </trkpt>
      <trkpt lat="44.8993" lon="1.15537">
        <ele>217.51</ele>
        <time>2021-03-30T13:34:41Z</time>
      </trkpt>
      <trkpt lat="44.899" lon="1.15558">
        <ele>218.743</ele>
        <time>2021-03-30T13:34:47Z</time>
      </trkpt>
      <trkpt lat="44.89865" lon="1.1557">
        <ele>221.859</ele>
        <time>2021-03-30T13:34:55Z</time>
      </trkpt>
      <trkpt lat="44.89861" lon="1.1558">
        <ele>222.594</ele>
        <time>2021-03-30T13:34:57Z</time>
      </trkpt>
      <trkpt lat="44.89857" lon="1.15646">
        <ele>227.119</ele>
        <time>2021-03-30T13:35:08Z</time>
      </trkpt>
      <trkpt lat="44.89851" lon="1.15652">
        <ele>227.92</ele>
        <time>2021-03-30T13:35:10Z</time>
      </trkpt>
      <trkpt lat="44.89768" lon="1.15626">
        <ele>230.734</ele>
        <time>2021-03-30T13:35:28Z</time>
      </trkpt>
      <trkpt lat="44.89648" lon="1.15615">
        <ele>228.58</ele>
        <time>2021-03-30T13:35:48Z</time>
      </trkpt>
      <trkpt lat="44.89652" lon="1.15614">
        <ele>228.402</ele>
        <time>2021-03-30T13:35:55Z</time>
      </trkpt>
      <trkpt lat="44.89609" lon="1.15569">
        <ele>223.884</ele>
        <time>2021-03-30T13:36:06Z</time>
      </trkpt>
      <trkpt lat="44.89593" lon="1.1554">
        <ele>221.466</ele>
        <time>2021-03-30T13:36:10Z</time>
      </trkpt>
      <trkpt lat="44.89566" lon="1.15507">
        <ele>219.484</ele>
        <time>2021-03-30T13:36:15Z</time>
      </trkpt>
      <trkpt lat="44.89527" lon="1.15493">
        <ele>219.528</ele>
        <time>2021-03-30T13:36:20Z</time>
      </trkpt>
      <trkpt lat="44.89517" lon="1.15482">
        <ele>218.235</ele>
        <time>2021-03-30T13:36:22Z</time>
      </trkpt>
      <trkpt lat="44.89448" lon="1.15445">
        <ele>215.96</ele>
        <time>2021-03-30T13:36:32Z</time>
      </trkpt>
      <trkpt lat="44.8942" lon="1.15415">
        <ele>214.792</ele>
        <time>2021-03-30T13:36:38Z</time>
      </trkpt>
      <trkpt lat="44.89399" lon="1.15364">
        <ele>215.381</ele>
        <time>2021-03-30T13:36:47Z</time>
      </trkpt>
      <trkpt lat="44.89407" lon="1.15329">
        <ele>216.52</ele>
        <time>2021-03-30T13:36:50Z</time>
      </trkpt>
      <trkpt lat="44.89438" lon="1.15296">
        <ele>218.26</ele>
        <time>2021-03-30T13:36:54Z</time>
      </trkpt>
      <trkpt lat="44.89447" lon="1.15292">
        <ele>218.001</ele>
        <time>2021-03-30T13:36:56Z</time>
      </trkpt>
      <trkpt lat="44.8946" lon="1.15276">
        <ele>218.65</ele>
        <time>2021-03-30T13:36:59Z</time>
      </trkpt>
      <trkpt lat="44.8951" lon="1.15242">
        <ele>221.954</ele>
        <time>2021-03-30T13:37:11Z</time>
      </trkpt>
      <trkpt lat="44.89524" lon="1.15219">
        <ele>225.418</ele>
        <time>2021-03-30T13:37:15Z</time>
      </trkpt>
      <trkpt lat="44.89527" lon="1.15207">
        <ele>227.144</ele>
        <time>2021-03-30T13:37:16Z</time>
      </trkpt>
      <trkpt lat="44.89542" lon="1.15191">
        <ele>228.508</ele>
        <time>2021-03-30T13:37:20Z</time>
      </trkpt>
      <trkpt lat="44.89571" lon="1.15177">
        <ele>227.267</ele>
        <time>2021-03-30T13:37:26Z</time>
      </trkpt>
      <trkpt lat="44.89578" lon="1.15165">
        <ele>227.157</ele>
        <time>2021-03-30T13:37:28Z</time>
      </trkpt>
      <trkpt lat="44.89585" lon="1.15161">
        <ele>226.229</ele>
        <time>2021-03-30T13:37:29Z</time>
      </trkpt>
      <trkpt lat="44.89603" lon="1.15121">
        <ele>225.385</ele>
        <time>2021-03-30T13:37:35Z</time>
      </trkpt>
      <trkpt lat="44.89635" lon="1.1507">
        <ele>225.172</ele>
        <time>2021-03-30T13:37:42Z</time>
      </trkpt>
      <trkpt lat="44.8965" lon="1.15011">
        <ele>229.616</ele>
        <time>2021-03-30T13:37:52Z</time>
      </trkpt>
      <trkpt lat="44.89624" lon="1.15017">
        <ele>231.736</ele>
        <time>2021-03-30T13:37:59Z</time>
      </trkpt>
      <trkpt lat="44.8957" lon="1.15039">
        <ele>237.824</ele>
        <time>2021-03-30T13:38:15Z</time>
      </trkpt>
      <trkpt lat="44.89536" lon="1.15063">
        <ele>242.782</ele>
        <time>2021-03-30T13:38:29Z</time>
      </trkpt>
      <trkpt lat="44.89504" lon="1.1507">
        <ele>247.014</ele>
        <time>2021-03-30T13:38:37Z</time>
      </trkpt>
      <trkpt lat="44.89433" lon="1.15078">
        <ele>257.182</ele>
        <time>2021-03-30T13:38:52Z</time>
      </trkpt>
      <trkpt lat="44.89388" lon="1.15119">
        <ele>255.082</ele>
        <time>2021-03-30T13:39:02Z</time>
      </trkpt>
      <trkpt lat="44.89372" lon="1.15127">
        <ele>255.349</ele>
        <time>2021-03-30T13:39:05Z</time>
      </trkpt>
      <trkpt lat="44.89334" lon="1.15134">
        <ele>257.412</ele>
        <time>2021-03-30T13:39:11Z</time>
      </trkpt>
      <trkpt lat="44.89287" lon="1.15156">
        <ele>256.886</ele>
        <time>2021-03-30T13:39:19Z</time>
      </trkpt>
      <trkpt lat="44.89279" lon="1.15157">
        <ele>257.169</ele>
        <time>2021-03-30T13:39:20Z</time>
      </trkpt>
      <trkpt lat="44.89244" lon="1.15179">
        <ele>254.662</ele>
        <time>2021-03-30T13:39:27Z</time>
      </trkpt>
      <trkpt lat="44.8922" lon="1.15209">
        <ele>253.188</ele>
        <time>2021-03-30T13:39:32Z</time>
      </trkpt>
      <trkpt lat="44.89195" lon="1.15269">
        <ele>247.672</ele>
        <time>2021-03-30T13:39:38Z</time>
      </trkpt>
      <trkpt lat="44.89182" lon="1.15341">
        <ele>245.662</ele>
        <time>2021-03-30T13:39:44Z</time>
      </trkpt>
      <trkpt lat="44.89177" lon="1.15399">
        <ele>244.046</ele>
        <time>2021-03-30T13:39:49Z</time>
      </trkpt>
      <trkpt lat="44.89174" lon="1.15485">
        <ele>241.497</ele>
        <time>2021-03-30T13:39:58Z</time>
      </trkpt>
      <trkpt lat="44.89168" lon="1.15538">
        <ele>242.824</ele>
        <time>2021-03-30T13:40:04Z</time>
      </trkpt>
      <trkpt lat="44.89164" lon="1.15616">
        <ele>245.899</ele>
        <time>2021-03-30T13:40:14Z</time>
      </trkpt>
      <trkpt lat="44.89157" lon="1.15666">
        <ele>245.876</ele>
        <time>2021-03-30T13:41:00Z</time>
      </trkpt>
      <trkpt lat="44.89165" lon="1.15735">
        <ele>243.313</ele>
        <time>2021-03-30T13:41:07Z</time>
      </trkpt>
      <trkpt lat="44.89188" lon="1.15821">
        <ele>244.394</ele>
        <time>2021-03-30T13:41:17Z</time>
      </trkpt>
      <trkpt lat="44.89184" lon="1.15876">
        <ele>243.139</ele>
        <time>2021-03-30T13:41:22Z</time>
      </trkpt>
      <trkpt lat="44.89181" lon="1.15888">
        <ele>242.528</ele>
        <time>2021-03-30T13:41:24Z</time>
      </trkpt>
      <trkpt lat="44.89158" lon="1.15907">
        <ele>235.443</ele>
        <time>2021-03-30T13:41:27Z</time>
      </trkpt>
      <trkpt lat="44.89157" lon="1.15917">
        <ele>235.496</ele>
        <time>2021-03-30T13:41:28Z</time>
      </trkpt>
      <trkpt lat="44.89144" lon="1.15938">
        <ele>231.74</ele>
        <time>2021-03-30T13:41:31Z</time>
      </trkpt>
      <trkpt lat="44.89149" lon="1.15948">
        <ele>233.449</ele>
        <time>2021-03-30T13:41:32Z</time>
      </trkpt>
      <trkpt lat="44.89145" lon="1.15961">
        <ele>232.533</ele>
        <time>2021-03-30T13:41:33Z</time>
      </trkpt>
      <trkpt lat="44.89148" lon="1.15974">
        <ele>234.034</ele>
        <time>2021-03-30T13:41:34Z</time>
      </trkpt>
      <trkpt lat="44.89133" lon="1.16005">
        <ele>229</ele>
        <time>2021-03-30T13:41:38Z</time>
      </trkpt>
      <trkpt lat="44.89135" lon="1.16036">
        <ele>228.666</ele>
        <time>2021-03-30T13:41:41Z</time>
      </trkpt>
      <trkpt lat="44.89129" lon="1.16062">
        <ele>229.894</ele>
        <time>2021-03-30T13:41:44Z</time>
      </trkpt>
      <trkpt lat="44.8912" lon="1.16072">
        <ele>230.504</ele>
        <time>2021-03-30T13:41:46Z</time>
      </trkpt>
      <trkpt lat="44.89063" lon="1.16096">
        <ele>234.118</ele>
        <time>2021-03-30T13:41:55Z</time>
      </trkpt>
      <trkpt lat="44.89036" lon="1.16116">
        <ele>237.514</ele>
        <time>2021-03-30T13:42:01Z</time>
      </trkpt>
      <trkpt lat="44.89019" lon="1.16135">
        <ele>239.932</ele>
        <time>2021-03-30T13:42:05Z</time>
      </trkpt>
      <trkpt lat="44.89" lon="1.16168">
        <ele>241.657</ele>
        <time>2021-03-30T13:42:12Z</time>
      </trkpt>
      <trkpt lat="44.88989" lon="1.16171">
        <ele>240.903</ele>
        <time>2021-03-30T13:42:15Z</time>
      </trkpt>
      <trkpt lat="44.88987" lon="1.16164">
        <ele>241.157</ele>
        <time>2021-03-30T13:42:16Z</time>
      </trkpt>
      <trkpt lat="44.88962" lon="1.16138">
        <ele>241.866</ele>
        <time>2021-03-30T13:42:23Z</time>
      </trkpt>
      <trkpt lat="44.8896" lon="1.16132">
        <ele>242.232</ele>
        <time>2021-03-30T13:42:24Z</time>
      </trkpt>
      <trkpt lat="44.88928" lon="1.16108">
        <ele>243.562</ele>
        <time>2021-03-30T13:42:32Z</time>
      </trkpt>
      <trkpt lat="44.88914" lon="1.16077">
        <ele>245.192</ele>
        <time>2021-03-30T13:42:36Z</time>
      </trkpt>
      <trkpt lat="44.88886" lon="1.16062">
        <ele>242.9</ele>
        <time>2021-03-30T13:42:44Z</time>
      </trkpt>
      <trkpt lat="44.88838" lon="1.16016">
        <ele>237.772</ele>
        <time>2021-03-30T13:42:52Z</time>
      </trkpt>
      <trkpt lat="44.88815" lon="1.16006">
        <ele>233.933</ele>
        <time>2021-03-30T13:42:55Z</time>
      </trkpt>
      <trkpt lat="44.88697" lon="1.15994">
        <ele>225.112</ele>
        <time>2021-03-30T13:43:08Z</time>
      </trkpt>
      <trkpt lat="44.88664" lon="1.1598">
        <ele>225.324</ele>
        <time>2021-03-30T13:43:13Z</time>
      </trkpt>
      <trkpt lat="44.88591" lon="1.15959">
        <ele>220.943</ele>
        <time>2021-03-30T13:43:21Z</time>
      </trkpt>
      <trkpt lat="44.88502" lon="1.15906">
        <ele>205.485</ele>
        <time>2021-03-30T13:43:29Z</time>
      </trkpt>
      <trkpt lat="44.88441" lon="1.15863">
        <ele>202.042</ele>
        <time>2021-03-30T13:43:35Z</time>
      </trkpt>
      <trkpt lat="44.88425" lon="1.15861">
        <ele>201.909</ele>
        <time>2021-03-30T13:43:37Z</time>
      </trkpt>
      <trkpt lat="44.88407" lon="1.15865">
        <ele>201.806</ele>
        <time>2021-03-30T13:43:39Z</time>
      </trkpt>
      <trkpt lat="44.88342" lon="1.15915">
        <ele>201.066</ele>
        <time>2021-03-30T13:43:48Z</time>
      </trkpt>
      <trkpt lat="44.88337" lon="1.15909">
        <ele>200.497</ele>
        <time>2021-03-30T13:43:56Z</time>
      </trkpt>
      <trkpt lat="44.88333" lon="1.15929">
        <ele>201.923</ele>
        <time>2021-03-30T13:48:53Z</time>
      </trkpt>
      <trkpt lat="44.88324" lon="1.15947">
        <ele>200.924</ele>
        <time>2021-03-30T13:48:56Z</time>
      </trkpt>
      <trkpt lat="44.88318" lon="1.15992">
        <ele>199.507</ele>
        <time>2021-03-30T13:49:01Z</time>
      </trkpt>
      <trkpt lat="44.88325" lon="1.16062">
        <ele>196.05</ele>
        <time>2021-03-30T13:49:08Z</time>
      </trkpt>
      <trkpt lat="44.88342" lon="1.16121">
        <ele>191.208</ele>
        <time>2021-03-30T13:49:13Z</time>
      </trkpt>
      <trkpt lat="44.88352" lon="1.16233">
        <ele>181.697</ele>
        <time>2021-03-30T13:49:20Z</time>
      </trkpt>
      <trkpt lat="44.88351" lon="1.16325">
        <ele>178.845</ele>
        <time>2021-03-30T13:49:27Z</time>
      </trkpt>
      <trkpt lat="44.8833" lon="1.16413">
        <ele>179.084</ele>
        <time>2021-03-30T13:49:36Z</time>
      </trkpt>
      <trkpt lat="44.88317" lon="1.16424">
        <ele>180.249</ele>
        <time>2021-03-30T13:49:39Z</time>
      </trkpt>
      <trkpt lat="44.88289" lon="1.16422">
        <ele>183.404</ele>
        <time>2021-03-30T13:49:45Z</time>
      </trkpt>
      <trkpt lat="44.8828" lon="1.16418">
        <ele>184.53</ele>
        <time>2021-03-30T13:49:48Z</time>
      </trkpt>
      <trkpt lat="44.88271" lon="1.16421">
        <ele>185.533</ele>
        <time>2021-03-30T13:49:50Z</time>
      </trkpt>
      <trkpt lat="44.88252" lon="1.16413">
        <ele>187.876</ele>
        <time>2021-03-30T13:49:54Z</time>
      </trkpt>
      <trkpt lat="44.88215" lon="1.16376">
        <ele>193.684</ele>
        <time>2021-03-30T13:50:04Z</time>
      </trkpt>
      <trkpt lat="44.88178" lon="1.16346">
        <ele>198.069</ele>
        <time>2021-03-30T13:50:12Z</time>
      </trkpt>
      <trkpt lat="44.88156" lon="1.16338">
        <ele>199.96</ele>
        <time>2021-03-30T13:50:16Z</time>
      </trkpt>
      <trkpt lat="44.8811" lon="1.16299">
        <ele>200.42</ele>
        <time>2021-03-30T13:50:26Z</time>
      </trkpt>
      <trkpt lat="44.88079" lon="1.16259">
        <ele>199.557</ele>
        <time>2021-03-30T13:50:31Z</time>
      </trkpt>
      <trkpt lat="44.88037" lon="1.16223">
        <ele>197.701</ele>
        <time>2021-03-30T13:50:38Z</time>
      </trkpt>
      <trkpt lat="44.88004" lon="1.16174">
        <ele>195.768</ele>
        <time>2021-03-30T13:50:45Z</time>
      </trkpt>
      <trkpt lat="44.87991" lon="1.16117">
        <ele>192.373</ele>
        <time>2021-03-30T13:50:50Z</time>
      </trkpt>
      <trkpt lat="44.88005" lon="1.16057">
        <ele>188.076</ele>
        <time>2021-03-30T13:50:54Z</time>
      </trkpt>
      <trkpt lat="44.88022" lon="1.16016">
        <ele>183.983</ele>
        <time>2021-03-30T13:50:57Z</time>
      </trkpt>
      <trkpt lat="44.88026" lon="1.15995">
        <ele>181.7</ele>
        <time>2021-03-30T13:50:59Z</time>
      </trkpt>
      <trkpt lat="44.88033" lon="1.15977">
        <ele>180.544</ele>
        <time>2021-03-30T13:51:01Z</time>
      </trkpt>
      <trkpt lat="44.88041" lon="1.1597">
        <ele>180.191</ele>
        <time>2021-03-30T13:51:02Z</time>
      </trkpt>
      <trkpt lat="44.88053" lon="1.15931">
        <ele>175.73</ele>
        <time>2021-03-30T13:51:07Z</time>
      </trkpt>
      <trkpt lat="44.88043" lon="1.15877">
        <ele>170.652</ele>
        <time>2021-03-30T13:51:14Z</time>
      </trkpt>
      <trkpt lat="44.88023" lon="1.15863">
        <ele>169.082</ele>
        <time>2021-03-30T13:51:16Z</time>
      </trkpt>
      <trkpt lat="44.88018" lon="1.1583">
        <ele>165.019</ele>
        <time>2021-03-30T13:51:19Z</time>
      </trkpt>
      <trkpt lat="44.88012" lon="1.1582">
        <ele>163.47</ele>
        <time>2021-03-30T13:51:20Z</time>
      </trkpt>
      <trkpt lat="44.87995" lon="1.15656">
        <ele>161.874</ele>
        <time>2021-03-30T13:51:38Z</time>
      </trkpt>
      <trkpt lat="44.87986" lon="1.15638">
        <ele>162.521</ele>
        <time>2021-03-30T13:51:41Z</time>
      </trkpt>
      <trkpt lat="44.87976" lon="1.1563">
        <ele>162.716</ele>
        <time>2021-03-30T13:51:43Z</time>
      </trkpt>
      <trkpt lat="44.87954" lon="1.15595">
        <ele>164.495</ele>
        <time>2021-03-30T13:51:50Z</time>
      </trkpt>
      <trkpt lat="44.87935" lon="1.15575">
        <ele>165.074</ele>
        <time>2021-03-30T13:51:54Z</time>
      </trkpt>
      <trkpt lat="44.8791" lon="1.15519">
        <ele>168.087</ele>
        <time>2021-03-30T13:52:02Z</time>
      </trkpt>
      <trkpt lat="44.87897" lon="1.15502">
        <ele>169.324</ele>
        <time>2021-03-30T13:52:05Z</time>
      </trkpt>
      <trkpt lat="44.87877" lon="1.15459">
        <ele>170.167</ele>
        <time>2021-03-30T13:52:11Z</time>
      </trkpt>
      <trkpt lat="44.87858" lon="1.15447">
        <ele>172.697</ele>
        <time>2021-03-30T13:52:15Z</time>
      </trkpt>
      <trkpt lat="44.87841" lon="1.15443">
        <ele>175.353</ele>
        <time>2021-03-30T13:52:18Z</time>
      </trkpt>
      <trkpt lat="44.87829" lon="1.15431">
        <ele>176.886</ele>
        <time>2021-03-30T13:52:22Z</time>
      </trkpt>
      <trkpt lat="44.87793" lon="1.15429">
        <ele>182.302</ele>
        <time>2021-03-30T13:52:32Z</time>
      </trkpt>
      <trkpt lat="44.87764" lon="1.1541">
        <ele>185.259</ele>
        <time>2021-03-30T13:52:39Z</time>
      </trkpt>
      <trkpt lat="44.87754" lon="1.15408">
        <ele>186.589</ele>
        <time>2021-03-30T13:52:41Z</time>
      </trkpt>
      <trkpt lat="44.87724" lon="1.15415">
        <ele>191.375</ele>
        <time>2021-03-30T13:52:48Z</time>
      </trkpt>
      <trkpt lat="44.87712" lon="1.15423">
        <ele>193.641</ele>
        <time>2021-03-30T13:52:52Z</time>
      </trkpt>
      <trkpt lat="44.8769" lon="1.15418">
        <ele>196.214</ele>
        <time>2021-03-30T13:52:57Z</time>
      </trkpt>
      <trkpt lat="44.87683" lon="1.15423">
        <ele>197.591</ele>
        <time>2021-03-30T13:52:59Z</time>
      </trkpt>
      <trkpt lat="44.8767" lon="1.15444">
        <ele>200.304</ele>
        <time>2021-03-30T13:53:11Z</time>
      </trkpt>
      <trkpt lat="44.87639" lon="1.15451">
        <ele>204.34</ele>
        <time>2021-03-30T13:54:03Z</time>
      </trkpt>
      <trkpt lat="44.87579" lon="1.15439">
        <ele>211.753</ele>
        <time>2021-03-30T13:54:19Z</time>
      </trkpt>
      <trkpt lat="44.87518" lon="1.15413">
        <ele>217.214</ele>
        <time>2021-03-30T13:54:32Z</time>
      </trkpt>
      <trkpt lat="44.87445" lon="1.15392">
        <ele>221.463</ele>
        <time>2021-03-30T13:54:47Z</time>
      </trkpt>
      <trkpt lat="44.87408" lon="1.15396">
        <ele>223.566</ele>
        <time>2021-03-30T13:54:55Z</time>
      </trkpt>
      <trkpt lat="44.87359" lon="1.1539">
        <ele>224.39</ele>
        <time>2021-03-30T13:55:15Z</time>
      </trkpt>
      <trkpt lat="44.87352" lon="1.15479">
        <ele>220.95</ele>
        <time>2021-03-30T13:56:02Z</time>
      </trkpt>
      <trkpt lat="44.87344" lon="1.15504">
        <ele>220.319</ele>
        <time>2021-03-30T13:56:04Z</time>
      </trkpt>
      <trkpt lat="44.8732" lon="1.15662">
        <ele>212.208</ele>
        <time>2021-03-30T13:56:14Z</time>
      </trkpt>
      <trkpt lat="44.87325" lon="1.15691">
        <ele>210.97</ele>
        <time>2021-03-30T13:56:16Z</time>
      </trkpt>
      <trkpt lat="44.87341" lon="1.15725">
        <ele>209.522</ele>
        <time>2021-03-30T13:56:19Z</time>
      </trkpt>
      <trkpt lat="44.87361" lon="1.15804">
        <ele>207.643</ele>
        <time>2021-03-30T13:56:26Z</time>
      </trkpt>
      <trkpt lat="44.87354" lon="1.15846">
        <ele>205.762</ele>
        <time>2021-03-30T13:56:29Z</time>
      </trkpt>
      <trkpt lat="44.87348" lon="1.15856">
        <ele>205.77</ele>
        <time>2021-03-30T13:56:30Z</time>
      </trkpt>
      <trkpt lat="44.87321" lon="1.15934">
        <ele>199.685</ele>
        <time>2021-03-30T13:56:36Z</time>
      </trkpt>
      <trkpt lat="44.87295" lon="1.15987">
        <ele>196.049</ele>
        <time>2021-03-30T13:56:41Z</time>
      </trkpt>
      <trkpt lat="44.87281" lon="1.15983">
        <ele>197.055</ele>
        <time>2021-03-30T13:56:43Z</time>
      </trkpt>
      <trkpt lat="44.87278" lon="1.15973">
        <ele>198.686</ele>
        <time>2021-03-30T13:56:45Z</time>
      </trkpt>
      <trkpt lat="44.87224" lon="1.1587">
        <ele>215.624</ele>
        <time>2021-03-30T13:57:04Z</time>
      </trkpt>
      <trkpt lat="44.8714" lon="1.15861">
        <ele>218.498</ele>
        <time>2021-03-30T13:57:22Z</time>
      </trkpt>
      <trkpt lat="44.87061" lon="1.15921">
        <ele>211.408</ele>
        <time>2021-03-30T13:57:36Z</time>
      </trkpt>
      <trkpt lat="44.87022" lon="1.15943">
        <ele>207.302</ele>
        <time>2021-03-30T13:57:41Z</time>
      </trkpt>
      <trkpt lat="44.86985" lon="1.15943">
        <ele>205.779</ele>
        <time>2021-03-30T13:57:45Z</time>
      </trkpt>
      <trkpt lat="44.86939" lon="1.15952">
        <ele>204.856</ele>
        <time>2021-03-30T13:57:50Z</time>
      </trkpt>
      <trkpt lat="44.86842" lon="1.15952">
        <ele>204.786</ele>
        <time>2021-03-30T13:58:04Z</time>
      </trkpt>
      <trkpt lat="44.86811" lon="1.15957">
        <ele>204.938</ele>
        <time>2021-03-30T13:58:09Z</time>
      </trkpt>
      <trkpt lat="44.86748" lon="1.1593">
        <ele>205.071</ele>
        <time>2021-03-30T13:58:20Z</time>
      </trkpt>
      <trkpt lat="44.86708" lon="1.15938">
        <ele>205.362</ele>
        <time>2021-03-30T13:58:27Z</time>
      </trkpt>
      <trkpt lat="44.86674" lon="1.15937">
        <ele>205.079</ele>
        <time>2021-03-30T13:58:32Z</time>
      </trkpt>
      <trkpt lat="44.86632" lon="1.15943">
        <ele>204.764</ele>
        <time>2021-03-30T13:58:39Z</time>
      </trkpt>
      <trkpt lat="44.86554" lon="1.15966">
        <ele>205.459</ele>
        <time>2021-03-30T13:58:50Z</time>
      </trkpt>
      <trkpt lat="44.86501" lon="1.15966">
        <ele>205.996</ele>
        <time>2021-03-30T13:58:58Z</time>
      </trkpt>
      <trkpt lat="44.86372" lon="1.16">
        <ele>202.905</ele>
        <time>2021-03-30T13:59:16Z</time>
      </trkpt>
      <trkpt lat="44.86322" lon="1.16018">
        <ele>201.584</ele>
        <time>2021-03-30T13:59:22Z</time>
      </trkpt>
      <trkpt lat="44.86295" lon="1.16051">
        <ele>202.273</ele>
        <time>2021-03-30T13:59:27Z</time>
      </trkpt>
      <trkpt lat="44.86293" lon="1.16057">
        <ele>202.449</ele>
        <time>2021-03-30T13:59:28Z</time>
      </trkpt>
      <trkpt lat="44.86262" lon="1.16072">
        <ele>202.197</ele>
        <time>2021-03-30T13:59:33Z</time>
      </trkpt>
      <trkpt lat="44.86244" lon="1.16066">
        <ele>202.758</ele>
        <time>2021-03-30T13:59:36Z</time>
      </trkpt>
      <trkpt lat="44.86193" lon="1.16061">
        <ele>205.919</ele>
        <time>2021-03-30T13:59:44Z</time>
      </trkpt>
      <trkpt lat="44.86182" lon="1.16066">
        <ele>207.072</ele>
        <time>2021-03-30T13:59:47Z</time>
      </trkpt>
      <trkpt lat="44.86161" lon="1.16091">
        <ele>209.599</ele>
        <time>2021-03-30T13:59:52Z</time>
      </trkpt>
      <trkpt lat="44.86134" lon="1.16114">
        <ele>211.935</ele>
        <time>2021-03-30T13:59:57Z</time>
      </trkpt>
      <trkpt lat="44.86123" lon="1.16118">
        <ele>212.857</ele>
        <time>2021-03-30T13:59:59Z</time>
      </trkpt>
      <trkpt lat="44.86103" lon="1.16138">
        <ele>214.646</ele>
        <time>2021-03-30T14:00:03Z</time>
      </trkpt>
      <trkpt lat="44.86089" lon="1.1616">
        <ele>216.18</ele>
        <time>2021-03-30T14:00:07Z</time>
      </trkpt>
      <trkpt lat="44.86076" lon="1.16171">
        <ele>217.137</ele>
        <time>2021-03-30T14:00:09Z</time>
      </trkpt>
      <trkpt lat="44.86042" lon="1.16228">
        <ele>217.476</ele>
        <time>2021-03-30T14:00:18Z</time>
      </trkpt>
      <trkpt lat="44.86032" lon="1.16262">
        <ele>216.453</ele>
        <time>2021-03-30T14:00:22Z</time>
      </trkpt>
      <trkpt lat="44.86004" lon="1.16315">
        <ele>218.269</ele>
        <time>2021-03-30T14:00:31Z</time>
      </trkpt>
      <trkpt lat="44.85994" lon="1.16325">
        <ele>219.515</ele>
        <time>2021-03-30T14:00:33Z</time>
      </trkpt>
      <trkpt lat="44.85979" lon="1.16362">
        <ele>218.951</ele>
        <time>2021-03-30T14:00:38Z</time>
      </trkpt>
      <trkpt lat="44.85979" lon="1.16372">
        <ele>218.764</ele>
        <time>2021-03-30T14:00:39Z</time>
      </trkpt>
      <trkpt lat="44.85976" lon="1.16378">
        <ele>218.923</ele>
        <time>2021-03-30T14:00:40Z</time>
      </trkpt>
      <trkpt lat="44.85976" lon="1.16393">
        <ele>218.594</ele>
        <time>2021-03-30T14:00:42Z</time>
      </trkpt>
      <trkpt lat="44.8596" lon="1.16457">
        <ele>220.524</ele>
        <time>2021-03-30T14:00:50Z</time>
      </trkpt>
      <trkpt lat="44.85957" lon="1.16504">
        <ele>222.327</ele>
        <time>2021-03-30T14:00:55Z</time>
      </trkpt>
      <trkpt lat="44.8596" lon="1.16576">
        <ele>224.003</ele>
        <time>2021-03-30T14:01:05Z</time>
      </trkpt>
      <trkpt lat="44.85965" lon="1.166">
        <ele>223.378</ele>
        <time>2021-03-30T14:01:08Z</time>
      </trkpt>
      <trkpt lat="44.85971" lon="1.1673">
        <ele>213.22</ele>
        <time>2021-03-30T14:01:18Z</time>
      </trkpt>
      <trkpt lat="44.85969" lon="1.16756">
        <ele>211.64</ele>
        <time>2021-03-30T14:01:21Z</time>
      </trkpt>
      <trkpt lat="44.85965" lon="1.16761">
        <ele>211.382</ele>
        <time>2021-03-30T14:01:24Z</time>
      </trkpt>
      <trkpt lat="44.85955" lon="1.1676">
        <ele>211.518</ele>
        <time>2021-03-30T14:01:26Z</time>
      </trkpt>
      <trkpt lat="44.85924" lon="1.16741">
        <ele>212.599</ele>
        <time>2021-03-30T14:01:33Z</time>
      </trkpt>
      <trkpt lat="44.85897" lon="1.16739">
        <ele>213.439</ele>
        <time>2021-03-30T14:01:40Z</time>
      </trkpt>
      <trkpt lat="44.85875" lon="1.16742">
        <ele>213.835</ele>
        <time>2021-03-30T14:01:43Z</time>
      </trkpt>
      <trkpt lat="44.85829" lon="1.1676">
        <ele>213.571</ele>
        <time>2021-03-30T14:01:50Z</time>
      </trkpt>
      <trkpt lat="44.85818" lon="1.16759">
        <ele>214.489</ele>
        <time>2021-03-30T14:01:52Z</time>
      </trkpt>
      <trkpt lat="44.8578" lon="1.16807">
        <ele>209.607</ele>
        <time>2021-03-30T14:03:34Z</time>
      </trkpt>
      <trkpt lat="44.8574" lon="1.16835">
        <ele>205.588</ele>
        <time>2021-03-30T14:03:40Z</time>
      </trkpt>
      <trkpt lat="44.85681" lon="1.16846">
        <ele>202.766</ele>
        <time>2021-03-30T14:03:48Z</time>
      </trkpt>
      <trkpt lat="44.85639" lon="1.16883">
        <ele>200.559</ele>
        <time>2021-03-30T14:03:55Z</time>
      </trkpt>
      <trkpt lat="44.85624" lon="1.1689">
        <ele>199.711</ele>
        <time>2021-03-30T14:03:58Z</time>
      </trkpt>
      <trkpt lat="44.85608" lon="1.16888">
        <ele>199.757</ele>
        <time>2021-03-30T14:04:00Z</time>
      </trkpt>
      <trkpt lat="44.85605" lon="1.16894">
        <ele>199.225</ele>
        <time>2021-03-30T14:04:01Z</time>
      </trkpt>
      <trkpt lat="44.85573" lon="1.16916">
        <ele>196.574</ele>
        <time>2021-03-30T14:04:14Z</time>
      </trkpt>
      <trkpt lat="44.85518" lon="1.16906">
        <ele>192.852</ele>
        <time>2021-03-30T14:04:49Z</time>
      </trkpt>
      <trkpt lat="44.85502" lon="1.1689">
        <ele>191.562</ele>
        <time>2021-03-30T14:04:53Z</time>
      </trkpt>
      <trkpt lat="44.85489" lon="1.16902">
        <ele>189.323</ele>
        <time>2021-03-30T14:04:58Z</time>
      </trkpt>
      <trkpt lat="44.85489" lon="1.1691">
        <ele>188.986</ele>
        <time>2021-03-30T14:04:59Z</time>
      </trkpt>
      <trkpt lat="44.8547" lon="1.16929">
        <ele>186.177</ele>
        <time>2021-03-30T14:05:03Z</time>
      </trkpt>
      <trkpt lat="44.85429" lon="1.16924">
        <ele>181.29</ele>
        <time>2021-03-30T14:05:12Z</time>
      </trkpt>
      <trkpt lat="44.85418" lon="1.16933">
        <ele>180.158</ele>
        <time>2021-03-30T14:05:14Z</time>
      </trkpt>
      <trkpt lat="44.85372" lon="1.16952">
        <ele>176.414</ele>
        <time>2021-03-30T14:05:22Z</time>
      </trkpt>
      <trkpt lat="44.85369" lon="1.16959">
        <ele>175.856</ele>
        <time>2021-03-30T14:05:23Z</time>
      </trkpt>
      <trkpt lat="44.85329" lon="1.16992">
        <ele>172.139</ele>
        <time>2021-03-30T14:05:31Z</time>
      </trkpt>
      <trkpt lat="44.85321" lon="1.17031">
        <ele>169.495</ele>
        <time>2021-03-30T14:05:37Z</time>
      </trkpt>
      <trkpt lat="44.85312" lon="1.17055">
        <ele>167.667</ele>
        <time>2021-03-30T14:05:41Z</time>
      </trkpt>
      <trkpt lat="44.85304" lon="1.17063">
        <ele>167.161</ele>
        <time>2021-03-30T14:05:43Z</time>
      </trkpt>
      <trkpt lat="44.85286" lon="1.17072">
        <ele>166.465</ele>
        <time>2021-03-30T14:05:46Z</time>
      </trkpt>
      <trkpt lat="44.85281" lon="1.17079">
        <ele>165.638</ele>
        <time>2021-03-30T14:05:47Z</time>
      </trkpt>
      <trkpt lat="44.85269" lon="1.17081">
        <ele>164.786</ele>
        <time>2021-03-30T14:05:49Z</time>
      </trkpt>
      <trkpt lat="44.85254" lon="1.17091">
        <ele>163.188</ele>
        <time>2021-03-30T14:05:52Z</time>
      </trkpt>
      <trkpt lat="44.85228" lon="1.17096">
        <ele>160.343</ele>
        <time>2021-03-30T14:05:57Z</time>
      </trkpt>
      <trkpt lat="44.85218" lon="1.17103">
        <ele>158.284</ele>
        <time>2021-03-30T14:06:00Z</time>
      </trkpt>
      <trkpt lat="44.85226" lon="1.17122">
        <ele>158.637</ele>
        <time>2021-03-30T14:06:09Z</time>
      </trkpt>
      <trkpt lat="44.85224" lon="1.17129">
        <ele>157.974</ele>
        <time>2021-03-30T14:06:11Z</time>
      </trkpt>
      <trkpt lat="44.85213" lon="1.17134">
        <ele>155.602</ele>
        <time>2021-03-30T14:06:15Z</time>
      </trkpt>
      <trkpt lat="44.85196" lon="1.17134">
        <ele>153.159</ele>
        <time>2021-03-30T14:06:19Z</time>
      </trkpt>
      <trkpt lat="44.85178" lon="1.1712">
        <ele>149.676</ele>
        <time>2021-03-30T14:06:22Z</time>
      </trkpt>
      <trkpt lat="44.85171" lon="1.17108">
        <ele>147.618</ele>
        <time>2021-03-30T14:06:24Z</time>
      </trkpt>
      <trkpt lat="44.85164" lon="1.17086">
        <ele>145.017</ele>
        <time>2021-03-30T14:06:26Z</time>
      </trkpt>
      <trkpt lat="44.85165" lon="1.17057">
        <ele>143.753</ele>
        <time>2021-03-30T14:06:30Z</time>
      </trkpt>
      <trkpt lat="44.8516" lon="1.17054">
        <ele>142.049</ele>
        <time>2021-03-30T14:06:33Z</time>
      </trkpt>
      <trkpt lat="44.85151" lon="1.1706">
        <ele>139.502</ele>
        <time>2021-03-30T14:06:37Z</time>
      </trkpt>
      <trkpt lat="44.85144" lon="1.17078">
        <ele>138.863</ele>
        <time>2021-03-30T14:06:40Z</time>
      </trkpt>
      <trkpt lat="44.85141" lon="1.17099">
        <ele>139.581</ele>
        <time>2021-03-30T14:06:47Z</time>
      </trkpt>
      <trkpt lat="44.85135" lon="1.17049">
        <ele>135.492</ele>
        <time>2021-03-30T14:07:04Z</time>
      </trkpt>
      <trkpt lat="44.85155" lon="1.16998">
        <ele>136.022</ele>
        <time>2021-03-30T14:07:10Z</time>
      </trkpt>
      <trkpt lat="44.85184" lon="1.16955">
        <ele>138.856</ele>
        <time>2021-03-30T14:07:17Z</time>
      </trkpt>
      <trkpt lat="44.85191" lon="1.1693">
        <ele>137.975</ele>
        <time>2021-03-30T14:07:20Z</time>
      </trkpt>
      <trkpt lat="44.85185" lon="1.16925">
        <ele>137.894</ele>
        <time>2021-03-30T14:07:21Z</time>
      </trkpt>
      <trkpt lat="44.85184" lon="1.16918">
        <ele>138.02</ele>
        <time>2021-03-30T14:07:22Z</time>
      </trkpt>
      <trkpt lat="44.85158" lon="1.16908">
        <ele>139.051</ele>
        <time>2021-03-30T14:07:26Z</time>
      </trkpt>
      <trkpt lat="44.85152" lon="1.16897">
        <ele>140.481</ele>
        <time>2021-03-30T14:07:28Z</time>
      </trkpt>
      <trkpt lat="44.85154" lon="1.16887">
        <ele>141.37</ele>
        <time>2021-03-30T14:07:30Z</time>
      </trkpt>
      <trkpt lat="44.85167" lon="1.16886">
        <ele>140.249</ele>
        <time>2021-03-30T14:07:32Z</time>
      </trkpt>
      <trkpt lat="44.85183" lon="1.16871">
        <ele>139.946</ele>
        <time>2021-03-30T14:07:36Z</time>
      </trkpt>
      <trkpt lat="44.85185" lon="1.16838">
        <ele>144.344</ele>
        <time>2021-03-30T14:07:40Z</time>
      </trkpt>
      <trkpt lat="44.85177" lon="1.16794">
        <ele>152.475</ele>
        <time>2021-03-30T14:07:46Z</time>
      </trkpt>
      <trkpt lat="44.85163" lon="1.16771">
        <ele>157.513</ele>
        <time>2021-03-30T14:07:49Z</time>
      </trkpt>
      <trkpt lat="44.85139" lon="1.16761">
        <ele>159.338</ele>
        <time>2021-03-30T14:07:53Z</time>
      </trkpt>
      <trkpt lat="44.8511" lon="1.16771">
        <ele>154.755</ele>
        <time>2021-03-30T14:07:58Z</time>
      </trkpt>
      <trkpt lat="44.85092" lon="1.16765">
        <ele>153.729</ele>
        <time>2021-03-30T14:08:02Z</time>
      </trkpt>
      <trkpt lat="44.8506" lon="1.16743">
        <ele>152.845</ele>
        <time>2021-03-30T14:08:09Z</time>
      </trkpt>
      <trkpt lat="44.85052" lon="1.16731">
        <ele>153.104</ele>
        <time>2021-03-30T14:08:11Z</time>
      </trkpt>
      <trkpt lat="44.85041" lon="1.16724">
        <ele>152.572</ele>
        <time>2021-03-30T14:08:13Z</time>
      </trkpt>
      <trkpt lat="44.84997" lon="1.16741">
        <ele>146.673</ele>
        <time>2021-03-30T14:08:23Z</time>
      </trkpt>
      <trkpt lat="44.8498" lon="1.16739">
        <ele>145.076</ele>
        <time>2021-03-30T14:08:27Z</time>
      </trkpt>
      <trkpt lat="44.8497" lon="1.16724">
        <ele>145.22</ele>
        <time>2021-03-30T14:08:30Z</time>
      </trkpt>
      <trkpt lat="44.84962" lon="1.16719">
        <ele>144.716</ele>
        <time>2021-03-30T14:08:31Z</time>
      </trkpt>
      <trkpt lat="44.84958" lon="1.16706">
        <ele>144.937</ele>
        <time>2021-03-30T14:08:33Z</time>
      </trkpt>
      <trkpt lat="44.84959" lon="1.16693">
        <ele>146.13</ele>
        <time>2021-03-30T14:08:35Z</time>
      </trkpt>
      <trkpt lat="44.84988" lon="1.16665">
        <ele>146.656</ele>
        <time>2021-03-30T14:08:43Z</time>
      </trkpt>
      <trkpt lat="44.84994" lon="1.16653">
        <ele>146.294</ele>
        <time>2021-03-30T14:08:45Z</time>
      </trkpt>
      <trkpt lat="44.8505" lon="1.1659">
        <ele>148.64</ele>
        <time>2021-03-30T14:08:55Z</time>
      </trkpt>
      <trkpt lat="44.85052" lon="1.16582">
        <ele>147.867</ele>
        <time>2021-03-30T14:08:56Z</time>
      </trkpt>
      <trkpt lat="44.85056" lon="1.16578">
        <ele>148.129</ele>
        <time>2021-03-30T14:08:57Z</time>
      </trkpt>
      <trkpt lat="44.85056" lon="1.16561">
        <ele>146.612</ele>
        <time>2021-03-30T14:09:02Z</time>
      </trkpt>
      <trkpt lat="44.85059" lon="1.16558">
        <ele>147.053</ele>
        <time>2021-03-30T14:09:06Z</time>
      </trkpt>
      <trkpt lat="44.84994" lon="1.16582">
        <ele>139.597</ele>
        <time>2021-03-30T14:10:08Z</time>
      </trkpt>
      <trkpt lat="44.84975" lon="1.16584">
        <ele>138.249</ele>
        <time>2021-03-30T14:10:10Z</time>
      </trkpt>
      <trkpt lat="44.84956" lon="1.16597">
        <ele>137.533</ele>
        <time>2021-03-30T14:10:12Z</time>
      </trkpt>
      <trkpt lat="44.84905" lon="1.1661">
        <ele>130.991</ele>
        <time>2021-03-30T14:10:17Z</time>
      </trkpt>
      <trkpt lat="44.84872" lon="1.1664">
        <ele>120.507</ele>
        <time>2021-03-30T14:10:21Z</time>
      </trkpt>
      <trkpt lat="44.84867" lon="1.16652">
        <ele>121.138</ele>
        <time>2021-03-30T14:10:22Z</time>
      </trkpt>
      <trkpt lat="44.84859" lon="1.16661">
        <ele>120.914</ele>
        <time>2021-03-30T14:10:23Z</time>
      </trkpt>
      <trkpt lat="44.84845" lon="1.16722">
        <ele>115.925</ele>
        <time>2021-03-30T14:10:28Z</time>
      </trkpt>
      <trkpt lat="44.84854" lon="1.16762">
        <ele>115.442</ele>
        <time>2021-03-30T14:10:33Z</time>
      </trkpt>
      <trkpt lat="44.84846" lon="1.16769">
        <ele>115.503</ele>
        <time>2021-03-30T14:10:35Z</time>
      </trkpt>
      <trkpt lat="44.84826" lon="1.16751">
        <ele>112.618</ele>
        <time>2021-03-30T14:10:40Z</time>
      </trkpt>
      <trkpt lat="44.84819" lon="1.1675">
        <ele>111.857</ele>
        <time>2021-03-30T14:10:41Z</time>
      </trkpt>
      <trkpt lat="44.8481" lon="1.16759">
        <ele>110.486</ele>
        <time>2021-03-30T14:10:42Z</time>
      </trkpt>
      <trkpt lat="44.84803" lon="1.16758">
        <ele>109.534</ele>
        <time>2021-03-30T14:10:43Z</time>
      </trkpt>
      <trkpt lat="44.84768" lon="1.1679">
        <ele>109.473</ele>
        <time>2021-03-30T14:10:47Z</time>
      </trkpt>
      <trkpt lat="44.84738" lon="1.16803">
        <ele>107.143</ele>
        <time>2021-03-30T14:10:50Z</time>
      </trkpt>
      <trkpt lat="44.84732" lon="1.16819">
        <ele>106.565</ele>
        <time>2021-03-30T14:10:51Z</time>
      </trkpt>
      <trkpt lat="44.8472" lon="1.16822">
        <ele>104.642</ele>
        <time>2021-03-30T14:10:52Z</time>
      </trkpt>
      <trkpt lat="44.84711" lon="1.16835">
        <ele>104.006</ele>
        <time>2021-03-30T14:10:53Z</time>
      </trkpt>
      <trkpt lat="44.84661" lon="1.16876">
        <ele>101.37</ele>
        <time>2021-03-30T14:10:58Z</time>
      </trkpt>
      <trkpt lat="44.84625" lon="1.16892">
        <ele>96.142</ele>
        <time>2021-03-30T14:11:02Z</time>
      </trkpt>
      <trkpt lat="44.84608" lon="1.16889">
        <ele>93.43</ele>
        <time>2021-03-30T14:11:04Z</time>
      </trkpt>
      <trkpt lat="44.84586" lon="1.16873">
        <ele>93.552</ele>
        <time>2021-03-30T14:11:07Z</time>
      </trkpt>
      <trkpt lat="44.84565" lon="1.16867">
        <ele>92.982</ele>
        <time>2021-03-30T14:11:10Z</time>
      </trkpt>
      <trkpt lat="44.84557" lon="1.16875">
        <ele>91.745</ele>
        <time>2021-03-30T14:11:11Z</time>
      </trkpt>
      <trkpt lat="44.84532" lon="1.16881">
        <ele>90</ele>
        <time>2021-03-30T14:11:14Z</time>
      </trkpt>
      <trkpt lat="44.84517" lon="1.1688">
        <ele>89.452</ele>
        <time>2021-03-30T14:11:16Z</time>
      </trkpt>
      <trkpt lat="44.84504" lon="1.16901">
        <ele>86.918</ele>
        <time>2021-03-30T14:11:18Z</time>
      </trkpt>
      <trkpt lat="44.84489" lon="1.16954">
        <ele>82.575</ele>
        <time>2021-03-30T14:11:22Z</time>
      </trkpt>
      <trkpt lat="44.84463" lon="1.1702">
        <ele>81.576</ele>
        <time>2021-03-30T14:11:28Z</time>
      </trkpt>
      <trkpt lat="44.8445" lon="1.17033">
        <ele>81.821</ele>
        <time>2021-03-30T14:11:30Z</time>
      </trkpt>
      <trkpt lat="44.84426" lon="1.1703">
        <ele>80.869</ele>
        <time>2021-03-30T14:11:33Z</time>
      </trkpt>
      <trkpt lat="44.84418" lon="1.17044">
        <ele>81.548</ele>
        <time>2021-03-30T14:11:35Z</time>
      </trkpt>
      <trkpt lat="44.8441" lon="1.17085">
        <ele>84.485</ele>
        <time>2021-03-30T14:11:40Z</time>
      </trkpt>
      <trkpt lat="44.84405" lon="1.17095">
        <ele>85.491</ele>
        <time>2021-03-30T14:11:42Z</time>
      </trkpt>
      <trkpt lat="44.84384" lon="1.17111">
        <ele>85.061</ele>
        <time>2021-03-30T14:11:48Z</time>
      </trkpt>
      <trkpt lat="44.84367" lon="1.17117">
        <ele>84.124</ele>
        <time>2021-03-30T14:11:51Z</time>
      </trkpt>
      <trkpt lat="44.84371" lon="1.17135">
        <ele>86.825</ele>
        <time>2021-03-30T14:11:53Z</time>
      </trkpt>
      <trkpt lat="44.84373" lon="1.17191">
        <ele>91.338</ele>
        <time>2021-03-30T14:12:00Z</time>
      </trkpt>
      <trkpt lat="44.84371" lon="1.17198">
        <ele>91.204</ele>
        <time>2021-03-30T14:12:01Z</time>
      </trkpt>
      <trkpt lat="44.84377" lon="1.17242">
        <ele>92.656</ele>
        <time>2021-03-30T14:12:06Z</time>
      </trkpt>
      <trkpt lat="44.84376" lon="1.17256">
        <ele>92.056</ele>
        <time>2021-03-30T14:12:08Z</time>
      </trkpt>
      <trkpt lat="44.84324" lon="1.17283">
        <ele>89.768</ele>
        <time>2021-03-30T14:12:16Z</time>
      </trkpt>
      <trkpt lat="44.84313" lon="1.17284">
        <ele>91.972</ele>
        <time>2021-03-30T14:12:18Z</time>
      </trkpt>
      <trkpt lat="44.84294" lon="1.17279">
        <ele>94.684</ele>
        <time>2021-03-30T14:12:21Z</time>
      </trkpt>
      <trkpt lat="44.84224" lon="1.17227">
        <ele>99.855</ele>
        <time>2021-03-30T14:12:39Z</time>
      </trkpt>
      <trkpt lat="44.84138" lon="1.17197">
        <ele>104.001</ele>
        <time>2021-03-30T14:13:00Z</time>
      </trkpt>
      <trkpt lat="44.84132" lon="1.17202">
        <ele>104.446</ele>
        <time>2021-03-30T14:13:04Z</time>
      </trkpt>
      <trkpt lat="44.8413" lon="1.1723">
        <ele>108.22</ele>
        <time>2021-03-30T14:13:08Z</time>
      </trkpt>
      <trkpt lat="44.84138" lon="1.17253">
        <ele>112.915</ele>
        <time>2021-03-30T14:13:13Z</time>
      </trkpt>
      <trkpt lat="44.8414" lon="1.17271">
        <ele>116.355</ele>
        <time>2021-03-30T14:13:16Z</time>
      </trkpt>
      <trkpt lat="44.84144" lon="1.17276">
        <ele>117.787</ele>
        <time>2021-03-30T14:13:19Z</time>
      </trkpt>
      <trkpt lat="44.84162" lon="1.17266">
        <ele>118.13</ele>
        <time>2021-03-30T14:13:26Z</time>
      </trkpt>
      <trkpt lat="44.84168" lon="1.1727">
        <ele>117.872</ele>
        <time>2021-03-30T14:13:28Z</time>
      </trkpt>
      <trkpt lat="44.84176" lon="1.17295">
        <ele>119.872</ele>
        <time>2021-03-30T14:13:32Z</time>
      </trkpt>
      <trkpt lat="44.84189" lon="1.1738">
        <ele>125.457</ele>
        <time>2021-03-30T14:13:48Z</time>
      </trkpt>
      <trkpt lat="44.84207" lon="1.17427">
        <ele>126.635</ele>
        <time>2021-03-30T14:13:57Z</time>
      </trkpt>
      <trkpt lat="44.84207" lon="1.17443">
        <ele>127.205</ele>
        <time>2021-03-30T14:14:00Z</time>
      </trkpt>
      <trkpt lat="44.84184" lon="1.17473">
        <ele>130.334</ele>
        <time>2021-03-30T14:14:12Z</time>
      </trkpt>
      <trkpt lat="44.8416" lon="1.17493">
        <ele>131.883</ele>
        <time>2021-03-30T14:14:20Z</time>
      </trkpt>
      <trkpt lat="44.84151" lon="1.17506">
        <ele>132.482</ele>
        <time>2021-03-30T14:14:25Z</time>
      </trkpt>
      <trkpt lat="44.84136" lon="1.17518">
        <ele>134.973</ele>
        <time>2021-03-30T14:14:30Z</time>
      </trkpt>
      <trkpt lat="44.84108" lon="1.17586">
        <ele>145.055</ele>
        <time>2021-03-30T14:14:43Z</time>
      </trkpt>
      <trkpt lat="44.8408" lon="1.17621">
        <ele>156.767</ele>
        <time>2021-03-30T14:14:52Z</time>
      </trkpt>
      <trkpt lat="44.84077" lon="1.17631">
        <ele>158.815</ele>
        <time>2021-03-30T14:14:54Z</time>
      </trkpt>
      <trkpt lat="44.84078" lon="1.1766">
        <ele>161.591</ele>
        <time>2021-03-30T14:15:00Z</time>
      </trkpt>
      <trkpt lat="44.84061" lon="1.17689">
        <ele>163.513</ele>
        <time>2021-03-30T14:15:04Z</time>
      </trkpt>
      <trkpt lat="44.84037" lon="1.17755">
        <ele>166.241</ele>
        <time>2021-03-30T14:15:16Z</time>
      </trkpt>
      <trkpt lat="44.8401" lon="1.17776">
        <ele>168.213</ele>
        <time>2021-03-30T14:15:21Z</time>
      </trkpt>
      <trkpt lat="44.83992" lon="1.17803">
        <ele>168.174</ele>
        <time>2021-03-30T14:15:32Z</time>
      </trkpt>
      <trkpt lat="44.83908" lon="1.17776">
        <ele>177.638</ele>
        <time>2021-03-30T14:18:16Z</time>
      </trkpt>
      <trkpt lat="44.83757" lon="1.17792">
        <ele>199.969</ele>
        <time>2021-03-30T14:21:53Z</time>
      </trkpt>
      <trkpt lat="44.83744" lon="1.17797">
        <ele>199.788</ele>
        <time>2021-03-30T14:21:58Z</time>
      </trkpt>
      <trkpt lat="44.83682" lon="1.17842">
        <ele>191.988</ele>
        <time>2021-03-30T14:22:26Z</time>
      </trkpt>
      <trkpt lat="44.83658" lon="1.17851">
        <ele>187.249</ele>
        <time>2021-03-30T14:22:35Z</time>
      </trkpt>
      <trkpt lat="44.83653" lon="1.17869">
        <ele>183.795</ele>
        <time>2021-03-30T14:22:40Z</time>
      </trkpt>
      <trkpt lat="44.83624" lon="1.17911">
        <ele>173.624</ele>
        <time>2021-03-30T14:22:57Z</time>
      </trkpt>
      <trkpt lat="44.83592" lon="1.17899">
        <ele>167.938</ele>
        <time>2021-03-30T14:23:55Z</time>
      </trkpt>
      <trkpt lat="44.83593" lon="1.17879">
        <ele>169.326</ele>
        <time>2021-03-30T14:24:03Z</time>
      </trkpt>
      <trkpt lat="44.83549" lon="1.17897">
        <ele>156.57</ele>
        <time>2021-03-30T14:24:26Z</time>
      </trkpt>
      <trkpt lat="44.83524" lon="1.17913">
        <ele>148.171</ele>
        <time>2021-03-30T14:24:38Z</time>
      </trkpt>
      <trkpt lat="44.8349" lon="1.17943">
        <ele>135.257</ele>
        <time>2021-03-30T14:24:58Z</time>
      </trkpt>
      <trkpt lat="44.83469" lon="1.17905">
        <ele>133.147</ele>
        <time>2021-03-30T14:26:03Z</time>
      </trkpt>
      <trkpt lat="44.83472" lon="1.17896">
        <ele>135.011</ele>
        <time>2021-03-30T14:26:05Z</time>
      </trkpt>
      <trkpt lat="44.83469" lon="1.1789">
        <ele>135.169</ele>
        <time>2021-03-30T14:26:08Z</time>
      </trkpt>
      <trkpt lat="44.83453" lon="1.17899">
        <ele>130.02</ele>
        <time>2021-03-30T14:26:12Z</time>
      </trkpt>
      <trkpt lat="44.83452" lon="1.17907">
        <ele>128.386</ele>
        <time>2021-03-30T14:26:13Z</time>
      </trkpt>
      <trkpt lat="44.83448" lon="1.1791">
        <ele>126.694</ele>
        <time>2021-03-30T14:26:14Z</time>
      </trkpt>
      <trkpt lat="44.83426" lon="1.17909">
        <ele>124.941</ele>
        <time>2021-03-30T14:26:20Z</time>
      </trkpt>
      <trkpt lat="44.8342" lon="1.17934">
        <ele>121.191</ele>
        <time>2021-03-30T14:26:22Z</time>
      </trkpt>
      <trkpt lat="44.83392" lon="1.17989">
        <ele>117.521</ele>
        <time>2021-03-30T14:26:29Z</time>
      </trkpt>
      <trkpt lat="44.83379" lon="1.17993">
        <ele>118.342</ele>
        <time>2021-03-30T14:26:32Z</time>
      </trkpt>
      <trkpt lat="44.8337" lon="1.17986">
        <ele>118.054</ele>
        <time>2021-03-30T14:26:34Z</time>
      </trkpt>
      <trkpt lat="44.83316" lon="1.17973">
        <ele>116.843</ele>
        <time>2021-03-30T14:26:42Z</time>
      </trkpt>
      <trkpt lat="44.83297" lon="1.17975">
        <ele>116.014</ele>
        <time>2021-03-30T14:26:44Z</time>
      </trkpt>
      <trkpt lat="44.83281" lon="1.1799">
        <ele>115.311</ele>
        <time>2021-03-30T14:26:46Z</time>
      </trkpt>
      <trkpt lat="44.83204" lon="1.18038">
        <ele>112.371</ele>
        <time>2021-03-30T14:26:56Z</time>
      </trkpt>
      <trkpt lat="44.83183" lon="1.18028">
        <ele>113.564</ele>
        <time>2021-03-30T14:27:29Z</time>
      </trkpt>
      <trkpt lat="44.83163" lon="1.18006">
        <ele>109.784</ele>
        <time>2021-03-30T14:27:35Z</time>
      </trkpt>
      <trkpt lat="44.83146" lon="1.17997">
        <ele>107.907</ele>
        <time>2021-03-30T14:27:39Z</time>
      </trkpt>
      <trkpt lat="44.83121" lon="1.17992">
        <ele>107.32</ele>
        <time>2021-03-30T14:27:42Z</time>
      </trkpt>
      <trkpt lat="44.8309" lon="1.17999">
        <ele>106.675</ele>
        <time>2021-03-30T14:27:47Z</time>
      </trkpt>
      <trkpt lat="44.83085" lon="1.18004">
        <ele>107.994</ele>
        <time>2021-03-30T14:27:48Z</time>
      </trkpt>
      <trkpt lat="44.83078" lon="1.18">
        <ele>106.301</ele>
        <time>2021-03-30T14:27:49Z</time>
      </trkpt>
      <trkpt lat="44.8306" lon="1.18005">
        <ele>107.25</ele>
        <time>2021-03-30T14:27:51Z</time>
      </trkpt>
      <trkpt lat="44.83057" lon="1.18013">
        <ele>109.624</ele>
        <time>2021-03-30T14:27:52Z</time>
      </trkpt>
      <trkpt lat="44.83044" lon="1.18012">
        <ele>108.589</ele>
        <time>2021-03-30T14:27:54Z</time>
      </trkpt>
      <trkpt lat="44.83015" lon="1.17996">
        <ele>103.326</ele>
        <time>2021-03-30T14:27:57Z</time>
      </trkpt>
      <trkpt lat="44.82988" lon="1.17996">
        <ele>103.379</ele>
        <time>2021-03-30T14:28:00Z</time>
      </trkpt>
      <trkpt lat="44.82978" lon="1.17992">
        <ele>102.163</ele>
        <time>2021-03-30T14:28:01Z</time>
      </trkpt>
      <trkpt lat="44.8296" lon="1.17997">
        <ele>103.937</ele>
        <time>2021-03-30T14:28:03Z</time>
      </trkpt>
      <trkpt lat="44.82939" lon="1.1798">
        <ele>99.07</ele>
        <time>2021-03-30T14:28:06Z</time>
      </trkpt>
      <trkpt lat="44.82923" lon="1.17978">
        <ele>98.799</ele>
        <time>2021-03-30T14:28:08Z</time>
      </trkpt>
      <trkpt lat="44.82885" lon="1.1796">
        <ele>92.333</ele>
        <time>2021-03-30T14:28:12Z</time>
      </trkpt>
      <trkpt lat="44.82836" lon="1.1795">
        <ele>88.09</ele>
        <time>2021-03-30T14:28:17Z</time>
      </trkpt>
      <trkpt lat="44.8282" lon="1.17954">
        <ele>90.382</ele>
        <time>2021-03-30T14:28:19Z</time>
      </trkpt>
      <trkpt lat="44.82796" lon="1.1795">
        <ele>87.107</ele>
        <time>2021-03-30T14:28:23Z</time>
      </trkpt>
      <trkpt lat="44.8279" lon="1.17956">
        <ele>88.699</ele>
        <time>2021-03-30T14:28:24Z</time>
      </trkpt>
      <trkpt lat="44.82788" lon="1.17966">
        <ele>91.862</ele>
        <time>2021-03-30T14:28:25Z</time>
      </trkpt>
      <trkpt lat="44.82767" lon="1.17985">
        <ele>94.42</ele>
        <time>2021-03-30T14:28:29Z</time>
      </trkpt>
      <trkpt lat="44.82748" lon="1.18014">
        <ele>98.455</ele>
        <time>2021-03-30T14:28:33Z</time>
      </trkpt>
      <trkpt lat="44.8273" lon="1.18019">
        <ele>97.443</ele>
        <time>2021-03-30T14:28:38Z</time>
      </trkpt>
      <trkpt lat="44.82718" lon="1.18016">
        <ele>94.828</ele>
        <time>2021-03-30T14:28:40Z</time>
      </trkpt>
      <trkpt lat="44.82703" lon="1.18027">
        <ele>97.756</ele>
        <time>2021-03-30T14:28:44Z</time>
      </trkpt>
      <trkpt lat="44.82705" lon="1.1803">
        <ele>99.12</ele>
        <time>2021-03-30T14:28:50Z</time>
      </trkpt>
      <trkpt lat="44.82687" lon="1.18045">
        <ele>104.791</ele>
        <time>2021-03-30T14:29:27Z</time>
      </trkpt>
      <trkpt lat="44.82689" lon="1.18051">
        <ele>107.497</ele>
        <time>2021-03-30T14:29:33Z</time>
      </trkpt>
      <trkpt lat="44.82679" lon="1.18078">
        <ele>112.636</ele>
        <time>2021-03-30T14:29:54Z</time>
      </trkpt>
      <trkpt lat="44.82673" lon="1.18077">
        <ele>107.646</ele>
        <time>2021-03-30T14:30:01Z</time>
      </trkpt>
      <trkpt lat="44.82655" lon="1.18118">
        <ele>103.07</ele>
        <time>2021-03-30T14:30:44Z</time>
      </trkpt>
      <trkpt lat="44.82649" lon="1.18171">
        <ele>110.754</ele>
        <time>2021-03-30T14:30:53Z</time>
      </trkpt>
      <trkpt lat="44.82644" lon="1.1818">
        <ele>108.744</ele>
        <time>2021-03-30T14:30:55Z</time>
      </trkpt>
      <trkpt lat="44.82639" lon="1.18176">
        <ele>104.362</ele>
        <time>2021-03-30T14:30:59Z</time>
      </trkpt>
      <trkpt lat="44.82641" lon="1.18176">
        <ele>106.146</ele>
        <time>2021-03-30T14:31:03Z</time>
      </trkpt>
      <trkpt lat="44.82624" lon="1.1823">
        <ele>102.26</ele>
        <time>2021-03-30T14:31:46Z</time>
      </trkpt>
      <trkpt lat="44.82627" lon="1.18235">
        <ele>106.646</ele>
        <time>2021-03-30T14:31:48Z</time>
      </trkpt>
      <trkpt lat="44.82623" lon="1.18283">
        <ele>114.72</ele>
        <time>2021-03-30T14:33:05Z</time>
      </trkpt>
      <trkpt lat="44.82607" lon="1.18288">
        <ele>99.028</ele>
        <time>2021-03-30T14:33:07Z</time>
      </trkpt>
      <trkpt lat="44.82594" lon="1.1831">
        <ele>91.926</ele>
        <time>2021-03-30T14:33:12Z</time>
      </trkpt>
      <trkpt lat="44.82589" lon="1.18331">
        <ele>93.97</ele>
        <time>2021-03-30T14:33:16Z</time>
      </trkpt>
      <trkpt lat="44.82578" lon="1.18351">
        <ele>91.81</ele>
        <time>2021-03-30T14:33:41Z</time>
      </trkpt>
      <trkpt lat="44.82576" lon="1.1835">
        <ele>89.721</ele>
        <time>2021-03-30T14:33:45Z</time>
      </trkpt>
      <trkpt lat="44.82571" lon="1.18375">
        <ele>91.788</ele>
        <time>2021-03-30T14:34:18Z</time>
      </trkpt>
      <trkpt lat="44.82557" lon="1.18405">
        <ele>86.133</ele>
        <time>2021-03-30T14:34:28Z</time>
      </trkpt>
      <trkpt lat="44.82536" lon="1.18477">
        <ele>87.036</ele>
        <time>2021-03-30T14:35:33Z</time>
      </trkpt>
      <trkpt lat="44.82529" lon="1.18542">
        <ele>90.594</ele>
        <time>2021-03-30T14:35:38Z</time>
      </trkpt>
      <trkpt lat="44.82521" lon="1.18559">
        <ele>86.679</ele>
        <time>2021-03-30T14:35:40Z</time>
      </trkpt>
      <trkpt lat="44.82515" lon="1.18595">
        <ele>86.386</ele>
        <time>2021-03-30T14:35:43Z</time>
      </trkpt>
      <trkpt lat="44.82509" lon="1.1861">
        <ele>85.551</ele>
        <time>2021-03-30T14:35:45Z</time>
      </trkpt>
      <trkpt lat="44.82495" lon="1.18591">
        <ele>78.112</ele>
        <time>2021-03-30T14:35:49Z</time>
      </trkpt>
      <trkpt lat="44.82485" lon="1.18566">
        <ele>72.872</ele>
        <time>2021-03-30T14:35:53Z</time>
      </trkpt>
      <trkpt lat="44.82483" lon="1.18548">
        <ele>70.704</ele>
        <time>2021-03-30T14:35:56Z</time>
      </trkpt>
      <trkpt lat="44.82484" lon="1.18532">
        <ele>69.882</ele>
        <time>2021-03-30T14:35:58Z</time>
      </trkpt>
      <trkpt lat="44.82502" lon="1.1846">
        <ele>67.711</ele>
        <time>2021-03-30T14:36:08Z</time>
      </trkpt>
      <trkpt lat="44.82501" lon="1.18445">
        <ele>66.154</ele>
        <time>2021-03-30T14:36:13Z</time>
      </trkpt>
      <trkpt lat="44.8249" lon="1.18434">
        <ele>63.678</ele>
        <time>2021-03-30T14:36:16Z</time>
      </trkpt>
      <trkpt lat="44.82473" lon="1.18407">
        <ele>60.827</ele>
        <time>2021-03-30T14:36:20Z</time>
      </trkpt>
      <trkpt lat="44.82443" lon="1.18385">
        <ele>60</ele>
        <time>2021-03-30T14:36:26Z</time>
      </trkpt>
      <trkpt lat="44.82438" lon="1.18359">
        <ele>60</ele>
        <time>2021-03-30T14:36:37Z</time>
      </trkpt>
      <trkpt lat="44.8243" lon="1.18374">
        <ele>60</ele>
        <time>2021-03-30T14:37:27Z</time>
      </trkpt>
      <trkpt lat="44.82403" lon="1.18399">
        <ele>61.327</ele>
        <time>2021-03-30T14:37:32Z</time>
      </trkpt>
      <trkpt lat="44.82394" lon="1.18391">
        <ele>62.11</ele>
        <time>2021-03-30T14:37:33Z</time>
      </trkpt>
      <trkpt lat="44.82384" lon="1.18388">
        <ele>63.141</ele>
        <time>2021-03-30T14:37:35Z</time>
      </trkpt>
      <trkpt lat="44.8236" lon="1.18398">
        <ele>66.23</ele>
        <time>2021-03-30T14:37:40Z</time>
      </trkpt>
      <trkpt lat="44.82325" lon="1.18402">
        <ele>72.21</ele>
        <time>2021-03-30T14:37:47Z</time>
      </trkpt>
      <trkpt lat="44.8228" lon="1.18419">
        <ele>77.785</ele>
        <time>2021-03-30T14:37:55Z</time>
      </trkpt>
      <trkpt lat="44.82256" lon="1.18419">
        <ele>79.053</ele>
        <time>2021-03-30T14:37:59Z</time>
      </trkpt>
      <trkpt lat="44.82221" lon="1.18434">
        <ele>80</ele>
        <time>2021-03-30T14:38:05Z</time>
      </trkpt>
      <trkpt lat="44.82161" lon="1.18434">
        <ele>79.705</ele>
        <time>2021-03-30T14:38:15Z</time>
      </trkpt>
      <trkpt lat="44.82149" lon="1.18438">
        <ele>79.662</ele>
        <time>2021-03-30T14:38:17Z</time>
      </trkpt>
      <trkpt lat="44.82081" lon="1.1844">
        <ele>73.146</ele>
        <time>2021-03-30T14:38:28Z</time>
      </trkpt>
      <trkpt lat="44.82039" lon="1.18429">
        <ele>68.102</ele>
        <time>2021-03-30T14:38:35Z</time>
      </trkpt>
      <trkpt lat="44.8201" lon="1.18428">
        <ele>66.66</ele>
        <time>2021-03-30T14:38:40Z</time>
      </trkpt>
      <trkpt lat="44.81953" lon="1.18414">
        <ele>70</ele>
        <time>2021-03-30T14:38:50Z</time>
      </trkpt>
      <trkpt lat="44.81905" lon="1.18387">
        <ele>70</ele>
        <time>2021-03-30T14:38:59Z</time>
      </trkpt>
      <trkpt lat="44.8188" lon="1.18379">
        <ele>70</ele>
        <time>2021-03-30T14:39:03Z</time>
      </trkpt>
      <trkpt lat="44.8185" lon="1.18355">
        <ele>70</ele>
        <time>2021-03-30T14:39:09Z</time>
      </trkpt>
      <trkpt lat="44.81847" lon="1.18345">
        <ele>70</ele>
        <time>2021-03-30T14:39:10Z</time>
      </trkpt>
      <trkpt lat="44.81833" lon="1.18336">
        <ele>70</ele>
        <time>2021-03-30T14:39:12Z</time>
      </trkpt>
      <trkpt lat="44.81809" lon="1.18299">
        <ele>70</ele>
        <time>2021-03-30T14:39:18Z</time>
      </trkpt>
      <trkpt lat="44.81784" lon="1.18281">
        <ele>70</ele>
        <time>2021-03-30T14:39:23Z</time>
      </trkpt>
      <trkpt lat="44.81766" lon="1.18254">
        <ele>70.198</ele>
        <time>2021-03-30T14:39:29Z</time>
      </trkpt>
      <trkpt lat="44.81761" lon="1.18252">
        <ele>70.17</ele>
        <time>2021-03-30T14:39:30Z</time>
      </trkpt>
      <trkpt lat="44.81742" lon="1.1822">
        <ele>70.016</ele>
        <time>2021-03-30T14:39:36Z</time>
      </trkpt>
      <trkpt lat="44.81727" lon="1.18206">
        <ele>70.105</ele>
        <time>2021-03-30T14:39:39Z</time>
      </trkpt>
      <trkpt lat="44.81721" lon="1.18192">
        <ele>70.198</ele>
        <time>2021-03-30T14:39:41Z</time>
      </trkpt>
      <trkpt lat="44.81713" lon="1.18186">
        <ele>70.171</ele>
        <time>2021-03-30T14:39:42Z</time>
      </trkpt>
      <trkpt lat="44.81693" lon="1.18148">
        <ele>70.076</ele>
        <time>2021-03-30T14:39:49Z</time>
      </trkpt>
      <trkpt lat="44.81664" lon="1.18106">
        <ele>70.228</ele>
        <time>2021-03-30T14:39:56Z</time>
      </trkpt>
      <trkpt lat="44.81638" lon="1.18087">
        <ele>70.164</ele>
        <time>2021-03-30T14:40:01Z</time>
      </trkpt>
      <trkpt lat="44.81614" lon="1.1808">
        <ele>70.246</ele>
        <time>2021-03-30T14:40:06Z</time>
      </trkpt>
      <trkpt lat="44.81606" lon="1.18066">
        <ele>70.413</ele>
        <time>2021-03-30T14:40:08Z</time>
      </trkpt>
      <trkpt lat="44.81583" lon="1.18061">
        <ele>70.49</ele>
        <time>2021-03-30T14:40:14Z</time>
      </trkpt>
      <trkpt lat="44.81554" lon="1.1804">
        <ele>71.18</ele>
        <time>2021-03-30T14:40:20Z</time>
      </trkpt>
      <trkpt lat="44.8154" lon="1.18035">
        <ele>72.205</ele>
        <time>2021-03-30T14:40:23Z</time>
      </trkpt>
      <trkpt lat="44.81531" lon="1.18025">
        <ele>73.363</ele>
        <time>2021-03-30T14:40:32Z</time>
      </trkpt>
      <trkpt lat="44.81512" lon="1.18031">
        <ele>74.083</ele>
        <time>2021-03-30T14:41:03Z</time>
      </trkpt>
      <trkpt lat="44.81504" lon="1.18023">
        <ele>75.124</ele>
        <time>2021-03-30T14:41:04Z</time>
      </trkpt>
      <trkpt lat="44.81466" lon="1.18028">
        <ele>76.213</ele>
        <time>2021-03-30T14:41:11Z</time>
      </trkpt>
      <trkpt lat="44.81455" lon="1.18041">
        <ele>75.431</ele>
        <time>2021-03-30T14:41:15Z</time>
      </trkpt>
      <trkpt lat="44.81451" lon="1.1804">
        <ele>75.515</ele>
        <time>2021-03-30T14:41:17Z</time>
      </trkpt>
      <trkpt lat="44.81401" lon="1.18084">
        <ele>73.247</ele>
        <time>2021-03-30T14:41:29Z</time>
      </trkpt>
      <trkpt lat="44.81396" lon="1.18105">
        <ele>73.095</ele>
        <time>2021-03-30T14:41:33Z</time>
      </trkpt>
      <trkpt lat="44.81379" lon="1.18117">
        <ele>73.298</ele>
        <time>2021-03-30T14:41:36Z</time>
      </trkpt>
      <trkpt lat="44.81343" lon="1.18162">
        <ele>74.071</ele>
        <time>2021-03-30T14:41:44Z</time>
      </trkpt>
      <trkpt lat="44.81332" lon="1.1817">
        <ele>74.291</ele>
        <time>2021-03-30T14:41:47Z</time>
      </trkpt>
      <trkpt lat="44.8133" lon="1.18186">
        <ele>74.824</ele>
        <time>2021-03-30T14:41:50Z</time>
      </trkpt>
      <trkpt lat="44.81321" lon="1.182">
        <ele>75.241</ele>
        <time>2021-03-30T14:41:53Z</time>
      </trkpt>
      <trkpt lat="44.81309" lon="1.18205">
        <ele>75.408</ele>
        <time>2021-03-30T14:41:55Z</time>
      </trkpt>
      <trkpt lat="44.81292" lon="1.18237">
        <ele>76.208</ele>
        <time>2021-03-30T14:42:01Z</time>
      </trkpt>
      <trkpt lat="44.81281" lon="1.18248">
        <ele>76.47</ele>
        <time>2021-03-30T14:42:04Z</time>
      </trkpt>
      <trkpt lat="44.81282" lon="1.18257">
        <ele>76.628</ele>
        <time>2021-03-30T14:42:07Z</time>
      </trkpt>
      <trkpt lat="44.81262" lon="1.18279">
        <ele>77.449</ele>
        <time>2021-03-30T14:42:15Z</time>
      </trkpt>
      <trkpt lat="44.81248" lon="1.18317">
        <ele>78.456</ele>
        <time>2021-03-30T14:42:24Z</time>
      </trkpt>
      <trkpt lat="44.81222" lon="1.18347">
        <ele>78.378</ele>
        <time>2021-03-30T14:42:29Z</time>
      </trkpt>
      <trkpt lat="44.8122" lon="1.18355">
        <ele>78.4</ele>
        <time>2021-03-30T14:42:30Z</time>
      </trkpt>
      <trkpt lat="44.812" lon="1.18374">
        <ele>78.392</ele>
        <time>2021-03-30T14:42:33Z</time>
      </trkpt>
      <trkpt lat="44.81196" lon="1.18388">
        <ele>78.63</ele>
        <time>2021-03-30T14:42:35Z</time>
      </trkpt>
      <trkpt lat="44.81176" lon="1.18406">
        <ele>78.941</ele>
        <time>2021-03-30T14:42:39Z</time>
      </trkpt>
      <trkpt lat="44.81168" lon="1.18429">
        <ele>79</ele>
        <time>2021-03-30T14:42:43Z</time>
      </trkpt>
      <trkpt lat="44.81141" lon="1.18483">
        <ele>79</ele>
        <time>2021-03-30T14:42:54Z</time>
      </trkpt>
      <trkpt lat="44.81138" lon="1.18499">
        <ele>79</ele>
        <time>2021-03-30T14:42:56Z</time>
      </trkpt>
      <trkpt lat="44.8112" lon="1.18528">
        <ele>79</ele>
        <time>2021-03-30T14:43:00Z</time>
      </trkpt>
      <trkpt lat="44.81108" lon="1.18539">
        <ele>78.858</ele>
        <time>2021-03-30T14:43:02Z</time>
      </trkpt>
      <trkpt lat="44.81099" lon="1.18572">
        <ele>78.786</ele>
        <time>2021-03-30T14:43:06Z</time>
      </trkpt>
      <trkpt lat="44.81074" lon="1.18611">
        <ele>79</ele>
        <time>2021-03-30T14:43:15Z</time>
      </trkpt>
      <trkpt lat="44.8107" lon="1.18628">
        <ele>78.975</ele>
        <time>2021-03-30T14:43:18Z</time>
      </trkpt>
      <trkpt lat="44.81056" lon="1.18655">
        <ele>78.911</ele>
        <time>2021-03-30T14:43:22Z</time>
      </trkpt>
      <trkpt lat="44.8105" lon="1.1866">
        <ele>78.912</ele>
        <time>2021-03-30T14:43:23Z</time>
      </trkpt>
      <trkpt lat="44.81043" lon="1.18675">
        <ele>79</ele>
        <time>2021-03-30T14:43:26Z</time>
      </trkpt>
      <trkpt lat="44.81044" lon="1.18697">
        <ele>79</ele>
        <time>2021-03-30T14:43:29Z</time>
      </trkpt>
      <trkpt lat="44.81038" lon="1.18711">
        <ele>79</ele>
        <time>2021-03-30T14:43:31Z</time>
      </trkpt>
      <trkpt lat="44.81026" lon="1.18723">
        <ele>79</ele>
        <time>2021-03-30T14:43:33Z</time>
      </trkpt>
      <trkpt lat="44.81017" lon="1.18745">
        <ele>79</ele>
        <time>2021-03-30T14:43:42Z</time>
      </trkpt>
      <trkpt lat="44.81013" lon="1.18769">
        <ele>79</ele>
        <time>2021-03-30T14:44:16Z</time>
      </trkpt>
      <trkpt lat="44.81005" lon="1.18794">
        <ele>79</ele>
        <time>2021-03-30T14:44:21Z</time>
      </trkpt>
      <trkpt lat="44.81002" lon="1.18815">
        <ele>79</ele>
        <time>2021-03-30T14:44:24Z</time>
      </trkpt>
      <trkpt lat="44.80997" lon="1.18822">
        <ele>79</ele>
        <time>2021-03-30T14:44:25Z</time>
      </trkpt>
      <trkpt lat="44.80994" lon="1.18838">
        <ele>79</ele>
        <time>2021-03-30T14:44:27Z</time>
      </trkpt>
      <trkpt lat="44.80985" lon="1.18854">
        <ele>79</ele>
        <time>2021-03-30T14:44:29Z</time>
      </trkpt>
      <trkpt lat="44.80979" lon="1.18858">
        <ele>79.009</ele>
        <time>2021-03-30T14:44:30Z</time>
      </trkpt>
      <trkpt lat="44.80973" lon="1.18879">
        <ele>79</ele>
        <time>2021-03-30T14:44:33Z</time>
      </trkpt>
      <trkpt lat="44.80976" lon="1.18884">
        <ele>79</ele>
        <time>2021-03-30T14:44:35Z</time>
      </trkpt>
      <trkpt lat="44.80973" lon="1.18906">
        <ele>79</ele>
        <time>2021-03-30T14:44:40Z</time>
      </trkpt>
      <trkpt lat="44.80975" lon="1.18916">
        <ele>79</ele>
        <time>2021-03-30T14:44:43Z</time>
      </trkpt>
      <trkpt lat="44.80968" lon="1.18958">
        <ele>79</ele>
        <time>2021-03-30T14:44:48Z</time>
      </trkpt>
      <trkpt lat="44.8094" lon="1.19013">
        <ele>79</ele>
        <time>2021-03-30T14:44:55Z</time>
      </trkpt>
      <trkpt lat="44.80934" lon="1.19053">
        <ele>79</ele>
        <time>2021-03-30T14:45:00Z</time>
      </trkpt>
      <trkpt lat="44.80926" lon="1.19067">
        <ele>79</ele>
        <time>2021-03-30T14:45:02Z</time>
      </trkpt>
      <trkpt lat="44.80926" lon="1.19077">
        <ele>79</ele>
        <time>2021-03-30T14:45:03Z</time>
      </trkpt>
      <trkpt lat="44.80905" lon="1.1912">
        <ele>79</ele>
        <time>2021-03-30T14:45:09Z</time>
      </trkpt>
      <trkpt lat="44.80901" lon="1.19149">
        <ele>79</ele>
        <time>2021-03-30T14:45:13Z</time>
      </trkpt>
      <trkpt lat="44.80883" lon="1.19181">
        <ele>79</ele>
        <time>2021-03-30T14:45:18Z</time>
      </trkpt>
      <trkpt lat="44.80881" lon="1.19195">
        <ele>79</ele>
        <time>2021-03-30T14:45:20Z</time>
      </trkpt>
      <trkpt lat="44.80876" lon="1.19203">
        <ele>79</ele>
        <time>2021-03-30T14:45:21Z</time>
      </trkpt>
      <trkpt lat="44.80869" lon="1.19243">
        <ele>79</ele>
        <time>2021-03-30T14:45:26Z</time>
      </trkpt>
      <trkpt lat="44.80869" lon="1.1927">
        <ele>79</ele>
        <time>2021-03-30T14:45:30Z</time>
      </trkpt>
      <trkpt lat="44.80859" lon="1.19322">
        <ele>79</ele>
        <time>2021-03-30T14:45:37Z</time>
      </trkpt>
      <trkpt lat="44.80848" lon="1.19363">
        <ele>79</ele>
        <time>2021-03-30T14:45:45Z</time>
      </trkpt>
      <trkpt lat="44.80825" lon="1.19464">
        <ele>79</ele>
        <time>2021-03-30T14:46:02Z</time>
      </trkpt>
      <trkpt lat="44.80827" lon="1.19499">
        <ele>79</ele>
        <time>2021-03-30T14:46:06Z</time>
      </trkpt>
      <trkpt lat="44.80817" lon="1.19577">
        <ele>79</ele>
        <time>2021-03-30T14:46:17Z</time>
      </trkpt>
      <trkpt lat="44.80824" lon="1.1962">
        <ele>79</ele>
        <time>2021-03-30T14:46:23Z</time>
      </trkpt>
      <trkpt lat="44.80823" lon="1.19708">
        <ele>78.925</ele>
        <time>2021-03-30T14:46:37Z</time>
      </trkpt>
      <trkpt lat="44.80816" lon="1.1978">
        <ele>78.505</ele>
        <time>2021-03-30T14:46:49Z</time>
      </trkpt>
      <trkpt lat="44.80818" lon="1.19813">
        <ele>78.006</ele>
        <time>2021-03-30T14:46:55Z</time>
      </trkpt>
      <trkpt lat="44.80813" lon="1.19873">
        <ele>78.002</ele>
        <time>2021-03-30T14:47:04Z</time>
      </trkpt>
      <trkpt lat="44.80814" lon="1.19892">
        <ele>78</ele>
        <time>2021-03-30T14:47:07Z</time>
      </trkpt>
      <trkpt lat="44.80809" lon="1.1993">
        <ele>78</ele>
        <time>2021-03-30T14:47:13Z</time>
      </trkpt>
      <trkpt lat="44.80811" lon="1.19928">
        <ele>78</ele>
        <time>2021-03-30T14:47:18Z</time>
      </trkpt>
      <trkpt lat="44.80798" lon="1.1998">
        <ele>78</ele>
        <time>2021-03-30T14:48:08Z</time>
      </trkpt>
      <trkpt lat="44.80733" lon="1.20199">
        <ele>78.991</ele>
        <time>2021-03-30T14:48:38Z</time>
      </trkpt>
      <trkpt lat="44.80722" lon="1.20226">
        <ele>79</ele>
        <time>2021-03-30T14:48:42Z</time>
      </trkpt>
      <trkpt lat="44.80678" lon="1.20384">
        <ele>79.982</ele>
        <time>2021-03-30T14:49:03Z</time>
      </trkpt>
      <trkpt lat="44.8067" lon="1.20438">
        <ele>80</ele>
        <time>2021-03-30T14:49:10Z</time>
      </trkpt>
      <trkpt lat="44.80669" lon="1.20476">
        <ele>80</ele>
        <time>2021-03-30T14:49:15Z</time>
      </trkpt>
      <trkpt lat="44.80656" lon="1.20504">
        <ele>80</ele>
        <time>2021-03-30T14:49:21Z</time>
      </trkpt>
      <trkpt lat="44.80669" lon="1.20517">
        <ele>80</ele>
        <time>2021-03-30T14:49:24Z</time>
      </trkpt>
      <trkpt lat="44.80681" lon="1.20512">
        <ele>80</ele>
        <time>2021-03-30T14:49:28Z</time>
      </trkpt>
      <trkpt lat="44.80677" lon="1.20501">
        <ele>80</ele>
        <time>2021-03-30T14:49:38Z</time>
      </trkpt>
      <trkpt lat="44.80655" lon="1.20488">
        <ele>80</ele>
        <time>2021-03-30T14:49:53Z</time>
      </trkpt>
      <trkpt lat="44.80476" lon="1.20428">
        <ele>74.054</ele>
        <time>2021-03-30T14:50:27Z</time>
      </trkpt>
      <trkpt lat="44.80425" lon="1.20406">
        <ele>72.134</ele>
        <time>2021-03-30T14:50:36Z</time>
      </trkpt>
      <trkpt lat="44.80416" lon="1.20398">
        <ele>71.839</ele>
        <time>2021-03-30T14:50:38Z</time>
      </trkpt>
      <trkpt lat="44.80415" lon="1.20374">
        <ele>72.794</ele>
        <time>2021-03-30T14:50:40Z</time>
      </trkpt>
      <trkpt lat="44.80408" lon="1.20344">
        <ele>74.068</ele>
        <time>2021-03-30T14:50:43Z</time>
      </trkpt>
      <trkpt lat="44.80399" lon="1.20277">
        <ele>77.065</ele>
        <time>2021-03-30T14:50:50Z</time>
      </trkpt>
      <trkpt lat="44.80403" lon="1.20227">
        <ele>78.954</ele>
        <time>2021-03-30T14:51:02Z</time>
      </trkpt>
      <trkpt lat="44.8041" lon="1.20198">
        <ele>79.931</ele>
        <time>2021-03-30T14:51:48Z</time>
      </trkpt>
      <trkpt lat="44.80408" lon="1.20177">
        <ele>79.935</ele>
        <time>2021-03-30T14:51:50Z</time>
      </trkpt>
      <trkpt lat="44.80412" lon="1.2009">
        <ele>80</ele>
        <time>2021-03-30T14:52:00Z</time>
      </trkpt>
      <trkpt lat="44.80425" lon="1.19955">
        <ele>80</ele>
        <time>2021-03-30T14:52:15Z</time>
      </trkpt>
      <trkpt lat="44.80423" lon="1.19902">
        <ele>80</ele>
        <time>2021-03-30T14:52:21Z</time>
      </trkpt>
      <trkpt lat="44.80413" lon="1.19872">
        <ele>79.984</ele>
        <time>2021-03-30T14:52:25Z</time>
      </trkpt>
      <trkpt lat="44.80415" lon="1.19856">
        <ele>79.947</ele>
        <time>2021-03-30T14:52:27Z</time>
      </trkpt>
      <trkpt lat="44.80457" lon="1.198">
        <ele>79</ele>
        <time>2021-03-30T14:52:37Z</time>
      </trkpt>
      <trkpt lat="44.80474" lon="1.19785">
        <ele>79</ele>
        <time>2021-03-30T14:52:40Z</time>
      </trkpt>
      <trkpt lat="44.80485" lon="1.19771">
        <ele>79</ele>
        <time>2021-03-30T14:52:42Z</time>
      </trkpt>
      <trkpt lat="44.80528" lon="1.19737">
        <ele>79</ele>
        <time>2021-03-30T14:52:50Z</time>
      </trkpt>
      <trkpt lat="44.80563" lon="1.19704">
        <ele>79</ele>
        <time>2021-03-30T14:52:57Z</time>
      </trkpt>
      <trkpt lat="44.8057" lon="1.19692">
        <ele>79</ele>
        <time>2021-03-30T14:52:59Z</time>
      </trkpt>
      <trkpt lat="44.80622" lon="1.19428">
        <ele>79</ele>
        <time>2021-03-30T14:53:34Z</time>
      </trkpt>
      <trkpt lat="44.80655" lon="1.19446">
        <ele>79</ele>
        <time>2021-03-30T14:54:51Z</time>
      </trkpt>
      <trkpt lat="44.80725" lon="1.19476">
        <ele>79</ele>
        <time>2021-03-30T14:55:03Z</time>
      </trkpt>
      <trkpt lat="44.8074" lon="1.19475">
        <ele>79</ele>
        <time>2021-03-30T14:55:08Z</time>
      </trkpt>
      <trkpt lat="44.80734" lon="1.19452">
        <ele>79</ele>
        <time>2021-03-30T14:56:02Z</time>
      </trkpt>
      <trkpt lat="44.80732" lon="1.19426">
        <ele>79</ele>
        <time>2021-03-30T14:56:06Z</time>
      </trkpt>
      <trkpt lat="44.8074" lon="1.19392">
        <ele>79</ele>
        <time>2021-03-30T14:56:10Z</time>
      </trkpt>
      <trkpt lat="44.80742" lon="1.19368">
        <ele>79</ele>
        <time>2021-03-30T14:56:13Z</time>
      </trkpt>
      <trkpt lat="44.80754" lon="1.19319">
        <ele>79</ele>
        <time>2021-03-30T14:56:19Z</time>
      </trkpt>
      <trkpt lat="44.80754" lon="1.19284">
        <ele>79</ele>
        <time>2021-03-30T14:56:23Z</time>
      </trkpt>
      <trkpt lat="44.80771" lon="1.19225">
        <ele>79</ele>
        <time>2021-03-30T14:56:30Z</time>
      </trkpt>
      <trkpt lat="44.8079" lon="1.19134">
        <ele>79</ele>
        <time>2021-03-30T14:56:41Z</time>
      </trkpt>
      <trkpt lat="44.80827" lon="1.19017">
        <ele>79</ele>
        <time>2021-03-30T14:56:55Z</time>
      </trkpt>
      <trkpt lat="44.80829" lon="1.19002">
        <ele>79</ele>
        <time>2021-03-30T14:56:57Z</time>
      </trkpt>
      <trkpt lat="44.80843" lon="1.18966">
        <ele>79</ele>
        <time>2021-03-30T14:57:02Z</time>
      </trkpt>
      <trkpt lat="44.80859" lon="1.18914">
        <ele>79.177</ele>
        <time>2021-03-30T14:57:08Z</time>
      </trkpt>
      <trkpt lat="44.80864" lon="1.18876">
        <ele>79.552</ele>
        <time>2021-03-30T14:57:13Z</time>
      </trkpt>
      <trkpt lat="44.80876" lon="1.18847">
        <ele>79.287</ele>
        <time>2021-03-30T14:57:17Z</time>
      </trkpt>
      <trkpt lat="44.80894" lon="1.18723">
        <ele>78.757</ele>
        <time>2021-03-30T14:57:31Z</time>
      </trkpt>
      <trkpt lat="44.80931" lon="1.18644">
        <ele>78</ele>
        <time>2021-03-30T14:57:42Z</time>
      </trkpt>
      <trkpt lat="44.80958" lon="1.18605">
        <ele>78.042</ele>
        <time>2021-03-30T14:57:48Z</time>
      </trkpt>
      <trkpt lat="44.80965" lon="1.186">
        <ele>78.057</ele>
        <time>2021-03-30T14:57:49Z</time>
      </trkpt>
      <trkpt lat="44.80989" lon="1.18559">
        <ele>78</ele>
        <time>2021-03-30T14:57:55Z</time>
      </trkpt>
      <trkpt lat="44.81031" lon="1.18437">
        <ele>79.62</ele>
        <time>2021-03-30T14:58:11Z</time>
      </trkpt>
      <trkpt lat="44.81044" lon="1.18415">
        <ele>79.579</ele>
        <time>2021-03-30T14:58:15Z</time>
      </trkpt>
      <trkpt lat="44.81082" lon="1.1837">
        <ele>79.532</ele>
        <time>2021-03-30T14:58:23Z</time>
      </trkpt>
      <trkpt lat="44.81127" lon="1.1829">
        <ele>78.683</ele>
        <time>2021-03-30T14:58:35Z</time>
      </trkpt>
      <trkpt lat="44.81134" lon="1.18282">
        <ele>78.518</ele>
        <time>2021-03-30T14:58:36Z</time>
      </trkpt>
      <trkpt lat="44.81142" lon="1.18247">
        <ele>78.34</ele>
        <time>2021-03-30T14:58:41Z</time>
      </trkpt>
      <trkpt lat="44.8114" lon="1.18239">
        <ele>78.387</ele>
        <time>2021-03-30T14:58:42Z</time>
      </trkpt>
      <trkpt lat="44.81134" lon="1.18235">
        <ele>78.505</ele>
        <time>2021-03-30T14:58:43Z</time>
      </trkpt>
      <trkpt lat="44.81137" lon="1.18226">
        <ele>78.428</ele>
        <time>2021-03-30T14:58:44Z</time>
      </trkpt>
      <trkpt lat="44.81135" lon="1.18205">
        <ele>78.136</ele>
        <time>2021-03-30T14:58:46Z</time>
      </trkpt>
      <trkpt lat="44.81118" lon="1.18158">
        <ele>77.776</ele>
        <time>2021-03-30T14:58:52Z</time>
      </trkpt>
      <trkpt lat="44.81094" lon="1.18113">
        <ele>76.492</ele>
        <time>2021-03-30T14:58:58Z</time>
      </trkpt>
      <trkpt lat="44.81091" lon="1.18069">
        <ele>76.207</ele>
        <time>2021-03-30T14:59:03Z</time>
      </trkpt>
      <trkpt lat="44.81099" lon="1.18051">
        <ele>76.93</ele>
        <time>2021-03-30T14:59:06Z</time>
      </trkpt>
      <trkpt lat="44.81134" lon="1.18028">
        <ele>79.16</ele>
        <time>2021-03-30T14:59:12Z</time>
      </trkpt>
      <trkpt lat="44.81143" lon="1.18017">
        <ele>79.555</ele>
        <time>2021-03-30T14:59:14Z</time>
      </trkpt>
      <trkpt lat="44.81143" lon="1.17999">
        <ele>79.633</ele>
        <time>2021-03-30T14:59:16Z</time>
      </trkpt>
      <trkpt lat="44.81106" lon="1.17937">
        <ele>82.067</ele>
        <time>2021-03-30T14:59:26Z</time>
      </trkpt>
      <trkpt lat="44.81088" lon="1.17923">
        <ele>79.716</ele>
        <time>2021-03-30T14:59:30Z</time>
      </trkpt>
      <trkpt lat="44.81066" lon="1.17888">
        <ele>80.01</ele>
        <time>2021-03-30T14:59:37Z</time>
      </trkpt>
      <trkpt lat="44.81074" lon="1.17859">
        <ele>86.473</ele>
        <time>2021-03-30T14:59:44Z</time>
      </trkpt>
      <trkpt lat="44.81087" lon="1.1784">
        <ele>91.978</ele>
        <time>2021-03-30T14:59:53Z</time>
      </trkpt>
      <trkpt lat="44.8109" lon="1.17823">
        <ele>94.858</ele>
        <time>2021-03-30T14:59:57Z</time>
      </trkpt>
      <trkpt lat="44.81071" lon="1.17787">
        <ele>97.089</ele>
        <time>2021-03-30T15:00:08Z</time>
      </trkpt>
      <trkpt lat="44.81042" lon="1.17764">
        <ele>103.352</ele>
        <time>2021-03-30T15:00:22Z</time>
      </trkpt>
      <trkpt lat="44.81035" lon="1.17753">
        <ele>105.923</ele>
        <time>2021-03-30T15:00:27Z</time>
      </trkpt>
      <trkpt lat="44.81036" lon="1.17742">
        <ele>107.402</ele>
        <time>2021-03-30T15:00:31Z</time>
      </trkpt>
      <trkpt lat="44.81044" lon="1.17725">
        <ele>109.695</ele>
        <time>2021-03-30T15:00:38Z</time>
      </trkpt>
      <trkpt lat="44.8106" lon="1.17709">
        <ele>112.164</ele>
        <time>2021-03-30T15:00:49Z</time>
      </trkpt>
      <trkpt lat="44.81139" lon="1.17688">
        <ele>119.503</ele>
        <time>2021-03-30T15:01:08Z</time>
      </trkpt>
      <trkpt lat="44.8117" lon="1.1769">
        <ele>120.412</ele>
        <time>2021-03-30T15:01:15Z</time>
      </trkpt>
      <trkpt lat="44.81201" lon="1.17704">
        <ele>121.729</ele>
        <time>2021-03-30T15:01:21Z</time>
      </trkpt>
      <trkpt lat="44.81224" lon="1.17703">
        <ele>122.94</ele>
        <time>2021-03-30T15:01:26Z</time>
      </trkpt>
      <trkpt lat="44.81244" lon="1.17695">
        <ele>123.516</ele>
        <time>2021-03-30T15:01:31Z</time>
      </trkpt>
      <trkpt lat="44.81279" lon="1.1769">
        <ele>124.064</ele>
        <time>2021-03-30T15:01:37Z</time>
      </trkpt>
      <trkpt lat="44.8135" lon="1.17699">
        <ele>128.31</ele>
        <time>2021-03-30T15:01:48Z</time>
      </trkpt>
      <trkpt lat="44.81387" lon="1.17693">
        <ele>131.318</ele>
        <time>2021-03-30T15:01:55Z</time>
      </trkpt>
      <trkpt lat="44.81396" lon="1.17686">
        <ele>131.715</ele>
        <time>2021-03-30T15:01:57Z</time>
      </trkpt>
      <trkpt lat="44.81409" lon="1.17662">
        <ele>131.006</ele>
        <time>2021-03-30T15:02:01Z</time>
      </trkpt>
      <trkpt lat="44.81428" lon="1.17595">
        <ele>128.936</ele>
        <time>2021-03-30T15:02:08Z</time>
      </trkpt>
      <trkpt lat="44.81446" lon="1.17508">
        <ele>126.527</ele>
        <time>2021-03-30T15:02:16Z</time>
      </trkpt>
      <trkpt lat="44.81464" lon="1.17463">
        <ele>126.084</ele>
        <time>2021-03-30T15:02:21Z</time>
      </trkpt>
      <trkpt lat="44.81494" lon="1.17415">
        <ele>123.248</ele>
        <time>2021-03-30T15:02:28Z</time>
      </trkpt>
      <trkpt lat="44.81534" lon="1.17377">
        <ele>121.832</ele>
        <time>2021-03-30T15:02:36Z</time>
      </trkpt>
      <trkpt lat="44.81561" lon="1.17369">
        <ele>121.025</ele>
        <time>2021-03-30T15:02:40Z</time>
      </trkpt>
      <trkpt lat="44.81628" lon="1.17374">
        <ele>114.147</ele>
        <time>2021-03-30T15:02:48Z</time>
      </trkpt>
      <trkpt lat="44.8167" lon="1.17392">
        <ele>113.107</ele>
        <time>2021-03-30T15:02:52Z</time>
      </trkpt>
      <trkpt lat="44.81702" lon="1.17397">
        <ele>112.066</ele>
        <time>2021-03-30T15:02:55Z</time>
      </trkpt>
      <trkpt lat="44.81756" lon="1.17375">
        <ele>107.523</ele>
        <time>2021-03-30T15:03:02Z</time>
      </trkpt>
      <trkpt lat="44.81751" lon="1.17378">
        <ele>107.966</ele>
        <time>2021-03-30T15:03:09Z</time>
      </trkpt>
      <trkpt lat="44.81714" lon="1.17363">
        <ele>105.917</ele>
        <time>2021-03-30T15:03:14Z</time>
      </trkpt>
      <trkpt lat="44.81688" lon="1.17371">
        <ele>107.883</ele>
        <time>2021-03-30T15:03:18Z</time>
      </trkpt>
      <trkpt lat="44.81676" lon="1.17357">
        <ele>106.231</ele>
        <time>2021-03-30T15:03:20Z</time>
      </trkpt>
      <trkpt lat="44.81659" lon="1.17321">
        <ele>100.688</ele>
        <time>2021-03-30T15:03:23Z</time>
      </trkpt>
      <trkpt lat="44.81653" lon="1.17294">
        <ele>95.602</ele>
        <time>2021-03-30T15:03:25Z</time>
      </trkpt>
      <trkpt lat="44.81652" lon="1.17247">
        <ele>96.601</ele>
        <time>2021-03-30T15:03:29Z</time>
      </trkpt>
      <trkpt lat="44.81662" lon="1.17239">
        <ele>98.618</ele>
        <time>2021-03-30T15:03:31Z</time>
      </trkpt>
      <trkpt lat="44.81688" lon="1.17237">
        <ele>98.246</ele>
        <time>2021-03-30T15:03:35Z</time>
      </trkpt>
      <trkpt lat="44.81727" lon="1.17214">
        <ele>99.25</ele>
        <time>2021-03-30T15:03:42Z</time>
      </trkpt>
      <trkpt lat="44.81756" lon="1.17175">
        <ele>100.498</ele>
        <time>2021-03-30T15:03:49Z</time>
      </trkpt>
      <trkpt lat="44.81759" lon="1.17145">
        <ele>103.455</ele>
        <time>2021-03-30T15:03:52Z</time>
      </trkpt>
      <trkpt lat="44.81755" lon="1.17078">
        <ele>107.1</ele>
        <time>2021-03-30T15:04:01Z</time>
      </trkpt>
      <trkpt lat="44.81752" lon="1.17064">
        <ele>108.172</ele>
        <time>2021-03-30T15:04:03Z</time>
      </trkpt>
      <trkpt lat="44.81747" lon="1.17056">
        <ele>110.418</ele>
        <time>2021-03-30T15:04:04Z</time>
      </trkpt>
      <trkpt lat="44.81739" lon="1.17013">
        <ele>113.217</ele>
        <time>2021-03-30T15:04:10Z</time>
      </trkpt>
      <trkpt lat="44.81742" lon="1.17006">
        <ele>110.969</ele>
        <time>2021-03-30T15:04:11Z</time>
      </trkpt>
      <trkpt lat="44.8174" lon="1.16993">
        <ele>109.821</ele>
        <time>2021-03-30T15:04:13Z</time>
      </trkpt>
      <trkpt lat="44.81742" lon="1.16985">
        <ele>107.595</ele>
        <time>2021-03-30T15:04:14Z</time>
      </trkpt>
      <trkpt lat="44.81731" lon="1.16944">
        <ele>106.147</ele>
        <time>2021-03-30T15:04:19Z</time>
      </trkpt>
      <trkpt lat="44.8171" lon="1.16928">
        <ele>111.856</ele>
        <time>2021-03-30T15:04:22Z</time>
      </trkpt>
      <trkpt lat="44.81711" lon="1.1691">
        <ele>107.395</ele>
        <time>2021-03-30T15:04:24Z</time>
      </trkpt>
      <trkpt lat="44.81702" lon="1.16897">
        <ele>108.662</ele>
        <time>2021-03-30T15:04:26Z</time>
      </trkpt>
      <trkpt lat="44.81699" lon="1.16879">
        <ele>106.126</ele>
        <time>2021-03-30T15:04:29Z</time>
      </trkpt>
      <trkpt lat="44.81675" lon="1.16831">
        <ele>106.91</ele>
        <time>2021-03-30T15:04:35Z</time>
      </trkpt>
      <trkpt lat="44.81675" lon="1.16823">
        <ele>105.191</ele>
        <time>2021-03-30T15:04:36Z</time>
      </trkpt>
      <trkpt lat="44.81659" lon="1.16787">
        <ele>104.171</ele>
        <time>2021-03-30T15:04:41Z</time>
      </trkpt>
      <trkpt lat="44.8166" lon="1.16779">
        <ele>101.705</ele>
        <time>2021-03-30T15:04:42Z</time>
      </trkpt>
      <trkpt lat="44.81645" lon="1.16768">
        <ele>106.555</ele>
        <time>2021-03-30T15:04:44Z</time>
      </trkpt>
      <trkpt lat="44.81638" lon="1.16768">
        <ele>110.355</ele>
        <time>2021-03-30T15:04:45Z</time>
      </trkpt>
      <trkpt lat="44.81625" lon="1.16744">
        <ele>107.113</ele>
        <time>2021-03-30T15:04:49Z</time>
      </trkpt>
      <trkpt lat="44.81593" lon="1.1672">
        <ele>110.109</ele>
        <time>2021-03-30T15:04:55Z</time>
      </trkpt>
      <trkpt lat="44.81574" lon="1.16713">
        <ele>110.554</ele>
        <time>2021-03-30T15:04:58Z</time>
      </trkpt>
      <trkpt lat="44.81556" lon="1.16715">
        <ele>112.608</ele>
        <time>2021-03-30T15:05:01Z</time>
      </trkpt>
      <trkpt lat="44.81536" lon="1.16703">
        <ele>113.257</ele>
        <time>2021-03-30T15:05:04Z</time>
      </trkpt>
      <trkpt lat="44.81521" lon="1.16651">
        <ele>114.508</ele>
        <time>2021-03-30T15:05:11Z</time>
      </trkpt>
      <trkpt lat="44.81522" lon="1.16641">
        <ele>113.755</ele>
        <time>2021-03-30T15:05:12Z</time>
      </trkpt>
      <trkpt lat="44.81504" lon="1.16612">
        <ele>117.889</ele>
        <time>2021-03-30T15:05:17Z</time>
      </trkpt>
      <trkpt lat="44.81501" lon="1.16573">
        <ele>116.68</ele>
        <time>2021-03-30T15:05:22Z</time>
      </trkpt>
      <trkpt lat="44.81492" lon="1.16556">
        <ele>117.817</ele>
        <time>2021-03-30T15:05:24Z</time>
      </trkpt>
      <trkpt lat="44.81493" lon="1.16534">
        <ele>114.066</ele>
        <time>2021-03-30T15:05:26Z</time>
      </trkpt>
      <trkpt lat="44.81479" lon="1.16513">
        <ele>118.123</ele>
        <time>2021-03-30T15:05:29Z</time>
      </trkpt>
      <trkpt lat="44.81476" lon="1.16472">
        <ele>113.746</ele>
        <time>2021-03-30T15:05:33Z</time>
      </trkpt>
      <trkpt lat="44.81465" lon="1.16443">
        <ele>115.646</ele>
        <time>2021-03-30T15:05:36Z</time>
      </trkpt>
      <trkpt lat="44.81467" lon="1.1642">
        <ele>110.179</ele>
        <time>2021-03-30T15:05:39Z</time>
      </trkpt>
      <trkpt lat="44.81464" lon="1.16415">
        <ele>111.205</ele>
        <time>2021-03-30T15:05:40Z</time>
      </trkpt>
      <trkpt lat="44.81464" lon="1.16405">
        <ele>109.33</ele>
        <time>2021-03-30T15:05:41Z</time>
      </trkpt>
      <trkpt lat="44.81459" lon="1.16399">
        <ele>111.834</ele>
        <time>2021-03-30T15:05:42Z</time>
      </trkpt>
      <trkpt lat="44.81456" lon="1.16386">
        <ele>111.641</ele>
        <time>2021-03-30T15:05:44Z</time>
      </trkpt>
      <trkpt lat="44.81447" lon="1.16383">
        <ele>116.784</ele>
        <time>2021-03-30T15:05:45Z</time>
      </trkpt>
      <trkpt lat="44.81448" lon="1.16373">
        <ele>114.254</ele>
        <time>2021-03-30T15:05:46Z</time>
      </trkpt>
      <trkpt lat="44.81434" lon="1.16354">
        <ele>120.583</ele>
        <time>2021-03-30T15:05:49Z</time>
      </trkpt>
      <trkpt lat="44.8143" lon="1.16342">
        <ele>121</ele>
        <time>2021-03-30T15:05:50Z</time>
      </trkpt>
      <trkpt lat="44.81431" lon="1.16319">
        <ele>116.513</ele>
        <time>2021-03-30T15:05:53Z</time>
      </trkpt>
      <trkpt lat="44.81424" lon="1.16305">
        <ele>119.159</ele>
        <time>2021-03-30T15:05:55Z</time>
      </trkpt>
      <trkpt lat="44.81424" lon="1.16296">
        <ele>116.998</ele>
        <time>2021-03-30T15:05:56Z</time>
      </trkpt>
      <trkpt lat="44.81415" lon="1.16264">
        <ele>118.095</ele>
        <time>2021-03-30T15:06:00Z</time>
      </trkpt>
      <trkpt lat="44.81416" lon="1.16255">
        <ele>116.148</ele>
        <time>2021-03-30T15:06:01Z</time>
      </trkpt>
      <trkpt lat="44.81407" lon="1.16225">
        <ele>117.389</ele>
        <time>2021-03-30T15:06:05Z</time>
      </trkpt>
      <trkpt lat="44.81399" lon="1.16216">
        <ele>121.221</ele>
        <time>2021-03-30T15:06:06Z</time>
      </trkpt>
      <trkpt lat="44.814" lon="1.16204">
        <ele>118.637</ele>
        <time>2021-03-30T15:06:07Z</time>
      </trkpt>
      <trkpt lat="44.81393" lon="1.16171">
        <ele>118.746</ele>
        <time>2021-03-30T15:06:11Z</time>
      </trkpt>
      <trkpt lat="44.81382" lon="1.16157">
        <ele>123.141</ele>
        <time>2021-03-30T15:06:13Z</time>
      </trkpt>
      <trkpt lat="44.81376" lon="1.16157">
        <ele>126.659</ele>
        <time>2021-03-30T15:06:14Z</time>
      </trkpt>
      <trkpt lat="44.81369" lon="1.16149">
        <ele>129.287</ele>
        <time>2021-03-30T15:06:16Z</time>
      </trkpt>
      <trkpt lat="44.81377" lon="1.1614">
        <ele>124.397</ele>
        <time>2021-03-30T15:06:17Z</time>
      </trkpt>
      <trkpt lat="44.81386" lon="1.16115">
        <ele>119.37</ele>
        <time>2021-03-30T15:06:20Z</time>
      </trkpt>
      <trkpt lat="44.81401" lon="1.16044">
        <ele>105.864</ele>
        <time>2021-03-30T15:06:28Z</time>
      </trkpt>
      <trkpt lat="44.8141" lon="1.15945">
        <ele>94.442</ele>
        <time>2021-03-30T15:06:38Z</time>
      </trkpt>
      <trkpt lat="44.81419" lon="1.15903">
        <ele>89.628</ele>
        <time>2021-03-30T15:06:42Z</time>
      </trkpt>
      <trkpt lat="44.81418" lon="1.15868">
        <ele>90.199</ele>
        <time>2021-03-30T15:06:45Z</time>
      </trkpt>
      <trkpt lat="44.81411" lon="1.1584">
        <ele>93.464</ele>
        <time>2021-03-30T15:06:48Z</time>
      </trkpt>
      <trkpt lat="44.8141" lon="1.15787">
        <ele>89.026</ele>
        <time>2021-03-30T15:06:53Z</time>
      </trkpt>
      <trkpt lat="44.81393" lon="1.15736">
        <ele>87.115</ele>
        <time>2021-03-30T15:07:00Z</time>
      </trkpt>
      <trkpt lat="44.81371" lon="1.15709">
        <ele>85.44</ele>
        <time>2021-03-30T15:07:07Z</time>
      </trkpt>
      <trkpt lat="44.8117" lon="1.15653">
        <ele>76.818</ele>
        <time>2021-03-30T15:09:18Z</time>
      </trkpt>
      <trkpt lat="44.81091" lon="1.15645">
        <ele>74.57</ele>
        <time>2021-03-30T15:09:30Z</time>
      </trkpt>
      <trkpt lat="44.81018" lon="1.15649">
        <ele>75.77</ele>
        <time>2021-03-30T15:09:41Z</time>
      </trkpt>
      <trkpt lat="44.80965" lon="1.15645">
        <ele>74.049</ele>
        <time>2021-03-30T15:09:48Z</time>
      </trkpt>
      <trkpt lat="44.80953" lon="1.15648">
        <ele>75.01</ele>
        <time>2021-03-30T15:09:50Z</time>
      </trkpt>
      <trkpt lat="44.80954" lon="1.15654">
        <ele>76.904</ele>
        <time>2021-03-30T15:09:51Z</time>
      </trkpt>
      <trkpt lat="44.80922" lon="1.15666">
        <ele>77.254</ele>
        <time>2021-03-30T15:09:55Z</time>
      </trkpt>
      <trkpt lat="44.80905" lon="1.15683">
        <ele>79.99</ele>
        <time>2021-03-30T15:09:58Z</time>
      </trkpt>
      <trkpt lat="44.8086" lon="1.15705">
        <ele>78.685</ele>
        <time>2021-03-30T15:10:05Z</time>
      </trkpt>
      <trkpt lat="44.80854" lon="1.15712">
        <ele>79.829</ele>
        <time>2021-03-30T15:10:06Z</time>
      </trkpt>
      <trkpt lat="44.80829" lon="1.15725">
        <ele>79.187</ele>
        <time>2021-03-30T15:10:10Z</time>
      </trkpt>
      <trkpt lat="44.80768" lon="1.15775">
        <ele>78.459</ele>
        <time>2021-03-30T15:10:22Z</time>
      </trkpt>
      <trkpt lat="44.80764" lon="1.15771">
        <ele>77.25</ele>
        <time>2021-03-30T15:10:23Z</time>
      </trkpt>
      <trkpt lat="44.80738" lon="1.15707">
        <ele>69.238</ele>
        <time>2021-03-30T15:10:31Z</time>
      </trkpt>
      <trkpt lat="44.80739" lon="1.157">
        <ele>69.124</ele>
        <time>2021-03-30T15:10:32Z</time>
      </trkpt>
      <trkpt lat="44.80795" lon="1.156">
        <ele>68.139</ele>
        <time>2021-03-30T15:10:47Z</time>
      </trkpt>
      <trkpt lat="44.80793" lon="1.15606">
        <ele>68.082</ele>
        <time>2021-03-30T15:10:51Z</time>
      </trkpt>
      <trkpt lat="44.80855" lon="1.15461">
        <ele>69.872</ele>
        <time>2021-03-30T15:11:35Z</time>
      </trkpt>
      <trkpt lat="44.8085" lon="1.15453">
        <ele>70.024</ele>
        <time>2021-03-30T15:11:42Z</time>
      </trkpt>
      <trkpt lat="44.80868" lon="1.15422">
        <ele>72.25</ele>
        <time>2021-03-30T15:12:39Z</time>
      </trkpt>
      <trkpt lat="44.80939" lon="1.15381">
        <ele>73.393</ele>
        <time>2021-03-30T15:12:51Z</time>
      </trkpt>
      <trkpt lat="44.80953" lon="1.15367">
        <ele>77.067</ele>
        <time>2021-03-30T15:12:54Z</time>
      </trkpt>
      <trkpt lat="44.81035" lon="1.15336">
        <ele>76.634</ele>
        <time>2021-03-30T15:13:05Z</time>
      </trkpt>
      <trkpt lat="44.81075" lon="1.15308">
        <ele>77.489</ele>
        <time>2021-03-30T15:13:12Z</time>
      </trkpt>
      <trkpt lat="44.81106" lon="1.153">
        <ele>75.439</ele>
        <time>2021-03-30T15:13:17Z</time>
      </trkpt>
      <trkpt lat="44.81247" lon="1.15226">
        <ele>74.577</ele>
        <time>2021-03-30T15:13:39Z</time>
      </trkpt>
      <trkpt lat="44.81257" lon="1.15228">
        <ele>73.188</ele>
        <time>2021-03-30T15:13:42Z</time>
      </trkpt>
      <trkpt lat="44.81265" lon="1.1525">
        <ele>69.532</ele>
        <time>2021-03-30T15:13:44Z</time>
      </trkpt>
      <trkpt lat="44.8127" lon="1.15254">
        <ele>68.978</ele>
        <time>2021-03-30T15:13:45Z</time>
      </trkpt>
      <trkpt lat="44.813" lon="1.15234">
        <ele>70.209</ele>
        <time>2021-03-30T15:13:50Z</time>
      </trkpt>
      <trkpt lat="44.81312" lon="1.15234">
        <ele>69.7</ele>
        <time>2021-03-30T15:13:52Z</time>
      </trkpt>
      <trkpt lat="44.81333" lon="1.15221">
        <ele>70.198</ele>
        <time>2021-03-30T15:13:56Z</time>
      </trkpt>
      <trkpt lat="44.81377" lon="1.1514">
        <ele>74.673</ele>
        <time>2021-03-30T15:14:57Z</time>
      </trkpt>
      <trkpt lat="44.81388" lon="1.15144">
        <ele>73.204</ele>
        <time>2021-03-30T15:14:59Z</time>
      </trkpt>
      <trkpt lat="44.81672" lon="1.15358">
        <ele>72.992</ele>
        <time>2021-03-30T15:15:51Z</time>
      </trkpt>
      <trkpt lat="44.81675" lon="1.15353">
        <ele>72.673</ele>
        <time>2021-03-30T15:15:55Z</time>
      </trkpt>
      <trkpt lat="44.81664" lon="1.1533">
        <ele>70.552</ele>
        <time>2021-03-30T15:16:03Z</time>
      </trkpt>
      <trkpt lat="44.81649" lon="1.15322">
        <ele>69.228</ele>
        <time>2021-03-30T15:16:06Z</time>
      </trkpt>
      <trkpt lat="44.81603" lon="1.15251">
        <ele>66.981</ele>
        <time>2021-03-30T15:16:17Z</time>
      </trkpt>
      <trkpt lat="44.81598" lon="1.15227">
        <ele>67.171</ele>
        <time>2021-03-30T15:16:20Z</time>
      </trkpt>
      <trkpt lat="44.81624" lon="1.15184">
        <ele>67.901</ele>
        <time>2021-03-30T15:16:29Z</time>
      </trkpt>
      <trkpt lat="44.81625" lon="1.15177">
        <ele>68</ele>
        <time>2021-03-30T15:16:30Z</time>
      </trkpt>
      <trkpt lat="44.81673" lon="1.15123">
        <ele>67.717</ele>
        <time>2021-03-30T15:16:40Z</time>
      </trkpt>
      <trkpt lat="44.81687" lon="1.15115">
        <ele>67.407</ele>
        <time>2021-03-30T15:16:43Z</time>
      </trkpt>
      <trkpt lat="44.81701" lon="1.15093">
        <ele>66.747</ele>
        <time>2021-03-30T15:16:47Z</time>
      </trkpt>
      <trkpt lat="44.81741" lon="1.15052">
        <ele>65.429</ele>
        <time>2021-03-30T15:16:56Z</time>
      </trkpt>
      <trkpt lat="44.81773" lon="1.15033">
        <ele>65.597</ele>
        <time>2021-03-30T15:17:02Z</time>
      </trkpt>
      <trkpt lat="44.81776" lon="1.15027">
        <ele>65.784</ele>
        <time>2021-03-30T15:17:07Z</time>
      </trkpt>
      <trkpt lat="44.81778" lon="1.1503">
        <ele>65.592</ele>
        <time>2021-03-30T15:17:14Z</time>
      </trkpt>
      <trkpt lat="44.81801" lon="1.15018">
        <ele>65.589</ele>
        <time>2021-03-30T15:17:38Z</time>
      </trkpt>
      <trkpt lat="44.81813" lon="1.15017">
        <ele>65.214</ele>
        <time>2021-03-30T15:17:41Z</time>
      </trkpt>
      <trkpt lat="44.81829" lon="1.15003">
        <ele>65.169</ele>
        <time>2021-03-30T15:17:44Z</time>
      </trkpt>
      <trkpt lat="44.81865" lon="1.14996">
        <ele>64.766</ele>
        <time>2021-03-30T15:17:53Z</time>
      </trkpt>
      <trkpt lat="44.81873" lon="1.15002">
        <ele>64.486</ele>
        <time>2021-03-30T15:17:59Z</time>
      </trkpt>
      <trkpt lat="44.81964" lon="1.14962">
        <ele>65.084</ele>
        <time>2021-03-30T15:18:54Z</time>
      </trkpt>
      <trkpt lat="44.82012" lon="1.14956">
        <ele>56.399</ele>
        <time>2021-03-30T15:19:03Z</time>
      </trkpt>
      <trkpt lat="44.82048" lon="1.14942">
        <ele>53.778</ele>
        <time>2021-03-30T15:19:14Z</time>
      </trkpt>
      <trkpt lat="44.82065" lon="1.14947">
        <ele>53.244</ele>
        <time>2021-03-30T15:19:21Z</time>
      </trkpt>
      <trkpt lat="44.821" lon="1.14946">
        <ele>52.2</ele>
        <time>2021-03-30T15:19:26Z</time>
      </trkpt>
      <trkpt lat="44.82147" lon="1.14932">
        <ele>51.452</ele>
        <time>2021-03-30T15:19:34Z</time>
      </trkpt>
      <trkpt lat="44.82189" lon="1.14931">
        <ele>51.201</ele>
        <time>2021-03-30T15:19:41Z</time>
      </trkpt>
      <trkpt lat="44.82204" lon="1.14934">
        <ele>51.681</ele>
        <time>2021-03-30T15:19:43Z</time>
      </trkpt>
      <trkpt lat="44.82303" lon="1.14933">
        <ele>54.932</ele>
        <time>2021-03-30T15:19:58Z</time>
      </trkpt>
      <trkpt lat="44.82363" lon="1.14911">
        <ele>55.196</ele>
        <time>2021-03-30T15:20:08Z</time>
      </trkpt>
      <trkpt lat="44.82367" lon="1.14916">
        <ele>55.649</ele>
        <time>2021-03-30T15:20:09Z</time>
      </trkpt>
      <trkpt lat="44.82381" lon="1.14907">
        <ele>55.197</ele>
        <time>2021-03-30T15:20:12Z</time>
      </trkpt>
      <trkpt lat="44.82394" lon="1.14906">
        <ele>55.362</ele>
        <time>2021-03-30T15:20:14Z</time>
      </trkpt>
      <trkpt lat="44.82431" lon="1.14889">
        <ele>53.929</ele>
        <time>2021-03-30T15:20:21Z</time>
      </trkpt>
      <trkpt lat="44.82453" lon="1.14888">
        <ele>54.557</ele>
        <time>2021-03-30T15:20:25Z</time>
      </trkpt>
      <trkpt lat="44.82487" lon="1.14876">
        <ele>54.928</ele>
        <time>2021-03-30T15:20:31Z</time>
      </trkpt>
      <trkpt lat="44.82494" lon="1.14878">
        <ele>55.677</ele>
        <time>2021-03-30T15:20:32Z</time>
      </trkpt>
      <trkpt lat="44.82538" lon="1.14862">
        <ele>57.335</ele>
        <time>2021-03-30T15:20:39Z</time>
      </trkpt>
      <trkpt lat="44.82579" lon="1.14853">
        <ele>59.71</ele>
        <time>2021-03-30T15:20:46Z</time>
      </trkpt>
      <trkpt lat="44.82613" lon="1.14854">
        <ele>62.075</ele>
        <time>2021-03-30T15:20:52Z</time>
      </trkpt>
      <trkpt lat="44.82687" lon="1.14844">
        <ele>65.439</ele>
        <time>2021-03-30T15:21:05Z</time>
      </trkpt>
      <trkpt lat="44.82768" lon="1.14825">
        <ele>66.58</ele>
        <time>2021-03-30T15:21:18Z</time>
      </trkpt>
      <trkpt lat="44.828" lon="1.14822">
        <ele>67.431</ele>
        <time>2021-03-30T15:21:23Z</time>
      </trkpt>
      <trkpt lat="44.82867" lon="1.14829">
        <ele>68.923</ele>
        <time>2021-03-30T15:21:33Z</time>
      </trkpt>
      <trkpt lat="44.82943" lon="1.14818">
        <ele>69.348</ele>
        <time>2021-03-30T15:21:45Z</time>
      </trkpt>
      <trkpt lat="44.82965" lon="1.14806">
        <ele>69.537</ele>
        <time>2021-03-30T15:21:49Z</time>
      </trkpt>
      <trkpt lat="44.83014" lon="1.14805">
        <ele>70.533</ele>
        <time>2021-03-30T15:21:57Z</time>
      </trkpt>
      <trkpt lat="44.83034" lon="1.14793">
        <ele>70.717</ele>
        <time>2021-03-30T15:22:02Z</time>
      </trkpt>
      <trkpt lat="44.83137" lon="1.14802">
        <ele>70.087</ele>
        <time>2021-03-30T15:22:25Z</time>
      </trkpt>
      <trkpt lat="44.83136" lon="1.14804">
        <ele>70.095</ele>
        <time>2021-03-30T15:22:29Z</time>
      </trkpt>
      <trkpt lat="44.8318" lon="1.14808">
        <ele>70</ele>
        <time>2021-03-30T15:23:43Z</time>
      </trkpt>
      <trkpt lat="44.83186" lon="1.14813">
        <ele>70</ele>
        <time>2021-03-30T15:23:45Z</time>
      </trkpt>
      <trkpt lat="44.83187" lon="1.14819">
        <ele>70</ele>
        <time>2021-03-30T15:23:48Z</time>
      </trkpt>
      <trkpt lat="44.83178" lon="1.14828">
        <ele>70</ele>
        <time>2021-03-30T15:23:55Z</time>
      </trkpt>
      <trkpt lat="44.83172" lon="1.14852">
        <ele>70.156</ele>
        <time>2021-03-30T15:24:01Z</time>
      </trkpt>
      <trkpt lat="44.83164" lon="1.14856">
        <ele>70.139</ele>
        <time>2021-03-30T15:24:03Z</time>
      </trkpt>
      <trkpt lat="44.83102" lon="1.1485">
        <ele>70</ele>
        <time>2021-03-30T15:24:12Z</time>
      </trkpt>
      <trkpt lat="44.83083" lon="1.14854">
        <ele>70</ele>
        <time>2021-03-30T15:24:15Z</time>
      </trkpt>
      <trkpt lat="44.83071" lon="1.14862">
        <ele>70</ele>
        <time>2021-03-30T15:24:17Z</time>
      </trkpt>
      <trkpt lat="44.83067" lon="1.14869">
        <ele>70</ele>
        <time>2021-03-30T15:24:18Z</time>
      </trkpt>
      <trkpt lat="44.83068" lon="1.14879">
        <ele>70</ele>
        <time>2021-03-30T15:24:19Z</time>
      </trkpt>
      <trkpt lat="44.83066" lon="1.14884">
        <ele>70</ele>
        <time>2021-03-30T15:24:20Z</time>
      </trkpt>
      <trkpt lat="44.83062" lon="1.14983">
        <ele>70.696</ele>
        <time>2021-03-30T15:24:32Z</time>
      </trkpt>
      <trkpt lat="44.83068" lon="1.15004">
        <ele>71.354</ele>
        <time>2021-03-30T15:24:34Z</time>
      </trkpt>
      <trkpt lat="44.8307" lon="1.15062">
        <ele>72.554</ele>
        <time>2021-03-30T15:24:42Z</time>
      </trkpt>
      <trkpt lat="44.83065" lon="1.15084">
        <ele>72.894</ele>
        <time>2021-03-30T15:24:44Z</time>
      </trkpt>
      <trkpt lat="44.83067" lon="1.15099">
        <ele>73.126</ele>
        <time>2021-03-30T15:24:46Z</time>
      </trkpt>
      <trkpt lat="44.83064" lon="1.1515">
        <ele>73.942</ele>
        <time>2021-03-30T15:24:52Z</time>
      </trkpt>
      <trkpt lat="44.83059" lon="1.1517">
        <ele>74.253</ele>
        <time>2021-03-30T15:24:54Z</time>
      </trkpt>
      <trkpt lat="44.8306" lon="1.15286">
        <ele>74.997</ele>
        <time>2021-03-30T15:25:08Z</time>
      </trkpt>
      <trkpt lat="44.83076" lon="1.15294">
        <ele>74.645</ele>
        <time>2021-03-30T15:25:11Z</time>
      </trkpt>
      <trkpt lat="44.83179" lon="1.1529">
        <ele>74</ele>
        <time>2021-03-30T15:25:27Z</time>
      </trkpt>
      <trkpt lat="44.83246" lon="1.15292">
        <ele>74.034</ele>
        <time>2021-03-30T15:25:38Z</time>
      </trkpt>
      <trkpt lat="44.83254" lon="1.15284">
        <ele>74.037</ele>
        <time>2021-03-30T15:25:40Z</time>
      </trkpt>
      <trkpt lat="44.83257" lon="1.15242">
        <ele>74</ele>
        <time>2021-03-30T15:25:45Z</time>
      </trkpt>
      <trkpt lat="44.83254" lon="1.15216">
        <ele>74</ele>
        <time>2021-03-30T15:25:48Z</time>
      </trkpt>
      <trkpt lat="44.83256" lon="1.15171">
        <ele>73.592</ele>
        <time>2021-03-30T15:25:54Z</time>
      </trkpt>
      <trkpt lat="44.83241" lon="1.15095">
        <ele>73.01</ele>
        <time>2021-03-30T15:26:05Z</time>
      </trkpt>
      <trkpt lat="44.83233" lon="1.1508">
        <ele>72.99</ele>
        <time>2021-03-30T15:26:08Z</time>
      </trkpt>
      <trkpt lat="44.83236" lon="1.15066">
        <ele>72.989</ele>
        <time>2021-03-30T15:26:10Z</time>
      </trkpt>
      <trkpt lat="44.83234" lon="1.15018">
        <ele>72.837</ele>
        <time>2021-03-30T15:26:16Z</time>
      </trkpt>
      <trkpt lat="44.83236" lon="1.15">
        <ele>72.617</ele>
        <time>2021-03-30T15:26:18Z</time>
      </trkpt>
      <trkpt lat="44.83234" lon="1.14908">
        <ele>71.174</ele>
        <time>2021-03-30T15:26:30Z</time>
      </trkpt>
      <trkpt lat="44.83248" lon="1.14894">
        <ele>70.957</ele>
        <time>2021-03-30T15:27:24Z</time>
      </trkpt>
      <trkpt lat="44.83267" lon="1.14862">
        <ele>70.446</ele>
        <time>2021-03-30T15:27:30Z</time>
      </trkpt>
      <trkpt lat="44.83278" lon="1.14853">
        <ele>70.311</ele>
        <time>2021-03-30T15:27:36Z</time>
      </trkpt>
      <trkpt lat="44.83283" lon="1.14841">
        <ele>70.119</ele>
        <time>2021-03-30T15:27:44Z</time>
      </trkpt>
      <trkpt lat="44.83316" lon="1.14851">
        <ele>70.294</ele>
        <time>2021-03-30T15:28:56Z</time>
      </trkpt>
      <trkpt lat="44.83406" lon="1.1485">
        <ele>71.311</ele>
        <time>2021-03-30T15:29:20Z</time>
      </trkpt>
      <trkpt lat="44.83537" lon="1.14827">
        <ele>71.987</ele>
        <time>2021-03-30T15:29:41Z</time>
      </trkpt>
      <trkpt lat="44.83642" lon="1.14818">
        <ele>72.934</ele>
        <time>2021-03-30T15:29:58Z</time>
      </trkpt>
      <trkpt lat="44.83743" lon="1.14794">
        <ele>75.988</ele>
        <time>2021-03-30T15:30:14Z</time>
      </trkpt>
      <trkpt lat="44.83839" lon="1.14738">
        <ele>78.096</ele>
        <time>2021-03-30T15:30:32Z</time>
      </trkpt>
      <trkpt lat="44.83856" lon="1.14715">
        <ele>78.196</ele>
        <time>2021-03-30T15:30:44Z</time>
      </trkpt>
      <trkpt lat="44.8387" lon="1.14712">
        <ele>78.783</ele>
        <time>2021-03-30T15:32:32Z</time>
      </trkpt>
      <trkpt lat="44.83883" lon="1.14703">
        <ele>79.045</ele>
        <time>2021-03-30T15:32:36Z</time>
      </trkpt>
      <trkpt lat="44.83892" lon="1.14685">
        <ele>78.876</ele>
        <time>2021-03-30T15:32:40Z</time>
      </trkpt>
      <trkpt lat="44.83905" lon="1.14668">
        <ele>79.301</ele>
        <time>2021-03-30T15:32:44Z</time>
      </trkpt>
      <trkpt lat="44.83912" lon="1.14642">
        <ele>80.184</ele>
        <time>2021-03-30T15:32:49Z</time>
      </trkpt>
      <trkpt lat="44.83914" lon="1.14651">
        <ele>80.592</ele>
        <time>2021-03-30T15:32:59Z</time>
      </trkpt>
      <trkpt lat="44.83911" lon="1.14671">
        <ele>80.294</ele>
        <time>2021-03-30T15:33:03Z</time>
      </trkpt>
      <trkpt lat="44.83913" lon="1.14677">
        <ele>80.691</ele>
        <time>2021-03-30T15:33:09Z</time>
      </trkpt>
      <trkpt lat="44.83934" lon="1.14692">
        <ele>83.983</ele>
        <time>2021-03-30T15:33:31Z</time>
      </trkpt>
      <trkpt lat="44.83939" lon="1.14706">
        <ele>84.428</ele>
        <time>2021-03-30T15:33:33Z</time>
      </trkpt>
      <trkpt lat="44.8394" lon="1.14725">
        <ele>83.807</ele>
        <time>2021-03-30T15:33:35Z</time>
      </trkpt>
      <trkpt lat="44.83945" lon="1.14731">
        <ele>84.154</ele>
        <time>2021-03-30T15:33:36Z</time>
      </trkpt>
      <trkpt lat="44.83942" lon="1.14754">
        <ele>82.982</ele>
        <time>2021-03-30T15:33:38Z</time>
      </trkpt>
      <trkpt lat="44.83945" lon="1.1483">
        <ele>81.205</ele>
        <time>2021-03-30T15:33:47Z</time>
      </trkpt>
      <trkpt lat="44.8396" lon="1.14898">
        <ele>82.543</ele>
        <time>2021-03-30T15:33:55Z</time>
      </trkpt>
      <trkpt lat="44.83949" lon="1.1494">
        <ele>79.715</ele>
        <time>2021-03-30T15:33:59Z</time>
      </trkpt>
      <trkpt lat="44.83945" lon="1.14974">
        <ele>79.495</ele>
        <time>2021-03-30T15:34:02Z</time>
      </trkpt>
      <trkpt lat="44.8395" lon="1.1503">
        <ele>79.75</ele>
        <time>2021-03-30T15:34:07Z</time>
      </trkpt>
      <trkpt lat="44.83958" lon="1.15075">
        <ele>80.245</ele>
        <time>2021-03-30T15:34:11Z</time>
      </trkpt>
      <trkpt lat="44.83957" lon="1.15107">
        <ele>79.99</ele>
        <time>2021-03-30T15:34:14Z</time>
      </trkpt>
      <trkpt lat="44.8395" lon="1.15136">
        <ele>80</ele>
        <time>2021-03-30T15:34:17Z</time>
      </trkpt>
      <trkpt lat="44.8393" lon="1.15176">
        <ele>80</ele>
        <time>2021-03-30T15:34:22Z</time>
      </trkpt>
      <trkpt lat="44.83891" lon="1.15225">
        <ele>78.16</ele>
        <time>2021-03-30T15:34:30Z</time>
      </trkpt>
      <trkpt lat="44.83808" lon="1.15307">
        <ele>73.646</ele>
        <time>2021-03-30T15:34:45Z</time>
      </trkpt>
      <trkpt lat="44.83799" lon="1.15321">
        <ele>73.232</ele>
        <time>2021-03-30T15:34:47Z</time>
      </trkpt>
      <trkpt lat="44.83752" lon="1.15365">
        <ele>72.278</ele>
        <time>2021-03-30T15:34:56Z</time>
      </trkpt>
      <trkpt lat="44.83723" lon="1.15384">
        <ele>72.742</ele>
        <time>2021-03-30T15:35:01Z</time>
      </trkpt>
      <trkpt lat="44.83713" lon="1.15406">
        <ele>72.714</ele>
        <time>2021-03-30T15:35:04Z</time>
      </trkpt>
      <trkpt lat="44.83718" lon="1.15424">
        <ele>72.02</ele>
        <time>2021-03-30T15:35:07Z</time>
      </trkpt>
      <trkpt lat="44.83721" lon="1.1546">
        <ele>70.978</ele>
        <time>2021-03-30T15:35:12Z</time>
      </trkpt>
      <trkpt lat="44.83712" lon="1.15485">
        <ele>71.191</ele>
        <time>2021-03-30T15:35:16Z</time>
      </trkpt>
      <trkpt lat="44.83704" lon="1.15495">
        <ele>71.581</ele>
        <time>2021-03-30T15:35:19Z</time>
      </trkpt>
      <trkpt lat="44.83698" lon="1.15516">
        <ele>71.643</ele>
        <time>2021-03-30T15:35:23Z</time>
      </trkpt>
      <trkpt lat="44.83692" lon="1.15525">
        <ele>71.936</ele>
        <time>2021-03-30T15:35:25Z</time>
      </trkpt>
      <trkpt lat="44.83684" lon="1.15549">
        <ele>71.998</ele>
        <time>2021-03-30T15:35:29Z</time>
      </trkpt>
      <trkpt lat="44.83678" lon="1.15657">
        <ele>71.035</ele>
        <time>2021-03-30T15:35:43Z</time>
      </trkpt>
      <trkpt lat="44.83664" lon="1.15719">
        <ele>72.152</ele>
        <time>2021-03-30T15:35:51Z</time>
      </trkpt>
      <trkpt lat="44.83653" lon="1.15725">
        <ele>72.966</ele>
        <time>2021-03-30T15:35:55Z</time>
      </trkpt>
      <trkpt lat="44.83646" lon="1.15739">
        <ele>73.665</ele>
        <time>2021-03-30T15:35:58Z</time>
      </trkpt>
      <trkpt lat="44.83631" lon="1.15783">
        <ele>74.936</ele>
        <time>2021-03-30T15:36:04Z</time>
      </trkpt>
      <trkpt lat="44.83601" lon="1.15841">
        <ele>76.228</ele>
        <time>2021-03-30T15:36:12Z</time>
      </trkpt>
      <trkpt lat="44.83598" lon="1.15856">
        <ele>76.584</ele>
        <time>2021-03-30T15:36:14Z</time>
      </trkpt>
      <trkpt lat="44.83607" lon="1.15874">
        <ele>76.551</ele>
        <time>2021-03-30T15:36:17Z</time>
      </trkpt>
      <trkpt lat="44.83598" lon="1.15888">
        <ele>77.002</ele>
        <time>2021-03-30T15:36:27Z</time>
      </trkpt>
      <trkpt lat="44.83576" lon="1.159">
        <ele>77.658</ele>
        <time>2021-03-30T15:36:34Z</time>
      </trkpt>
      <trkpt lat="44.83566" lon="1.15901">
        <ele>77.893</ele>
        <time>2021-03-30T15:36:36Z</time>
      </trkpt>
      <trkpt lat="44.83559" lon="1.1589">
        <ele>78.055</ele>
        <time>2021-03-30T15:36:38Z</time>
      </trkpt>
      <trkpt lat="44.83548" lon="1.15858">
        <ele>78.275</ele>
        <time>2021-03-30T15:36:43Z</time>
      </trkpt>
      <trkpt lat="44.8355" lon="1.15849">
        <ele>78.238</ele>
        <time>2021-03-30T15:36:45Z</time>
      </trkpt>
      <trkpt lat="44.8356" lon="1.15841">
        <ele>78.012</ele>
        <time>2021-03-30T15:36:53Z</time>
      </trkpt>
    </trkseg>
  </trk>
</gpx>